Provisional Data: Sangerfield River near Poolville, NY


Please select a monitoring station.
Please select start date.
Please select start date.

Toggle Unit: C/F Toggle Unit: C/F
Sample Time Temperature (C) Temperature (F) Specific Conductivity (mS/cm) pH   Turbidity (NTU+) DO (mg/L)
2/4/2021 12:00:00 AM -0.03 31.946 0.337 8.15 4.86 13.55
2/4/2021 12:15:00 AM -0.04 31.928 0.337 8.16 5.07 13.56
2/4/2021 12:30:00 AM -0.04 31.928 0.337 8.16 5.13 13.56
2/4/2021 12:45:00 AM -0.04 31.928 0.337 8.15 4.93 13.56
2/4/2021 1:00:00 AM -0.04 31.928 0.337 8.15 4.95 13.56
2/4/2021 1:15:00 AM -0.04 31.928 0.337 8.16 4.9 13.57
2/4/2021 1:30:00 AM -0.04 31.928 0.336 8.16 5.15 13.57
2/4/2021 1:45:00 AM -0.04 31.928 0.336 8.16 4.92 13.56
2/4/2021 2:00:00 AM -0.04 31.928 0.336 8.16 5.04 13.58
2/4/2021 2:15:00 AM -0.04 31.928 0.336 8.16 8.99 13.57
2/4/2021 2:30:00 AM -0.04 31.928 0.336 8.16 4.93 13.58
2/4/2021 2:45:00 AM -0.04 31.928 0.336 8.16 4.92 13.58
2/4/2021 3:00:00 AM -0.04 31.928 0.336 8.16 4.86 13.58
2/4/2021 3:15:00 AM -0.04 31.928 0.336 8.16 4.96 13.58
2/4/2021 3:30:00 AM -0.04 31.928 0.336 8.16 4.83 13.59
2/4/2021 3:45:00 AM -0.04 31.928 0.336 8.16 5.04 13.59
2/4/2021 4:00:00 AM -0.04 31.928 0.336 8.16 5.27 13.58
2/4/2021 4:15:00 AM -0.04 31.928 0.336 8.16 5.01 13.59
2/4/2021 4:30:00 AM -0.04 31.928 0.336 8.16 4.98 13.59
2/4/2021 4:45:00 AM -0.05 31.91 0.336 8.16 4.98 13.59
2/4/2021 5:00:00 AM -0.05 31.91 0.336 8.16 5.04 13.6
2/4/2021 5:15:00 AM -0.05 31.91 0.336 8.16 4.9 13.6
2/4/2021 5:30:00 AM -0.05 31.91 0.336 8.16 4.97 13.61
2/4/2021 5:45:00 AM -0.06 31.892 0.336 8.16 4.87 13.61
2/4/2021 6:00:00 AM -0.06 31.892 0.336 8.16 5 13.61
2/4/2021 6:15:00 AM -0.06 31.892 0.337 8.16 4.82 13.61
2/4/2021 6:30:00 AM -0.07 31.874 0.337 8.16 5.18 13.63
2/4/2021 6:45:00 AM -0.07 31.874 0.337 8.16 4.86 13.62
2/4/2021 7:00:00 AM -0.07 31.874 0.337 8.16 4.9 13.63
2/4/2021 7:15:00 AM -0.07 31.874 0.337 8.15 5.06 13.64
2/4/2021 7:30:00 AM -0.07 31.874 0.337 8.15 4.97 13.64
2/4/2021 7:45:00 AM -0.07 31.874 0.337 8.16 5.08 13.64
2/4/2021 8:00:00 AM -0.07 31.874 0.337 8.16 4.88 13.66
2/4/2021 8:15:00 AM -0.06 31.892 0.337 8.16 4.95 13.67
2/4/2021 8:30:00 AM -0.06 31.892 0.337 8.16 4.84 13.7
2/4/2021 8:45:00 AM -0.06 31.892 0.337 8.16 4.8 13.7
2/4/2021 9:00:00 AM -0.05 31.91 0.338 8.16 4.73 13.72
2/4/2021 9:15:00 AM -0.05 31.91 0.337 8.16 4.69 13.72
2/4/2021 9:30:00 AM -0.04 31.928 0.337 8.16 4.62 13.75
2/4/2021 9:45:00 AM -0.01 31.982 0.338 8.17 4.76 13.76
2/4/2021 10:00:00 AM 0.01 32.018 0.337 8.17 4.71 13.78
2/4/2021 10:15:00 AM 0.01 32.018 0.337 8.18 4.98 13.79
2/4/2021 10:30:00 AM 0.02 32.036 0.337 8.17 4.75 13.77
2/4/2021 10:45:00 AM 0.03 32.054 0.337 8.17 4.93 13.76
2/4/2021 11:00:00 AM 0.05 32.09 0.337 8.17 4.94 13.77
2/4/2021 11:15:00 AM 0.06 32.108 0.337 8.18 4.95 13.78
2/4/2021 11:30:00 AM 0.08 32.144 0.336 8.18 4.88 13.77
2/4/2021 11:45:00 AM 0.1 32.18 0.336 8.18 4.86 13.76
2/4/2021 12:00:00 PM 0.12 32.216 0.336 8.18 5.05 13.76
2/4/2021 12:15:00 PM 0.13 32.234 0.336 8.18 5.1 13.76
2/4/2021 12:30:00 PM 0.14 32.252 0.335 8.18 4.94 13.76
2/4/2021 12:45:00 PM 0.15 32.27 0.335 8.18 5.12 13.77
2/4/2021 1:00:00 PM 0.15 32.27 0.335 8.18 5.3 13.75
2/4/2021 1:15:00 PM 0.15 32.27 0.335 8.19 5.33 13.76
2/4/2021 1:30:00 PM 0.15 32.27 0.335 8.19 5.41 13.75
2/4/2021 1:45:00 PM 0.14 32.252 0.335 8.19 5.64 13.74
2/4/2021 2:00:00 PM 0.14 32.252 0.334 8.19 5.38 13.72
2/4/2021 2:15:00 PM 0.13 32.234 0.334 8.19 5.71 13.71
2/4/2021 2:30:00 PM 0.12 32.216 0.334 8.19 5.55 13.71
2/4/2021 2:45:00 PM 0.11 32.198 0.334 8.19 6.22 13.69
2/4/2021 3:00:00 PM 0.1 32.18 0.333 8.19 5.77 13.7
2/4/2021 3:15:00 PM 0.09 32.162 0.333 8.19 5.86 13.69
2/4/2021 3:30:00 PM 0.07 32.126 0.332 8.2 5.75 13.69
2/4/2021 3:45:00 PM 0.05 32.09 0.332 8.2 5.87 13.69
2/4/2021 4:00:00 PM 0.03 32.054 0.331 8.2 5.89 13.67
2/4/2021 4:15:00 PM 0.02 32.036 0.331 8.2 5.81 13.67
2/4/2021 4:30:00 PM 0.01 32.018 0.331 8.19 5.84 13.66
2/4/2021 4:45:00 PM 0 32 0.331 8.19 6.01 13.66
2/4/2021 5:00:00 PM -0.01 31.982 0.331 8.19 6 13.64
2/4/2021 5:15:00 PM -0.02 31.964 0.331 8.19 6.04 13.64
2/4/2021 5:30:00 PM -0.03 31.946 0.331 8.19 5.91 13.64
2/4/2021 5:45:00 PM -0.04 31.928 0.331 8.19 5.9 13.62
2/4/2021 6:00:00 PM -0.04 31.928 0.331 8.19 5.93 13.63
2/4/2021 6:15:00 PM -0.05 31.91 0.331 8.19 5.59 13.62
2/4/2021 6:30:00 PM -0.05 31.91 0.332 8.19 5.77 13.63
2/4/2021 6:45:00 PM -0.06 31.892 0.332 8.18 5.65 13.64
2/4/2021 7:00:00 PM -0.06 31.892 0.332 8.18 5.33 13.64
2/4/2021 7:15:00 PM -0.06 31.892 0.332 8.18 5.46 13.65
2/4/2021 7:30:00 PM -0.07 31.874 0.332 8.18 5.45 13.66
2/4/2021 7:45:00 PM -0.07 31.874 0.332 8.17 5.99 13.68
2/4/2021 8:00:00 PM -0.07 31.874 0.333 8.18 5.35 13.68
2/4/2021 8:15:00 PM -0.07 31.874 0.333 8.17 5.41 13.69
2/4/2021 8:30:00 PM -0.07 31.874 0.333 8.18 5.29 13.7
2/4/2021 8:45:00 PM -0.07 31.874 0.334 8.17 5.34 13.72
2/4/2021 9:00:00 PM -0.07 31.874 0.334 8.17 5.94 13.73
2/4/2021 9:15:00 PM -0.07 31.874 0.334 8.17 5.85 13.74
2/4/2021 9:30:00 PM -0.07 31.874 0.335 8.18 5.84 13.75
2/4/2021 9:45:00 PM -0.07 31.874 0.335 8.17 5.38 13.75
2/4/2021 10:00:00 PM -0.07 31.874 0.335 8.17 5.82 13.77
2/4/2021 10:15:00 PM -0.07 31.874 0.335 8.17 5.57 13.77
2/4/2021 10:30:00 PM -0.07 31.874 0.336 8.17 5.39 13.76
2/4/2021 10:45:00 PM -0.06 31.892 0.336 8.17 5.63 13.77
2/4/2021 11:00:00 PM -0.06 31.892 0.336 8.17 5.56 13.78
2/4/2021 11:15:00 PM -0.06 31.892 0.336 8.17 5.15 13.77
2/4/2021 11:30:00 PM -0.06 31.892 0.337 8.16 5.38 13.77
2/4/2021 11:45:00 PM -0.06 31.892 0.337 8.16 5.62 13.77
2/5/2021 12:00:00 AM -0.06 31.892 0.337 8.16 5.41 13.76
2/5/2021 12:15:00 AM -0.06 31.892 0.337 8.16 5.26 13.76
2/5/2021 12:30:00 AM -0.06 31.892 0.337 8.16 5.2 13.76
2/5/2021 12:45:00 AM -0.06 31.892 0.337 8.16 5.23 13.75
2/5/2021 1:00:00 AM -0.06 31.892 0.337 8.16 5.73 13.75
2/5/2021 1:15:00 AM -0.06 31.892 0.337 8.16 5.2 13.75
2/5/2021 1:30:00 AM -0.06 31.892 0.337 8.16 5.13 13.75
2/5/2021 1:45:00 AM -0.06 31.892 0.338 8.16 5.34 13.74
2/5/2021 2:00:00 AM -0.06 31.892 0.338 8.16 5.13 13.74
2/5/2021 2:15:00 AM -0.06 31.892 0.338 8.16 5.08 13.73
2/5/2021 2:30:00 AM -0.06 31.892 0.338 8.16 5.02 13.72
2/5/2021 2:45:00 AM -0.06 31.892 0.338 8.16 4.94 13.71
2/5/2021 3:00:00 AM -0.06 31.892 0.338 8.16 5.5 13.71
2/5/2021 3:15:00 AM -0.06 31.892 0.338 8.15 5.21 13.68
2/5/2021 3:30:00 AM -0.06 31.892 0.338 8.16 5.38 13.68
2/5/2021 3:45:00 AM -0.06 31.892 0.338 8.16 4.99 13.66
2/5/2021 4:00:00 AM -0.06 31.892 0.338 8.16 5.41 13.66
2/5/2021 4:15:00 AM -0.06 31.892 0.338 8.16 5.29 13.64
2/5/2021 4:30:00 AM -0.06 31.892 0.338 8.16 5.24 13.63
2/5/2021 4:45:00 AM -0.06 31.892 0.338 8.16 5.16 13.62
2/5/2021 5:00:00 AM -0.06 31.892 0.338 8.15 5.05 13.61
2/5/2021 5:15:00 AM -0.06 31.892 0.338 8.16 5.33 13.59
2/5/2021 5:30:00 AM -0.06 31.892 0.338 8.15 5.12 13.59
2/5/2021 5:45:00 AM -0.06 31.892 0.338 8.15 5.22 13.57
2/5/2021 6:00:00 AM -0.06 31.892 0.338 8.16 5.3 13.56
2/5/2021 6:15:00 AM -0.06 31.892 0.338 8.15 5.38 13.55
2/5/2021 6:30:00 AM -0.06 31.892 0.338 8.15 5.39 13.53
2/5/2021 6:45:00 AM -0.06 31.892 0.338 8.15 5.46 13.52
2/5/2021 7:00:00 AM -0.06 31.892 0.338 8.15 5.43 13.51
2/5/2021 7:15:00 AM -0.06 31.892 0.338 8.15 5.72 13.5
2/5/2021 7:30:00 AM -0.06 31.892 0.338 8.15 5.43 13.49
2/5/2021 7:45:00 AM -0.06 31.892 0.338 8.15 5.62 13.49
2/5/2021 8:00:00 AM -0.06 31.892 0.338 8.15 5.36 13.48
2/5/2021 8:15:00 AM -0.06 31.892 0.338 8.15 5.98 13.47
2/5/2021 8:30:00 AM -0.06 31.892 0.338 8.15 5.32 13.48
2/5/2021 8:45:00 AM -0.06 31.892 0.337 8.15 5.48 13.48
2/5/2021 9:00:00 AM -0.06 31.892 0.337 8.15 5.63 13.48
2/5/2021 9:15:00 AM -0.05 31.91 0.337 8.15 5.61 13.48
2/5/2021 9:30:00 AM -0.05 31.91 0.337 8.15 5.66 13.48
2/5/2021 9:45:00 AM -0.04 31.928 0.336 8.15 5.72 13.5
2/5/2021 10:00:00 AM -0.03 31.946 0.336 8.16 5.44 13.49
2/5/2021 10:15:00 AM -0.02 31.964 0.335 8.16 5.66 13.51
2/5/2021 10:30:00 AM 0.01 32.018 0.335 8.16 5.62 13.51
2/5/2021 10:45:00 AM 0.02 32.036 0.336 8.16 5.76 13.52
2/5/2021 11:00:00 AM 0.05 32.09 0.335 8.16 5.98 13.54
2/5/2021 11:15:00 AM 0.08 32.144 0.334 8.16 5.86 13.55
2/5/2021 11:30:00 AM 0.1 32.18 0.333 8.16 5.55 13.54
2/5/2021 11:45:00 AM 0.11 32.198 0.333 8.16 5.83 13.55
2/5/2021 12:00:00 PM 0.1 32.18 0.333 8.16 6.46 13.55
2/5/2021 12:15:00 PM 0.1 32.18 0.333 8.16 5.75 13.57
2/5/2021 12:30:00 PM 0.13 32.234 0.332 8.16 6.73 13.57
2/5/2021 12:45:00 PM 0.12 32.216 0.332 8.16 6.34 13.57
2/5/2021 1:00:00 PM 0.15 32.27 0.332 8.16 6.19 13.56
2/5/2021 1:15:00 PM 0.18 32.324 0.331 8.17 6.38 13.55
2/5/2021 1:30:00 PM 0.16 32.288 0.331 8.18 6.07 13.57
2/5/2021 1:45:00 PM 0.14 32.252 0.331 8.18 6.53 13.56
2/5/2021 2:00:00 PM 0.16 32.288 0.33 8.19 6.67 13.56
2/5/2021 2:15:00 PM 0.18 32.324 0.33 8.19 6.51 13.55
2/5/2021 2:30:00 PM 0.16 32.288 0.33 8.19 6.63 13.55
2/5/2021 2:45:00 PM 0.16 32.288 0.329 8.19 6.87 13.55
2/5/2021 3:00:00 PM 0.16 32.288 0.329 8.2 6.93 13.56
2/5/2021 3:15:00 PM 0.14 32.252 0.329 8.2 6.85 13.55
2/5/2021 3:30:00 PM 0.12 32.216 0.329 8.2 6.9 13.54
2/5/2021 3:45:00 PM 0.11 32.198 0.329 8.2 6.9 13.54
2/5/2021 4:00:00 PM 0.08 32.144 0.329 8.2 6.99 13.55
2/5/2021 4:15:00 PM 0.06 32.108 0.329 8.2 6.85 13.53
2/5/2021 4:30:00 PM 0.05 32.09 0.329 8.2 6.67 13.52
2/5/2021 4:45:00 PM 0.05 32.09 0.329 8.2 6.64 13.53
2/5/2021 5:00:00 PM 0.04 32.072 0.329 8.2 6.78 13.52
2/5/2021 5:15:00 PM 0.02 32.036 0.328 8.2 6.63 13.51
2/5/2021 5:30:00 PM 0.01 32.018 0.328 8.2 6.42 13.49
2/5/2021 5:45:00 PM 0 32 0.328 8.2 6.96 13.48
2/5/2021 6:00:00 PM 0 32 0.328 8.2 6.64 13.48
2/5/2021 6:15:00 PM 0 32 0.328 8.2 6.51 13.47
2/5/2021 6:30:00 PM 0 32 0.328 8.19 6.51 13.48
2/5/2021 6:45:00 PM 0.01 32.018 0.329 8.19 6.46 13.48
2/5/2021 7:00:00 PM 0 32 0.329 8.19 6.24 13.48
2/5/2021 7:15:00 PM -0.01 31.982 0.329 8.19 6.17 13.5
2/5/2021 7:30:00 PM -0.01 31.982 0.329 8.19 6.21 13.49
2/5/2021 7:45:00 PM -0.01 31.982 0.329 8.19 6.29 13.5
2/5/2021 8:00:00 PM 0 32 0.329 8.19 6.31 13.52
2/5/2021 8:15:00 PM 0 32 0.329 8.19 6 13.52
2/5/2021 8:30:00 PM 0 32 0.329 8.19 6.13 13.54
2/5/2021 8:45:00 PM 0 32 0.329 8.19 6.07 13.53
2/5/2021 9:00:00 PM -0.01 31.982 0.329 8.19 5.94 13.55
2/5/2021 9:15:00 PM -0.01 31.982 0.329 8.19 6.06 13.56
2/5/2021 9:30:00 PM -0.02 31.964 0.33 8.19 5.94 13.57
2/5/2021 9:45:00 PM -0.02 31.964 0.33 8.19 5.74 13.58
2/5/2021 10:00:00 PM -0.01 31.982 0.33 8.18 5.96 13.59
2/5/2021 10:15:00 PM -0.01 31.982 0.33 8.19 6.01 13.59
2/5/2021 10:30:00 PM -0.01 31.982 0.33 8.19 5.69 13.6
2/5/2021 10:45:00 PM -0.01 31.982 0.33 8.19 5.6 13.61
2/5/2021 11:00:00 PM -0.01 31.982 0.33 8.19 5.5 13.61
2/5/2021 11:15:00 PM -0.02 31.964 0.33 8.19 5.63 13.62
2/5/2021 11:30:00 PM -0.02 31.964 0.33 8.19 5.84 13.64
2/5/2021 11:45:00 PM -0.03 31.946 0.33 8.19 5.98 13.64
2/6/2021 12:00:00 AM -0.03 31.946 0.33 8.19 5.71 13.65
2/6/2021 12:15:00 AM -0.04 31.928 0.33 8.19 5.74 13.65
2/6/2021 12:30:00 AM -0.04 31.928 0.33 8.18 5.87 13.66
2/6/2021 12:45:00 AM -0.04 31.928 0.33 8.18 5.66 13.66
2/6/2021 1:00:00 AM -0.04 31.928 0.33 8.18 5.49 13.66
2/6/2021 1:15:00 AM -0.04 31.928 0.33 8.18 5.52 13.67
2/6/2021 1:30:00 AM -0.04 31.928 0.329 8.18 5.59 13.68
2/6/2021 1:45:00 AM -0.04 31.928 0.329 8.18 5.66 13.69
2/6/2021 2:00:00 AM -0.04 31.928 0.329 8.18 5.57 13.68
2/6/2021 2:15:00 AM -0.04 31.928 0.329 8.18 5.43 13.69
2/6/2021 2:30:00 AM -0.04 31.928 0.329 8.19 5.42 13.69
2/6/2021 2:45:00 AM -0.04 31.928 0.329 8.18 5.33 13.69
2/6/2021 3:00:00 AM -0.04 31.928 0.33 8.19 5.53 13.69
2/6/2021 3:15:00 AM -0.04 31.928 0.33 8.19 5.28 13.69
2/6/2021 3:30:00 AM -0.05 31.91 0.33 8.19 5.18 13.71
2/6/2021 3:45:00 AM -0.05 31.91 0.33 8.19 5.29 13.7
2/6/2021 4:00:00 AM -0.05 31.91 0.33 8.19 5.38 13.71
2/6/2021 4:15:00 AM -0.05 31.91 0.33 8.19 5 13.71
2/6/2021 4:30:00 AM -0.05 31.91 0.33 8.19 5.11 13.7
2/6/2021 4:45:00 AM -0.05 31.91 0.33 8.19 5.11 13.71
2/6/2021 5:00:00 AM -0.05 31.91 0.33 8.19 5.05 13.72
2/6/2021 5:15:00 AM -0.05 31.91 0.331 8.19 5.19 13.73
2/6/2021 5:30:00 AM -0.05 31.91 0.331 8.19 5.28 13.72
2/6/2021 5:45:00 AM -0.05 31.91 0.331 8.19 5.21 13.73
2/6/2021 6:00:00 AM -0.05 31.91 0.331 8.19 5.24 13.72
2/6/2021 6:15:00 AM -0.05 31.91 0.331 8.19 5.96 13.73
2/6/2021 6:30:00 AM -0.04 31.928 0.331 8.19 5.29 13.73
2/6/2021 6:45:00 AM -0.04 31.928 0.331 8.19 5.43 13.73
2/6/2021 7:00:00 AM -0.04 31.928 0.331 8.18 5.19 13.73
2/6/2021 7:15:00 AM -0.04 31.928 0.331 8.19 5.28 13.73
2/6/2021 7:30:00 AM -0.04 31.928 0.331 8.18 5.25 13.74
2/6/2021 7:45:00 AM -0.04 31.928 0.332 8.18 5.05 13.75
2/6/2021 8:00:00 AM -0.04 31.928 0.332 8.19 5.11 13.77
2/6/2021 8:15:00 AM -0.04 31.928 0.331 8.19 5.02 13.78
2/6/2021 8:30:00 AM -0.02 31.964 0.332 8.19 5.24 13.8
2/6/2021 8:45:00 AM 0 32 0.331 8.2 5.04 13.82
2/6/2021 9:00:00 AM 0.02 32.036 0.331 8.2 5.21 13.85
2/6/2021 9:15:00 AM 0.05 32.09 0.331 8.2 5.09 13.86
2/6/2021 9:30:00 AM 0.05 32.09 0.331 8.2 5.2 13.87
2/6/2021 9:45:00 AM 0.04 32.072 0.331 8.21 5.23 13.88
2/6/2021 10:00:00 AM 0.03 32.054 0.331 8.21 5.25 13.9
2/6/2021 10:15:00 AM 0.05 32.09 0.331 8.21 5.07 13.89
2/6/2021 10:30:00 AM 0.06 32.108 0.331 8.21 5.18 13.9
2/6/2021 10:45:00 AM 0.06 32.108 0.331 8.22 5.08 13.9
2/6/2021 11:00:00 AM 0.08 32.144 0.331 8.22 5.17 13.9
2/6/2021 11:15:00 AM 0.09 32.162 0.331 8.22 5.49 13.91
2/6/2021 11:30:00 AM 0.09 32.162 0.331 8.22 5.19 13.93
2/6/2021 11:45:00 AM 0.13 32.234 0.331 8.22 5.41 13.93
2/6/2021 12:00:00 PM 0.17 32.306 0.33 8.22 5.5 13.92
2/6/2021 12:15:00 PM 0.19 32.342 0.33 8.22 5.55 13.92
2/6/2021 12:30:00 PM 0.2 32.36 0.33 8.22 5.71 13.9
2/6/2021 12:45:00 PM 0.17 32.306 0.33 8.23 5.64 13.91
2/6/2021 1:00:00 PM 0.16 32.288 0.33 8.23 5.69 13.9
2/6/2021 1:15:00 PM 0.17 32.306 0.33 8.23 6 13.89
2/6/2021 1:30:00 PM 0.18 32.324 0.329 8.23 6.19 13.89
2/6/2021 1:45:00 PM 0.17 32.306 0.329 8.23 5.97 13.88
2/6/2021 2:00:00 PM 0.17 32.306 0.329 8.24 5.99 13.89
2/6/2021 2:15:00 PM 0.16 32.288 0.329 8.24 5.89 13.88
2/6/2021 2:30:00 PM 0.15 32.27 0.328 8.24 6.24 13.86
2/6/2021 2:45:00 PM 0.13 32.234 0.328 8.24 6.14 13.87
2/6/2021 3:00:00 PM 0.12 32.216 0.328 8.24 6.42 13.86
2/6/2021 3:15:00 PM 0.11 32.198 0.327 8.24 6.28 13.86
2/6/2021 3:30:00 PM 0.08 32.144 0.327 8.24 6.46 13.86
2/6/2021 3:45:00 PM 0.05 32.09 0.327 8.24 6.32 13.86
2/6/2021 4:00:00 PM 0.03 32.054 0.327 8.24 6.36 13.85
2/6/2021 4:15:00 PM 0.01 32.018 0.326 8.24 6.03 13.86
2/6/2021 4:30:00 PM -0.01 31.982 0.326 8.24 6.51 13.84
2/6/2021 4:45:00 PM -0.03 31.946 0.326 8.24 6.37 13.84
2/6/2021 5:00:00 PM -0.04 31.928 0.326 8.24 6.18 13.84
2/6/2021 5:15:00 PM -0.05 31.91 0.325 8.24 6.55 13.83
2/6/2021 5:30:00 PM -0.06 31.892 0.325 8.23 6.03 13.83
2/6/2021 5:45:00 PM -0.07 31.874 0.325 8.23 6.61 13.81
2/6/2021 6:00:00 PM -0.07 31.874 0.325 8.23 6.51 13.81
2/6/2021 6:15:00 PM -0.07 31.874 0.325 8.23 5.95 13.81
2/6/2021 6:30:00 PM -0.08 31.856 0.325 8.22 5.91 13.82
2/6/2021 6:45:00 PM -0.08 31.856 0.325 8.22 5.81 13.82
2/6/2021 7:00:00 PM -0.08 31.856 0.325 8.22 5.95 13.83
2/6/2021 7:15:00 PM -0.08 31.856 0.326 8.21 6.58 13.84
2/6/2021 7:30:00 PM -0.08 31.856 0.326 8.22 6.66 13.86
2/6/2021 7:45:00 PM -0.07 31.874 0.327 8.22 6.02 13.86
2/6/2021 8:00:00 PM -0.07 31.874 0.328 8.21 6.1 13.88
2/6/2021 8:15:00 PM -0.07 31.874 0.329 8.21 5.76 13.9
2/6/2021 8:30:00 PM -0.07 31.874 0.33 8.21 5.63 13.92
2/6/2021 8:45:00 PM -0.07 31.874 0.331 8.21 5.6 13.95
2/6/2021 9:00:00 PM -0.07 31.874 0.331 8.21 5.36 13.96
2/6/2021 9:15:00 PM -0.07 31.874 0.332 8.21 5.48 13.97
2/6/2021 9:30:00 PM -0.07 31.874 0.333 8.21 5.43 14
2/6/2021 9:45:00 PM -0.07 31.874 0.333 8.21 5.77 14
2/6/2021 10:00:00 PM -0.07 31.874 0.334 8.21 5.69 14.02
2/6/2021 10:15:00 PM -0.07 31.874 0.335 8.21 5.43 14.03
2/6/2021 10:30:00 PM -0.06 31.892 0.335 8.21 5.56 14.05
2/6/2021 10:45:00 PM -0.06 31.892 0.336 8.21 5.22 14.05
2/6/2021 11:00:00 PM -0.06 31.892 0.336 8.21 5.88 14.05
2/6/2021 11:15:00 PM -0.06 31.892 0.337 8.21 5.06 14.06
2/6/2021 11:30:00 PM -0.06 31.892 0.337 8.21 5.27 14.07
2/6/2021 11:45:00 PM -0.06 31.892 0.338 8.21 5.33 14.07
2/7/2021 12:00:00 AM -0.06 31.892 0.339 8.21 5.06 14.08
2/7/2021 12:15:00 AM -0.06 31.892 0.339 8.21 5.22 14.08
2/7/2021 12:30:00 AM -0.06 31.892 0.34 8.2 5.18 14.08
2/7/2021 12:45:00 AM -0.06 31.892 0.34 8.2 5.5 14.08
2/7/2021 1:00:00 AM -0.06 31.892 0.341 8.21 5.2 14.1
2/7/2021 1:15:00 AM -0.06 31.892 0.341 8.21 5.36 14.1
2/7/2021 1:30:00 AM -0.06 31.892 0.342 8.21 5.69 14.11
2/7/2021 1:45:00 AM -0.06 31.892 0.342 8.21 5.14 14.11
2/7/2021 2:00:00 AM -0.06 31.892 0.343 8.2 5.09 14.11
2/7/2021 2:15:00 AM -0.06 31.892 0.344 8.21 5.43 14.12
2/7/2021 2:30:00 AM -0.06 31.892 0.344 8.21 5.4 14.11
2/7/2021 2:45:00 AM -0.06 31.892 0.345 8.21 5.04 14.11
2/7/2021 3:00:00 AM -0.06 31.892 0.346 8.2 6.07 14.12
2/7/2021 3:15:00 AM -0.06 31.892 0.346 8.21 7.33 14.11
2/7/2021 3:30:00 AM -0.06 31.892 0.347 8.21 6.88 14.11
2/7/2021 3:45:00 AM -0.06 31.892 0.348 8.2 6.04 14.11
2/7/2021 4:00:00 AM -0.06 31.892 0.348 8.2 5.27 14.11
2/7/2021 4:15:00 AM -0.06 31.892 0.348 8.2 5.24 14.1
2/7/2021 4:30:00 AM -0.06 31.892 0.349 8.2 5.3 14.1
2/7/2021 4:45:00 AM -0.06 31.892 0.35 8.19 5.5 14.1
2/7/2021 5:00:00 AM -0.06 31.892 0.35 8.2 5 14.09
2/7/2021 5:15:00 AM -0.06 31.892 0.35 8.2 5.07 14.07
2/7/2021 5:30:00 AM -0.06 31.892 0.351 8.19 5.11 14.07
2/7/2021 5:45:00 AM -0.06 31.892 0.352 8.19 4.92 14.06
2/7/2021 6:00:00 AM -0.06 31.892 0.352 8.19 5.29 14.05
2/7/2021 6:15:00 AM -0.06 31.892 0.353 8.18 5 14.04
2/7/2021 6:30:00 AM -0.06 31.892 0.353 8.18 5.04 14.03
2/7/2021 6:45:00 AM -0.06 31.892 0.353 8.17 5.19 14.02
2/7/2021 7:00:00 AM -0.06 31.892 0.354 8.18 5.42 14.02
2/7/2021 7:15:00 AM -0.06 31.892 0.354 8.17 5.44 14.01
2/7/2021 7:30:00 AM -0.06 31.892 0.355 8.17 5.2 14
2/7/2021 7:45:00 AM -0.06 31.892 0.355 8.17 4.97 13.99
2/7/2021 8:00:00 AM -0.06 31.892 0.355 8.17 4.93 14
2/7/2021 8:15:00 AM -0.06 31.892 0.356 8.18 5.01 13.99
2/7/2021 8:30:00 AM -0.06 31.892 0.356 8.18 4.88 14
2/7/2021 8:45:00 AM -0.06 31.892 0.356 8.18 4.79 14
2/7/2021 9:00:00 AM -0.06 31.892 0.356 8.17 5.44 14.01
2/7/2021 9:15:00 AM -0.06 31.892 0.356 8.18 5.12 14
2/7/2021 9:30:00 AM -0.06 31.892 0.357 8.18 4.86 14.02
2/7/2021 9:45:00 AM -0.06 31.892 0.357 8.18 5.2 14.01
2/7/2021 10:00:00 AM -0.06 31.892 0.357 8.18 5.1 14.01
2/7/2021 10:15:00 AM -0.06 31.892 0.357 8.18 5.02 14
2/7/2021 10:30:00 AM -0.06 31.892 0.357 8.19 5.41 14
2/7/2021 10:45:00 AM -0.05 31.91 0.356 8.18 5.44 13.99
2/7/2021 11:00:00 AM -0.05 31.91 0.356 8.18 5.29 13.97
2/7/2021 11:15:00 AM -0.05 31.91 0.355 8.17 5.88 13.94
2/7/2021 11:30:00 AM -0.05 31.91 0.355 8.18 6.11 13.92
2/7/2021 11:45:00 AM -0.06 31.892 0.355 8.18 6.48 13.9
2/7/2021 12:00:00 PM -0.05 31.91 0.354 8.17 8.45 13.88
2/7/2021 12:15:00 PM -0.05 31.91 0.353 8.17 9.02 13.84
2/7/2021 12:30:00 PM -0.05 31.91 0.352 8.16 10.92 13.8
2/7/2021 12:45:00 PM -0.06 31.892 0.351 8.15 11.54 13.77
2/7/2021 1:00:00 PM -0.06 31.892 0.349 8.15 9.96 13.75
2/7/2021 1:15:00 PM -0.06 31.892 0.348 8.16 11.15 13.74
2/7/2021 1:30:00 PM -0.06 31.892 0.347 8.15 8.85 13.72
2/7/2021 1:45:00 PM -0.06 31.892 0.346 8.15 8.74 13.71
2/7/2021 2:00:00 PM -0.06 31.892 0.345 8.15 8.61 13.69
2/7/2021 2:15:00 PM -0.06 31.892 0.345 8.15 8.08 13.69
2/7/2021 2:30:00 PM -0.06 31.892 0.344 8.15 7.99 13.67
2/7/2021 2:45:00 PM -0.06 31.892 0.344 8.15 7.51 13.68
2/7/2021 3:00:00 PM -0.06 31.892 0.343 8.15 7.27 13.67
2/7/2021 3:15:00 PM -0.06 31.892 0.343 8.15 6.99 13.68
2/7/2021 3:30:00 PM -0.06 31.892 0.343 8.15 6.87 13.68
2/7/2021 3:45:00 PM -0.06 31.892 0.343 8.14 7.2 13.68
2/7/2021 4:00:00 PM -0.06 31.892 0.343 8.14 6.78 13.67
2/7/2021 4:15:00 PM -0.06 31.892 0.343 8.14 7.05 13.67
2/7/2021 4:30:00 PM -0.06 31.892 0.343 8.14 6.8 13.67
2/7/2021 4:45:00 PM -0.06 31.892 0.343 8.14 7.11 13.66
2/7/2021 5:00:00 PM -0.06 31.892 0.343 8.13 6.75 13.65
2/7/2021 5:15:00 PM -0.06 31.892 0.343 8.13 6.8 13.65
2/7/2021 5:30:00 PM -0.06 31.892 0.342 8.13 6.03 13.65
2/7/2021 5:45:00 PM -0.06 31.892 0.342 8.13 6.12 13.65
2/7/2021 6:00:00 PM -0.06 31.892 0.342 8.13 6.23 13.64
2/7/2021 6:15:00 PM -0.06 31.892 0.341 8.13 6.4 13.65
2/7/2021 6:30:00 PM -0.06 31.892 0.341 8.13 6.66 13.66
2/7/2021 6:45:00 PM -0.06 31.892 0.341 8.13 6.1 13.66
2/7/2021 7:00:00 PM -0.06 31.892 0.341 8.13 6.1 13.66
2/7/2021 7:15:00 PM -0.06 31.892 0.34 8.13 5.94 13.67
2/7/2021 7:30:00 PM -0.06 31.892 0.341 8.12 5.96 13.67
2/7/2021 7:45:00 PM -0.06 31.892 0.341 8.13 5.89 13.67
2/7/2021 8:00:00 PM -0.06 31.892 0.341 8.12 6.06 13.69
2/7/2021 8:15:00 PM -0.06 31.892 0.341 8.12 5.6 13.69
2/7/2021 8:30:00 PM -0.06 31.892 0.341 8.13 5.78 13.7
2/7/2021 8:45:00 PM -0.06 31.892 0.341 8.12 5.78 13.7
2/7/2021 9:00:00 PM -0.06 31.892 0.341 8.12 5.92 13.7
2/7/2021 9:15:00 PM -0.06 31.892 0.341 8.12 5.66 13.72
2/7/2021 9:30:00 PM -0.06 31.892 0.341 8.12 5.61 13.72
2/7/2021 9:45:00 PM -0.06 31.892 0.341 8.12 5.46 13.73
2/7/2021 10:00:00 PM -0.06 31.892 0.341 8.12 5.74 13.74
2/7/2021 10:15:00 PM -0.06 31.892 0.341 8.12 5.38 13.74
2/7/2021 10:30:00 PM -0.06 31.892 0.341 8.12 5.34 13.74
2/7/2021 10:45:00 PM -0.06 31.892 0.341 8.12 5.32 13.75
2/7/2021 11:00:00 PM -0.06 31.892 0.341 8.12 5.1 13.76
2/7/2021 11:15:00 PM -0.06 31.892 0.341 8.13 5.13 13.77
2/7/2021 11:30:00 PM -0.06 31.892 0.341 8.12 5.18 13.77
2/7/2021 11:45:00 PM -0.06 31.892 0.341 8.12 5.47 13.77
2/8/2021 12:00:00 AM -0.06 31.892 0.342 8.12 5.36 13.78
2/8/2021 12:15:00 AM -0.06 31.892 0.342 8.12 5.34 13.78
2/8/2021 12:30:00 AM -0.06 31.892 0.342 8.12 5.18 13.79
2/8/2021 12:45:00 AM -0.06 31.892 0.342 8.12 5.26 13.79
2/8/2021 1:00:00 AM -0.06 31.892 0.343 8.12 5.1 13.79
2/8/2021 1:15:00 AM -0.06 31.892 0.343 8.12 5.11 13.8
2/8/2021 1:30:00 AM -0.06 31.892 0.343 8.12 5.18 13.81
2/8/2021 1:45:00 AM -0.06 31.892 0.343 8.12 5.04 13.81
2/8/2021 2:00:00 AM -0.06 31.892 0.343 8.12 4.99 13.81
2/8/2021 2:15:00 AM -0.06 31.892 0.343 8.13 4.91 13.82
2/8/2021 2:30:00 AM -0.06 31.892 0.343 8.12 4.94 13.82
2/8/2021 2:45:00 AM -0.06 31.892 0.343 8.12 4.98 13.82
2/8/2021 3:00:00 AM -0.06 31.892 0.343 8.12 5.14 13.83
2/8/2021 3:15:00 AM -0.06 31.892 0.343 8.12 5.58 13.83
2/8/2021 3:30:00 AM -0.06 31.892 0.343 8.12 5.07 13.83
2/8/2021 3:45:00 AM -0.06 31.892 0.343 8.12 5.03 13.83
2/8/2021 4:00:00 AM -0.06 31.892 0.343 8.12 4.88 13.83
2/8/2021 4:15:00 AM -0.06 31.892 0.343 8.12 4.93 13.84
2/8/2021 4:30:00 AM -0.06 31.892 0.343 8.12 4.85 13.83
2/8/2021 4:45:00 AM -0.06 31.892 0.343 8.11 4.83 13.83
2/8/2021 5:00:00 AM -0.06 31.892 0.343 8.12 5 13.83
2/8/2021 5:15:00 AM -0.06 31.892 0.343 8.12 5.33 13.82
2/8/2021 5:30:00 AM -0.06 31.892 0.343 8.11 5.03 13.82
2/8/2021 5:45:00 AM -0.06 31.892 0.342 8.11 5.15 13.82
2/8/2021 6:00:00 AM -0.06 31.892 0.342 8.11 5.81 13.81
2/8/2021 6:15:00 AM -0.06 31.892 0.342 8.11 4.85 13.81
2/8/2021 6:30:00 AM -0.06 31.892 0.342 8.11 4.84 13.81
2/8/2021 6:45:00 AM -0.06 31.892 0.342 8.11 4.86 13.8
2/8/2021 7:00:00 AM -0.06 31.892 0.342 8.11 4.7 13.8
2/8/2021 7:15:00 AM -0.06 31.892 0.342 8.11 4.76 13.81
2/8/2021 7:30:00 AM -0.06 31.892 0.342 8.11 4.81 13.81
2/8/2021 7:45:00 AM -0.06 31.892 0.342 8.11 5.04 13.81
2/8/2021 8:00:00 AM -0.06 31.892 0.342 8.11 4.86 13.82
2/8/2021 8:15:00 AM -0.06 31.892 0.343 8.11 5.14 13.83
2/8/2021 8:30:00 AM -0.06 31.892 0.343 8.11 5.45 13.84
2/8/2021 8:45:00 AM -0.06 31.892 0.343 8.11 5.14 13.85
2/8/2021 9:00:00 AM -0.06 31.892 0.343 8.11 4.77 13.85
2/8/2021 9:15:00 AM -0.06 31.892 0.343 8.11 5.14 13.87
2/8/2021 9:30:00 AM -0.06 31.892 0.343 8.11 5.19 13.88
2/8/2021 9:45:00 AM -0.06 31.892 0.343 8.12 5.71 13.88
2/8/2021 10:00:00 AM -0.06 31.892 0.343 8.12 5.51 13.89
2/8/2021 10:15:00 AM -0.06 31.892 0.343 8.12 5.84 13.89
2/8/2021 10:30:00 AM -0.06 31.892 0.344 8.11 5.78 13.91
2/8/2021 10:45:00 AM -0.05 31.91 0.343 8.12 5.54 13.91
2/8/2021 11:00:00 AM -0.05 31.91 0.343 8.11 6.37 13.89
2/8/2021 11:15:00 AM -0.05 31.91 0.343 8.12 6.14 13.88
2/8/2021 11:30:00 AM -0.05 31.91 0.343 8.12 7.82 13.87
2/8/2021 11:45:00 AM -0.05 31.91 0.343 8.12 8 13.85
2/8/2021 12:00:00 PM -0.05 31.91 0.343 8.12 8.13 13.85
2/8/2021 12:15:00 PM -0.05 31.91 0.342 8.12 7.34 13.84
2/8/2021 12:30:00 PM -0.05 31.91 0.342 8.12 7.46 13.83
2/8/2021 12:45:00 PM -0.05 31.91 0.342 8.12 7.05 13.82
2/8/2021 1:00:00 PM -0.05 31.91 0.341 8.12 9.1 13.8
2/8/2021 1:15:00 PM -0.05 31.91 0.341 8.12 7.32 13.81
2/8/2021 1:30:00 PM -0.05 31.91 0.34 8.12 6.93 13.81
2/8/2021 1:45:00 PM -0.05 31.91 0.34 8.12 7.12 13.81
2/8/2021 2:00:00 PM -0.05 31.91 0.339 8.12 6.93 13.8
2/8/2021 2:15:00 PM -0.05 31.91 0.339 8.12 6.8 13.8
2/8/2021 2:30:00 PM -0.05 31.91 0.338 8.13 7 13.8
2/8/2021 2:45:00 PM -0.05 31.91 0.338 8.13 6.51 13.8
2/8/2021 3:00:00 PM -0.05 31.91 0.338 8.13 7.46 13.8
2/8/2021 3:15:00 PM -0.05 31.91 0.338 8.13 7.15 13.8
2/8/2021 3:30:00 PM -0.05 31.91 0.338 8.13 6.11 13.79
2/8/2021 3:45:00 PM -0.05 31.91 0.338 8.13 6.06 13.79
2/8/2021 4:00:00 PM -0.06 31.892 0.338 8.14 6.31 13.79
2/8/2021 4:15:00 PM -0.06 31.892 0.339 8.14 5.74 13.78
2/8/2021 4:30:00 PM -0.06 31.892 0.339 8.13 5.59 13.78
2/8/2021 4:45:00 PM -0.06 31.892 0.339 8.14 5.75 13.79
2/8/2021 5:00:00 PM -0.06 31.892 0.339 8.14 5.42 13.78
2/8/2021 5:15:00 PM -0.06 31.892 0.339 8.14 5.82 13.79
2/8/2021 5:30:00 PM -0.07 31.874 0.339 8.14 5.51 13.78
2/8/2021 5:45:00 PM -0.07 31.874 0.339 8.13 5.74 13.78
2/8/2021 6:00:00 PM -0.07 31.874 0.339 8.13 5.35 13.78
2/8/2021 6:15:00 PM -0.07 31.874 0.34 8.13 5.73 13.77
2/8/2021 6:30:00 PM -0.07 31.874 0.34 8.13 5.27 13.78
2/8/2021 6:45:00 PM -0.07 31.874 0.34 8.13 5.45 13.78
2/8/2021 7:00:00 PM -0.07 31.874 0.341 8.13 5.33 13.79
2/8/2021 7:15:00 PM -0.07 31.874 0.341 8.12 5.11 13.79
2/8/2021 7:30:00 PM -0.07 31.874 0.341 8.12 5.39 13.8
2/8/2021 7:45:00 PM -0.07 31.874 0.342 8.12 5.28 13.81
2/8/2021 8:00:00 PM -0.07 31.874 0.342 8.12 5.23 13.82
2/8/2021 8:15:00 PM -0.07 31.874 0.342 8.12 5.23 13.83
2/8/2021 8:30:00 PM -0.07 31.874 0.343 8.13 4.93 13.83
2/8/2021 8:45:00 PM -0.07 31.874 0.343 8.12 5.39 13.83
2/8/2021 9:00:00 PM -0.07 31.874 0.343 8.12 5.05 13.85
2/8/2021 9:15:00 PM -0.07 31.874 0.344 8.12 4.94 13.85
2/8/2021 9:30:00 PM -0.07 31.874 0.344 8.12 4.89 13.86
2/8/2021 9:45:00 PM -0.07 31.874 0.344 8.12 4.97 13.86
2/8/2021 10:00:00 PM -0.07 31.874 0.344 8.12 4.89 13.86
2/8/2021 10:15:00 PM -0.07 31.874 0.345 8.12 4.96 13.85
2/8/2021 10:30:00 PM -0.07 31.874 0.345 8.12 4.93 13.85
2/8/2021 10:45:00 PM -0.07 31.874 0.345 8.12 4.71 13.85
2/8/2021 11:00:00 PM -0.07 31.874 0.345 8.12 5.16 13.85
2/8/2021 11:15:00 PM -0.06 31.892 0.345 8.12 4.93 13.85
2/8/2021 11:30:00 PM -0.06 31.892 0.345 8.12 5.11 13.84
2/8/2021 11:45:00 PM -0.06 31.892 0.345 8.12 4.96 13.85
2/9/2021 12:00:00 AM -0.06 31.892 0.346 8.12 5.65 13.85
2/9/2021 12:15:00 AM -0.06 31.892 0.346 8.12 5.15 13.84
2/9/2021 12:30:00 AM -0.06 31.892 0.346 8.12 4.95 13.83
2/9/2021 12:45:00 AM -0.06 31.892 0.346 8.12 4.87 13.83
2/9/2021 1:00:00 AM -0.06 31.892 0.346 8.12 5.06 13.82
2/9/2021 1:15:00 AM -0.06 31.892 0.346 8.12 5.19 13.81
2/9/2021 1:30:00 AM -0.06 31.892 0.346 8.12 4.89 13.82
2/9/2021 1:45:00 AM -0.06 31.892 0.347 8.12 4.91 13.8
2/9/2021 2:00:00 AM -0.06 31.892 0.347 8.12 5.11 13.8
2/9/2021 2:15:00 AM -0.06 31.892 0.347 8.12 5.29 13.8
2/9/2021 2:30:00 AM -0.06 31.892 0.346 8.12 5.05 13.79
2/9/2021 2:45:00 AM -0.06 31.892 0.346 8.12 5.22 13.79
2/9/2021 3:00:00 AM -0.06 31.892 0.346 8.12 5.07 13.78
2/9/2021 3:15:00 AM -0.06 31.892 0.346 8.12 5.12 13.78
2/9/2021 3:30:00 AM -0.06 31.892 0.346 8.12 5.13 13.78
2/9/2021 3:45:00 AM -0.06 31.892 0.346 8.12 5.13 13.77
2/9/2021 4:00:00 AM -0.06 31.892 0.346 8.12 5.01 13.76
2/9/2021 4:15:00 AM -0.06 31.892 0.346 8.12 5.5 13.76
2/9/2021 4:30:00 AM -0.06 31.892 0.345 8.12 5.37 13.76
2/9/2021 4:45:00 AM -0.06 31.892 0.346 8.11 5.11 13.75
2/9/2021 5:00:00 AM -0.06 31.892 0.345 8.11 4.89 13.76
2/9/2021 5:15:00 AM -0.06 31.892 0.345 8.11 4.91 13.74
2/9/2021 5:30:00 AM -0.06 31.892 0.345 8.11 6.28 13.74
2/9/2021 5:45:00 AM -0.06 31.892 0.345 8.11 5.03 13.74
2/9/2021 6:00:00 AM -0.06 31.892 0.345 8.11 5.14 13.74
2/9/2021 6:15:00 AM -0.06 31.892 0.345 8.11 5.08 13.74
2/9/2021 6:30:00 AM -0.06 31.892 0.346 8.11 5.32 13.72
2/9/2021 6:45:00 AM -0.06 31.892 0.346 8.11 4.94 13.72
2/9/2021 7:00:00 AM -0.06 31.892 0.346 8.11 4.96 13.72
2/9/2021 7:15:00 AM -0.06 31.892 0.346 8.11 5.38 13.72
2/9/2021 7:30:00 AM -0.06 31.892 0.346 8.12 5.51 13.71
2/9/2021 7:45:00 AM -0.06 31.892 0.346 8.11 4.83 13.72
2/9/2021 8:00:00 AM -0.06 31.892 0.346 8.11 4.84 13.71
2/9/2021 8:15:00 AM -0.06 31.892 0.347 8.11 5.01 13.73
2/9/2021 8:30:00 AM -0.06 31.892 0.347 8.11 5.08 13.73
2/9/2021 8:45:00 AM -0.06 31.892 0.347 8.11 4.93 13.73
2/9/2021 9:00:00 AM -0.06 31.892 0.347 8.11 4.9 13.74
2/9/2021 9:15:00 AM -0.06 31.892 0.347 8.12 4.84 13.76
2/9/2021 9:30:00 AM -0.06 31.892 0.348 8.12 5.06 13.77
2/9/2021 9:45:00 AM -0.06 31.892 0.348 8.13 4.85 13.77
2/9/2021 10:00:00 AM -0.06 31.892 0.348 8.13 5.08 13.78
2/9/2021 10:15:00 AM -0.06 31.892 0.348 8.13 4.72 13.78
2/9/2021 10:30:00 AM -0.06 31.892 0.348 8.13 5.04 13.8
2/9/2021 10:45:00 AM -0.06 31.892 0.348 8.14 4.9 13.8
2/9/2021 11:00:00 AM -0.06 31.892 0.349 8.14 4.99 13.8
2/9/2021 11:15:00 AM -0.06 31.892 0.348 8.14 4.92 13.82
2/9/2021 11:30:00 AM -0.06 31.892 0.349 8.15 5.21 13.81
2/9/2021 11:45:00 AM -0.06 31.892 0.349 8.15 5.43 13.82
2/9/2021 12:00:00 PM -0.06 31.892 0.349 8.15 5.37 13.82
2/9/2021 12:15:00 PM -0.06 31.892 0.349 8.15 6.26 13.82
2/9/2021 12:30:00 PM -0.05 31.91 0.35 8.15 5.98 13.83
2/9/2021 12:45:00 PM -0.05 31.91 0.35 8.15 7.27 13.82
2/9/2021 1:00:00 PM -0.05 31.91 0.35 8.15 5.26 13.82
2/9/2021 1:15:00 PM -0.05 31.91 0.35 8.16 5.69 13.82
2/9/2021 1:30:00 PM -0.05 31.91 0.35 8.16 5.75 13.83
2/9/2021 1:45:00 PM -0.05 31.91 0.35 8.16 6.21 13.83
2/9/2021 2:00:00 PM -0.05 31.91 0.35 8.16 6.09 13.83
2/9/2021 2:15:00 PM -0.05 31.91 0.351 8.16 5.39 13.83
2/9/2021 2:30:00 PM -0.05 31.91 0.351 8.16 5.85 13.82
2/9/2021 2:45:00 PM -0.04 31.928 0.351 8.17 5.94 13.82
2/9/2021 3:00:00 PM -0.05 31.91 0.351 8.17 5.46 13.82
2/9/2021 3:15:00 PM -0.05 31.91 0.351 8.17 5.89 13.81
2/9/2021 3:30:00 PM -0.05 31.91 0.351 8.17 5.52 13.81
2/9/2021 3:45:00 PM -0.05 31.91 0.351 8.17 5.71 13.8
2/9/2021 4:00:00 PM -0.05 31.91 0.351 8.17 5.35 13.79
2/9/2021 4:15:00 PM -0.05 31.91 0.351 8.17 5.28 13.79
2/9/2021 4:30:00 PM -0.06 31.892 0.351 8.17 5.43 13.78
2/9/2021 4:45:00 PM -0.06 31.892 0.351 8.17 5.22 13.76
2/9/2021 5:00:00 PM -0.06 31.892 0.351 8.17 6.24 13.76
2/9/2021 5:15:00 PM -0.06 31.892 0.351 8.17 5.17 13.75
2/9/2021 5:30:00 PM -0.06 31.892 0.351 8.16 4.91 13.74
2/9/2021 5:45:00 PM -0.06 31.892 0.352 8.16 5.29 13.73
2/9/2021 6:00:00 PM -0.06 31.892 0.352 8.16 5.16 13.72
2/9/2021 6:15:00 PM -0.06 31.892 0.353 8.16 5.17 13.71
2/9/2021 6:30:00 PM -0.06 31.892 0.353 8.16 5.24 13.72
2/9/2021 6:45:00 PM -0.06 31.892 0.353 8.16 5.04 13.72
2/9/2021 7:00:00 PM -0.06 31.892 0.354 8.16 5.15 13.7
2/9/2021 7:15:00 PM -0.06 31.892 0.355 8.16 5.15 13.71
2/9/2021 7:30:00 PM -0.06 31.892 0.355 8.16 5.12 13.7
2/9/2021 7:45:00 PM -0.06 31.892 0.356 8.16 5.02 13.7
2/9/2021 8:00:00 PM -0.06 31.892 0.356 8.15 5.08 13.7
2/9/2021 8:15:00 PM -0.06 31.892 0.357 8.15 5.14 13.71
2/9/2021 8:30:00 PM -0.06 31.892 0.358 8.15 5.29 13.72
2/9/2021 8:45:00 PM -0.06 31.892 0.358 8.15 5.24 13.71
2/9/2021 9:00:00 PM -0.06 31.892 0.357 8.15 5.1 13.72
2/9/2021 9:15:00 PM -0.06 31.892 0.357 8.15 5.15 13.71
2/9/2021 9:30:00 PM -0.06 31.892 0.357 8.15 5.07 13.71
2/9/2021 9:45:00 PM -0.06 31.892 0.356 8.15 4.91 13.72
2/9/2021 10:00:00 PM -0.06 31.892 0.356 8.15 5.06 13.73
2/9/2021 10:15:00 PM -0.06 31.892 0.356 8.15 4.88 13.73
2/9/2021 10:30:00 PM -0.06 31.892 0.356 8.14 4.97 13.72
2/9/2021 10:45:00 PM -0.06 31.892 0.356 8.15 4.92 13.73
2/9/2021 11:00:00 PM -0.06 31.892 0.356 8.15 4.91 13.73
2/9/2021 11:15:00 PM -0.06 31.892 0.356 8.15 4.89 13.74
2/9/2021 11:30:00 PM -0.06 31.892 0.356 8.15 4.87 13.74
2/9/2021 11:45:00 PM -0.06 31.892 0.356 8.15 4.77 13.74
2/10/2021 12:00:00 AM -0.06 31.892 0.356 8.15 4.68 13.74
2/10/2021 12:15:00 AM -0.06 31.892 0.356 8.15 5.03 13.75
2/10/2021 12:30:00 AM -0.06 31.892 0.356 8.15 4.83 13.76
2/10/2021 12:45:00 AM -0.06 31.892 0.356 8.15 4.86 13.76
2/10/2021 1:00:00 AM -0.06 31.892 0.356 8.15 4.86 13.76
2/10/2021 1:15:00 AM -0.06 31.892 0.356 8.15 4.71 13.77
2/10/2021 1:30:00 AM -0.06 31.892 0.356 8.15 4.72 13.78
2/10/2021 1:45:00 AM -0.07 31.874 0.356 8.15 4.65 13.78
2/10/2021 2:00:00 AM -0.06 31.892 0.356 8.15 4.66 13.78
2/10/2021 2:15:00 AM -0.06 31.892 0.356 8.15 4.57 13.8
2/10/2021 2:30:00 AM -0.07 31.874 0.356 8.15 4.63 13.8
2/10/2021 2:45:00 AM -0.06 31.892 0.356 8.15 4.71 13.8
2/10/2021 3:00:00 AM -0.06 31.892 0.356 8.14 4.76 13.8
2/10/2021 3:15:00 AM -0.06 31.892 0.356 8.15 4.54 13.81
2/10/2021 3:30:00 AM -0.06 31.892 0.356 8.15 4.76 13.81
2/10/2021 3:45:00 AM -0.06 31.892 0.356 8.15 4.69 13.83
2/10/2021 4:00:00 AM -0.06 31.892 0.356 8.15 4.8 13.83
2/10/2021 4:15:00 AM -0.06 31.892 0.356 8.15 4.66 13.84
2/10/2021 4:30:00 AM -0.06 31.892 0.357 8.15 4.72 13.84
2/10/2021 4:45:00 AM -0.06 31.892 0.357 8.15 4.71 13.85
2/10/2021 5:00:00 AM -0.06 31.892 0.357 8.15 4.55 13.85
2/10/2021 5:15:00 AM -0.06 31.892 0.357 8.15 4.8 13.85
2/10/2021 5:30:00 AM -0.06 31.892 0.357 8.15 4.74 13.87
2/10/2021 5:45:00 AM -0.06 31.892 0.358 8.14 4.64 13.87
2/10/2021 6:00:00 AM -0.06 31.892 0.358 8.15 4.97 13.88
2/10/2021 6:15:00 AM -0.06 31.892 0.358 8.14 4.58 13.88
2/10/2021 6:30:00 AM -0.06 31.892 0.358 8.14 4.78 13.87
2/10/2021 6:45:00 AM -0.06 31.892 0.358 8.14 4.82 13.87
2/10/2021 7:00:00 AM -0.06 31.892 0.358 8.14 4.66 13.86
2/10/2021 7:15:00 AM -0.06 31.892 0.358 8.14 4.58 13.86
2/10/2021 7:30:00 AM -0.06 31.892 0.358 8.14 4.61 13.86
2/10/2021 7:45:00 AM -0.06 31.892 0.359 8.14 4.47 13.86
2/10/2021 8:00:00 AM -0.06 31.892 0.359 8.14 4.58 13.87
2/10/2021 8:15:00 AM -0.06 31.892 0.359 8.14 4.57 13.88
2/10/2021 8:30:00 AM -0.06 31.892 0.359 8.14 4.75 13.9
2/10/2021 8:45:00 AM -0.06 31.892 0.359 8.14 4.55 13.9
2/10/2021 9:00:00 AM -0.06 31.892 0.359 8.15 4.66 13.91
2/10/2021 9:15:00 AM -0.06 31.892 0.359 8.15 4.73 13.92
2/10/2021 9:30:00 AM -0.06 31.892 0.359 8.15 5 13.91
2/10/2021 9:45:00 AM -0.06 31.892 0.359 8.15 4.67 13.92
2/10/2021 10:00:00 AM -0.06 31.892 0.359 8.15 4.66 13.92
2/10/2021 10:15:00 AM -0.06 31.892 0.359 8.15 4.73 13.9
2/10/2021 10:30:00 AM -0.06 31.892 0.359 8.15 4.93 13.9
2/10/2021 10:45:00 AM -0.06 31.892 0.359 8.15 4.87 13.9
2/10/2021 11:00:00 AM -0.06 31.892 0.359 8.15 5.2 13.9
2/10/2021 11:15:00 AM -0.05 31.91 0.358 8.14 5.49 13.89
2/10/2021 11:30:00 AM -0.05 31.91 0.357 8.15 5.18 13.88
2/10/2021 11:45:00 AM -0.05 31.91 0.357 8.16 5.72 13.86
2/10/2021 12:00:00 PM -0.05 31.91 0.357 8.15 5.58 13.86
2/10/2021 12:15:00 PM -0.04 31.928 0.357 8.16 5.71 13.87
2/10/2021 12:30:00 PM -0.04 31.928 0.356 8.16 5.72 13.87
2/10/2021 12:45:00 PM -0.03 31.946 0.356 8.16 5.6 13.87
2/10/2021 1:00:00 PM -0.02 31.964 0.355 8.16 5.89 13.88
2/10/2021 1:15:00 PM -0.02 31.964 0.355 8.16 6.08 13.87
2/10/2021 1:30:00 PM -0.01 31.982 0.356 8.17 6.42 13.88
2/10/2021 1:45:00 PM -0.01 31.982 0.357 8.16 6.83 13.88
2/10/2021 2:00:00 PM -0.01 31.982 0.359 8.17 6.49 13.9
2/10/2021 2:15:00 PM 0 32 0.36 8.17 6.5 13.89
2/10/2021 2:30:00 PM 0.01 32.018 0.36 8.16 6.21 13.9
2/10/2021 2:45:00 PM 0.01 32.018 0.359 8.17 6.29 13.89
2/10/2021 3:00:00 PM 0.01 32.018 0.358 8.17 6.25 13.9
2/10/2021 3:15:00 PM 0 32 0.357 8.18 6.4 13.89
2/10/2021 3:30:00 PM -0.01 31.982 0.356 8.18 6.27 13.89
2/10/2021 3:45:00 PM -0.02 31.964 0.355 8.18 6.3 13.89
2/10/2021 4:00:00 PM -0.03 31.946 0.355 8.18 5.92 13.87
2/10/2021 4:15:00 PM -0.04 31.928 0.355 8.18 6.17 13.88
2/10/2021 4:30:00 PM -0.05 31.91 0.354 8.18 5.53 13.87
2/10/2021 4:45:00 PM -0.05 31.91 0.355 8.18 5.58 13.86
2/10/2021 5:00:00 PM -0.05 31.91 0.355 8.18 5.65 13.86
2/10/2021 5:15:00 PM -0.06 31.892 0.355 8.18 5.19 13.85
2/10/2021 5:30:00 PM -0.06 31.892 0.355 8.18 5.35 13.84
2/10/2021 5:45:00 PM -0.06 31.892 0.355 8.18 5.28 13.82
2/10/2021 6:00:00 PM -0.06 31.892 0.355 8.17 5.27 13.82
2/10/2021 6:15:00 PM -0.07 31.874 0.355 8.17 5.1 13.82
2/10/2021 6:30:00 PM -0.07 31.874 0.356 8.17 5.14 13.82
2/10/2021 6:45:00 PM -0.07 31.874 0.356 8.17 5.63 13.81
2/10/2021 7:00:00 PM -0.07 31.874 0.356 8.17 5.12 13.81
2/10/2021 7:15:00 PM -0.07 31.874 0.357 8.17 5.12 13.82
2/10/2021 7:30:00 PM -0.07 31.874 0.357 8.17 4.99 13.83
2/10/2021 7:45:00 PM -0.07 31.874 0.357 8.17 5.26 13.82
2/10/2021 8:00:00 PM -0.07 31.874 0.358 8.17 5.23 13.83
2/10/2021 8:15:00 PM -0.07 31.874 0.358 8.16 5.18 13.83
2/10/2021 8:30:00 PM -0.07 31.874 0.358 8.16 5.37 13.84
2/10/2021 8:45:00 PM -0.07 31.874 0.359 8.16 5.07 13.83
2/10/2021 9:00:00 PM -0.07 31.874 0.359 8.16 5.14 13.84
2/10/2021 9:15:00 PM -0.07 31.874 0.359 8.16 5.35 13.84
2/10/2021 9:30:00 PM -0.07 31.874 0.359 8.16 5.14 13.84
2/10/2021 9:45:00 PM -0.06 31.892 0.359 8.16 4.9 13.85
2/10/2021 10:00:00 PM -0.06 31.892 0.359 8.16 5.2 13.85
2/10/2021 10:15:00 PM -0.06 31.892 0.359 8.16 4.84 13.85
2/10/2021 10:30:00 PM -0.06 31.892 0.36 8.16 5.05 13.85
2/10/2021 10:45:00 PM -0.06 31.892 0.36 8.15 5.53 13.84
2/10/2021 11:00:00 PM -0.06 31.892 0.359 8.15 4.96 13.84
2/10/2021 11:15:00 PM -0.06 31.892 0.36 8.15 5.16 13.85
2/10/2021 11:30:00 PM -0.06 31.892 0.36 8.15 4.96 13.85
2/10/2021 11:45:00 PM -0.06 31.892 0.36 8.15 4.94 13.85
2/11/2021 12:00:00 AM -0.06 31.892 0.36 8.15 4.93 13.84
2/11/2021 12:15:00 AM -0.06 31.892 0.36 8.15 4.83 13.85
2/11/2021 12:30:00 AM -0.06 31.892 0.359 8.15 4.86 13.85
2/11/2021 12:45:00 AM -0.06 31.892 0.359 8.15 5.11 13.85
2/11/2021 1:00:00 AM -0.06 31.892 0.359 8.15 5.38 13.85
2/11/2021 1:15:00 AM -0.06 31.892 0.359 8.15 4.71 13.85
2/11/2021 1:30:00 AM -0.06 31.892 0.359 8.15 4.85 13.84
2/11/2021 1:45:00 AM -0.06 31.892 0.359 8.15 4.81 13.85
2/11/2021 2:00:00 AM -0.06 31.892 0.359 8.14 4.85 13.85
2/11/2021 2:15:00 AM -0.06 31.892 0.359 8.14 4.84 13.84
2/11/2021 2:30:00 AM -0.06 31.892 0.359 8.15 4.96 13.83
2/11/2021 2:45:00 AM -0.06 31.892 0.359 8.15 4.82 13.84
2/11/2021 3:00:00 AM -0.06 31.892 0.359 8.14 4.96 13.84
2/11/2021 3:15:00 AM -0.06 31.892 0.359 8.14 4.9 13.83
2/11/2021 3:30:00 AM -0.06 31.892 0.359 8.14 4.8 13.84
2/11/2021 3:45:00 AM -0.06 31.892 0.359 8.14 4.93 13.83
2/11/2021 4:00:00 AM -0.06 31.892 0.359 8.14 4.83 13.83
2/11/2021 4:15:00 AM -0.06 31.892 0.359 8.14 4.89 13.82
2/11/2021 4:30:00 AM -0.06 31.892 0.359 8.14 4.84 13.82
2/11/2021 4:45:00 AM -0.06 31.892 0.358 8.14 4.82 13.82
2/11/2021 5:00:00 AM -0.06 31.892 0.358 8.14 5.05 13.83
2/11/2021 5:15:00 AM -0.06 31.892 0.359 8.14 4.99 13.82
2/11/2021 5:30:00 AM -0.06 31.892 0.359 8.14 4.78 13.82
2/11/2021 5:45:00 AM -0.06 31.892 0.359 8.14 4.94 13.82
2/11/2021 6:00:00 AM -0.06 31.892 0.359 8.14 4.98 13.82
2/11/2021 6:15:00 AM -0.06 31.892 0.359 8.14 4.76 13.81
2/11/2021 6:30:00 AM -0.06 31.892 0.359 8.14 4.86 13.82
2/11/2021 6:45:00 AM -0.06 31.892 0.359 8.14 4.87 13.81
2/11/2021 7:00:00 AM -0.06 31.892 0.359 8.14 4.74 13.81
2/11/2021 7:15:00 AM -0.06 31.892 0.359 8.14 5.04 13.81
2/11/2021 7:30:00 AM -0.06 31.892 0.359 8.14 4.8 13.81
2/11/2021 7:45:00 AM -0.06 31.892 0.359 8.14 5.07 13.83
2/11/2021 8:00:00 AM -0.06 31.892 0.359 8.14 5 13.84
2/11/2021 8:15:00 AM -0.06 31.892 0.36 8.14 4.85 13.85
2/11/2021 8:30:00 AM -0.06 31.892 0.36 8.14 4.85 13.87
2/11/2021 8:45:00 AM -0.06 31.892 0.36 8.15 4.89 13.88
2/11/2021 9:00:00 AM -0.06 31.892 0.36 8.14 5.05 13.9
2/11/2021 9:15:00 AM -0.06 31.892 0.36 8.14 4.87 13.92
2/11/2021 9:30:00 AM -0.06 31.892 0.359 8.15 4.88 13.93
2/11/2021 9:45:00 AM -0.06 31.892 0.359 8.15 5.06 13.93
2/11/2021 10:00:00 AM -0.06 31.892 0.359 8.16 5.03 13.93
2/11/2021 10:15:00 AM -0.05 31.91 0.359 8.16 5.01 13.95
2/11/2021 10:30:00 AM -0.05 31.91 0.359 8.16 4.97 13.96
2/11/2021 10:45:00 AM -0.05 31.91 0.358 8.17 4.89 13.97
2/11/2021 11:00:00 AM -0.05 31.91 0.359 8.17 4.98 13.96
2/11/2021 11:15:00 AM -0.04 31.928 0.359 8.17 4.95 13.98
2/11/2021 11:30:00 AM -0.03 31.946 0.359 8.17 5.13 13.99
2/11/2021 11:45:00 AM -0.01 31.982 0.358 8.18 5.19 13.99
2/11/2021 12:00:00 PM 0.01 32.018 0.357 8.18 5.43 13.99
2/11/2021 12:15:00 PM 0.04 32.072 0.357 8.18 5.6 13.98
2/11/2021 12:30:00 PM 0.06 32.108 0.356 8.18 6.01 13.98
2/11/2021 12:45:00 PM 0.05 32.09 0.356 8.19 5.65 13.98
2/11/2021 1:00:00 PM 0.05 32.09 0.356 8.19 5.69 13.99
2/11/2021 1:15:00 PM 0.07 32.126 0.356 8.19 6.12 13.98
2/11/2021 1:30:00 PM 0.08 32.144 0.355 8.2 5.76 13.97
2/11/2021 1:45:00 PM 0.07 32.126 0.355 8.2 5.7 13.98
2/11/2021 2:00:00 PM 0.07 32.126 0.355 8.2 5.76 13.97
2/11/2021 2:15:00 PM 0.05 32.09 0.355 8.21 5.39 13.98
2/11/2021 2:30:00 PM 0.03 32.054 0.355 8.21 5.88 13.98
2/11/2021 2:45:00 PM 0.02 32.036 0.355 8.21 6.27 13.98
2/11/2021 3:00:00 PM 0.01 32.018 0.355 8.21 5.46 13.98
2/11/2021 3:15:00 PM 0 32 0.354 8.21 5.4 13.97
2/11/2021 3:30:00 PM -0.01 31.982 0.354 8.21 5.31 13.96
2/11/2021 3:45:00 PM -0.01 31.982 0.353 8.21 5.12 13.96
2/11/2021 4:00:00 PM -0.03 31.946 0.353 8.21 5.12 13.95
2/11/2021 4:15:00 PM -0.03 31.946 0.353 8.21 5.25 13.95
2/11/2021 4:30:00 PM -0.04 31.928 0.353 8.21 5.71 13.95
2/11/2021 4:45:00 PM -0.04 31.928 0.353 8.21 5.13 13.93
2/11/2021 5:00:00 PM -0.05 31.91 0.353 8.21 5.28 13.93
2/11/2021 5:15:00 PM -0.06 31.892 0.353 8.2 5.46 13.92
2/11/2021 5:30:00 PM -0.07 31.874 0.353 8.2 5.85 13.9
2/11/2021 5:45:00 PM -0.07 31.874 0.353 8.2 5.1 13.89
2/11/2021 6:00:00 PM -0.07 31.874 0.353 8.2 5.24 13.88
2/11/2021 6:15:00 PM -0.07 31.874 0.353 8.19 5.21 13.88
2/11/2021 6:30:00 PM -0.07 31.874 0.354 8.19 5.1 13.88
2/11/2021 6:45:00 PM -0.07 31.874 0.354 8.19 5.13 13.89
2/11/2021 7:00:00 PM -0.07 31.874 0.354 8.19 5.14 13.89
2/11/2021 7:15:00 PM -0.07 31.874 0.354 8.19 5.16 13.89
2/11/2021 7:30:00 PM -0.07 31.874 0.354 8.18 5.09 13.9
2/11/2021 7:45:00 PM -0.07 31.874 0.355 8.18 5.24 13.9
2/11/2021 8:00:00 PM -0.07 31.874 0.355 8.18 5.1 13.91
2/11/2021 8:15:00 PM -0.07 31.874 0.355 8.18 5.53 13.9
2/11/2021 8:30:00 PM -0.07 31.874 0.355 8.18 5.37 13.92
2/11/2021 8:45:00 PM -0.06 31.892 0.356 8.18 5.63 13.92
2/11/2021 9:00:00 PM -0.07 31.874 0.356 8.18 5.17 13.94
2/11/2021 9:15:00 PM -0.07 31.874 0.356 8.18 5.5 13.95
2/11/2021 9:30:00 PM -0.06 31.892 0.356 8.17 5.62 13.95
2/11/2021 9:45:00 PM -0.07 31.874 0.357 8.17 6.02 13.97
2/11/2021 10:00:00 PM -0.06 31.892 0.357 8.17 5.63 13.98
2/11/2021 10:15:00 PM -0.06 31.892 0.357 8.17 6.52 13.98
2/11/2021 10:30:00 PM -0.06 31.892 0.358 8.17 5.45 13.99
2/11/2021 10:45:00 PM -0.06 31.892 0.358 8.17 5.21 14
2/11/2021 11:00:00 PM -0.06 31.892 0.358 8.17 5.09 14.01
2/11/2021 11:15:00 PM -0.06 31.892 0.359 8.17 5.06 14.01
2/11/2021 11:30:00 PM -0.06 31.892 0.359 8.17 5.32 14.02
2/11/2021 11:45:00 PM -0.06 31.892 0.36 8.17 5.11 14.02
2/12/2021 12:00:00 AM -0.06 31.892 0.36 8.17 5.31 14.01
2/12/2021 12:15:00 AM -0.06 31.892 0.36 8.16 5.31 14.02
2/12/2021 12:30:00 AM -0.06 31.892 0.36 8.15 5.24 14.02
2/12/2021 12:45:00 AM -0.06 31.892 0.361 8.16 5.71 14.03
2/12/2021 1:00:00 AM -0.06 31.892 0.361 8.16 5.52 14.03
2/12/2021 1:15:00 AM -0.06 31.892 0.361 8.16 5.13 14.03
2/12/2021 1:30:00 AM -0.06 31.892 0.362 8.15 4.98 14.03
2/12/2021 1:45:00 AM -0.06 31.892 0.362 8.16 4.93 14.03
2/12/2021 2:00:00 AM -0.06 31.892 0.362 8.16 5.61 14.03
2/12/2021 2:15:00 AM -0.06 31.892 0.362 8.16 4.93 14.03
2/12/2021 2:30:00 AM -0.06 31.892 0.363 8.16 4.88 14.03
2/12/2021 2:45:00 AM -0.06 31.892 0.363 8.15 5.02 14.04
2/12/2021 3:00:00 AM -0.06 31.892 0.363 8.15 4.82 14.04
2/12/2021 3:15:00 AM -0.06 31.892 0.363 8.15 4.68 14.04
2/12/2021 3:30:00 AM -0.06 31.892 0.364 8.15 5.22 14.03
2/12/2021 3:45:00 AM -0.06 31.892 0.364 8.15 4.74 14.02
2/12/2021 4:00:00 AM -0.06 31.892 0.364 8.15 4.93 14.03
2/12/2021 4:15:00 AM -0.06 31.892 0.365 8.15 4.98 14.03
2/12/2021 4:30:00 AM -0.07 31.874 0.365 8.15 4.93 14.03
2/12/2021 4:45:00 AM -0.06 31.892 0.365 8.15 4.99 14.02
2/12/2021 5:00:00 AM -0.06 31.892 0.366 8.14 5.52 14.02
2/12/2021 5:15:00 AM -0.06 31.892 0.366 8.15 6.17 14.01
2/12/2021 5:30:00 AM -0.06 31.892 0.366 8.14 5.4 14.01
2/12/2021 5:45:00 AM -0.06 31.892 0.366 8.14 5.24 14
2/12/2021 6:00:00 AM -0.06 31.892 0.367 8.14 5.14 13.99
2/12/2021 6:15:00 AM -0.06 31.892 0.367 8.14 4.97 14
2/12/2021 6:30:00 AM -0.06 31.892 0.367 8.14 4.9 13.98
2/12/2021 6:45:00 AM -0.06 31.892 0.367 8.13 5.06 13.99
2/12/2021 7:00:00 AM -0.06 31.892 0.368 8.13 5.04 13.98
2/12/2021 7:15:00 AM -0.06 31.892 0.368 8.13 4.94 13.98
2/12/2021 7:30:00 AM -0.06 31.892 0.368 8.13 4.94 13.97
2/12/2021 7:45:00 AM -0.06 31.892 0.368 8.13 5.05 13.97
2/12/2021 8:00:00 AM -0.06 31.892 0.369 8.13 4.96 13.99
2/12/2021 8:15:00 AM -0.06 31.892 0.369 8.14 4.87 13.99
2/12/2021 8:30:00 AM -0.06 31.892 0.369 8.14 4.9 14.01
2/12/2021 8:45:00 AM -0.06 31.892 0.369 8.14 4.69 14.02
2/12/2021 9:00:00 AM -0.06 31.892 0.369 8.14 5.07 14.03
2/12/2021 9:15:00 AM -0.06 31.892 0.369 8.14 4.89 14.04
2/12/2021 9:30:00 AM -0.06 31.892 0.37 8.14 4.83 14.04
2/12/2021 9:45:00 AM -0.06 31.892 0.37 8.14 5.1 14.05
2/12/2021 10:00:00 AM -0.06 31.892 0.37 8.14 5.03 14.04
2/12/2021 10:15:00 AM -0.06 31.892 0.369 8.14 5.15 14.04
2/12/2021 10:30:00 AM -0.06 31.892 0.369 8.14 5.14 14.03
2/12/2021 10:45:00 AM -0.06 31.892 0.369 8.14 5.2 14.02
2/12/2021 11:00:00 AM -0.05 31.91 0.369 8.14 5.14 14.01
2/12/2021 11:15:00 AM -0.06 31.892 0.368 8.13 5.41 13.99
2/12/2021 11:30:00 AM -0.06 31.892 0.368 8.13 5.41 13.98
2/12/2021 11:45:00 AM -0.05 31.91 0.367 8.13 5.62 13.98
2/12/2021 12:00:00 PM -0.05 31.91 0.367 8.13 5.27 13.95
2/12/2021 12:15:00 PM -0.05 31.91 0.366 8.13 5.63 13.93
2/12/2021 12:30:00 PM -0.05 31.91 0.365 8.13 6.46 13.9
2/12/2021 12:45:00 PM -0.05 31.91 0.364 8.13 6.1 13.89
2/12/2021 1:00:00 PM -0.05 31.91 0.364 8.13 6.08 13.88
2/12/2021 1:15:00 PM -0.05 31.91 0.363 8.13 6.05 13.87
2/12/2021 1:30:00 PM -0.05 31.91 0.362 8.13 6.35 13.85
2/12/2021 1:45:00 PM -0.05 31.91 0.362 8.13 6.7 13.85
2/12/2021 2:00:00 PM -0.05 31.91 0.361 8.13 6.57 13.83
2/12/2021 2:15:00 PM -0.05 31.91 0.361 8.13 6.64 13.81
2/12/2021 2:30:00 PM -0.05 31.91 0.361 8.13 6.47 13.81
2/12/2021 2:45:00 PM -0.06 31.892 0.36 8.13 6.61 13.8
2/12/2021 3:00:00 PM -0.05 31.91 0.36 8.13 7.19 13.78
2/12/2021 3:15:00 PM -0.05 31.91 0.36 8.13 6.72 13.79
2/12/2021 3:30:00 PM -0.06 31.892 0.359 8.13 6.97 13.78
2/12/2021 3:45:00 PM -0.06 31.892 0.359 8.13 6.36 13.78
2/12/2021 4:00:00 PM -0.06 31.892 0.359 8.13 6.51 13.78
2/12/2021 4:15:00 PM -0.06 31.892 0.358 8.13 6.11 13.77
2/12/2021 4:30:00 PM -0.06 31.892 0.358 8.13 5.98 13.75
2/12/2021 4:45:00 PM -0.06 31.892 0.358 8.13 6.12 13.75
2/12/2021 5:00:00 PM -0.06 31.892 0.358 8.12 5.81 13.74
2/12/2021 5:15:00 PM -0.06 31.892 0.358 8.12 5.62 13.72
2/12/2021 5:30:00 PM -0.06 31.892 0.359 8.11 5.47 13.73
2/12/2021 5:45:00 PM -0.06 31.892 0.359 8.12 5.58 13.71
2/12/2021 6:00:00 PM -0.06 31.892 0.36 8.12 5.65 13.7
2/12/2021 6:15:00 PM -0.06 31.892 0.36 8.11 5.84 13.7
2/12/2021 6:30:00 PM -0.06 31.892 0.361 8.12 6 13.71
2/12/2021 6:45:00 PM -0.06 31.892 0.361 8.11 5.9 13.71
2/12/2021 7:00:00 PM -0.06 31.892 0.362 8.11 5.91 13.71
2/12/2021 7:15:00 PM -0.06 31.892 0.362 8.11 6.05 13.71
2/12/2021 7:30:00 PM -0.06 31.892 0.362 8.11 6.58 13.71
2/12/2021 7:45:00 PM -0.06 31.892 0.363 8.11 6.61 13.72
2/12/2021 8:00:00 PM -0.06 31.892 0.363 8.11 6.37 13.73
2/12/2021 8:15:00 PM -0.06 31.892 0.363 8.11 6.56 13.75
2/12/2021 8:30:00 PM -0.06 31.892 0.364 8.11 6.63 13.75
2/12/2021 8:45:00 PM -0.06 31.892 0.364 8.11 6.43 13.75
2/12/2021 9:00:00 PM -0.06 31.892 0.364 8.11 6.35 13.76
2/12/2021 9:15:00 PM -0.06 31.892 0.364 8.11 6.23 13.77
2/12/2021 9:30:00 PM -0.06 31.892 0.364 8.11 6.27 13.78
2/12/2021 9:45:00 PM -0.06 31.892 0.364 8.11 6 13.78
2/12/2021 10:00:00 PM -0.06 31.892 0.365 8.11 6.84 13.79
2/12/2021 10:15:00 PM -0.06 31.892 0.365 8.1 6.24 13.79
2/12/2021 10:30:00 PM -0.06 31.892 0.365 8.1 5.82 13.79
2/12/2021 10:45:00 PM -0.06 31.892 0.365 8.1 5.79 13.79
2/12/2021 11:00:00 PM -0.06 31.892 0.365 8.1 6.25 13.8
2/12/2021 11:15:00 PM -0.06 31.892 0.365 8.1 5.59 13.8
2/12/2021 11:30:00 PM -0.06 31.892 0.366 8.1 5.66 13.8
2/12/2021 11:45:00 PM -0.06 31.892 0.365 8.1 5.61 13.8
2/13/2021 12:00:00 AM -0.06 31.892 0.366 8.1 5.8 13.8
2/13/2021 12:15:00 AM -0.06 31.892 0.366 8.1 5.46 13.8
2/13/2021 12:30:00 AM -0.06 31.892 0.366 8.1 5.62 13.8
2/13/2021 12:45:00 AM -0.06 31.892 0.366 8.1 5.38 13.79
2/13/2021 1:00:00 AM -0.06 31.892 0.366 8.09 5.47 13.8
2/13/2021 1:15:00 AM -0.06 31.892 0.366 8.09 5.34 13.8
2/13/2021 1:30:00 AM -0.06 31.892 0.366 8.09 5.41 13.79
2/13/2021 1:45:00 AM -0.06 31.892 0.366 8.09 5.18 13.79
2/13/2021 2:00:00 AM -0.06 31.892 0.366 8.09 5.36 13.79
2/13/2021 2:15:00 AM -0.06 31.892 0.366 8.09 5.45 13.78
2/13/2021 2:30:00 AM -0.06 31.892 0.366 8.09 5.41 13.79
2/13/2021 2:45:00 AM -0.06 31.892 0.366 8.09 5.41 13.78
2/13/2021 3:00:00 AM -0.06 31.892 0.366 8.09 5.5 13.78
2/13/2021 3:15:00 AM -0.06 31.892 0.366 8.09 5.36 13.77
2/13/2021 3:30:00 AM -0.06 31.892 0.366 8.09 5.07 13.77
2/13/2021 3:45:00 AM -0.06 31.892 0.366 8.09 5.41 13.77
2/13/2021 4:00:00 AM -0.06 31.892 0.366 8.09 4.99 13.76
2/13/2021 4:15:00 AM -0.06 31.892 0.366 8.08 5.18 13.76
2/13/2021 4:30:00 AM -0.06 31.892 0.366 8.09 5.24 13.76
2/13/2021 4:45:00 AM -0.06 31.892 0.366 8.08 5.14 13.75
2/13/2021 5:00:00 AM -0.06 31.892 0.365 8.08 5.11 13.75
2/13/2021 5:15:00 AM -0.06 31.892 0.365 8.08 5.4 13.75
2/13/2021 5:30:00 AM -0.06 31.892 0.365 8.08 5.05 13.75
2/13/2021 5:45:00 AM -0.06 31.892 0.365 8.08 5.73 13.75
2/13/2021 6:00:00 AM -0.06 31.892 0.365 8.08 5.52 13.74
2/13/2021 6:15:00 AM -0.06 31.892 0.365 8.08 5.22 13.73
2/13/2021 6:30:00 AM -0.06 31.892 0.365 8.08 5.3 13.74
2/13/2021 6:45:00 AM -0.06 31.892 0.365 8.08 5.25 13.72
2/13/2021 7:00:00 AM -0.06 31.892 0.364 8.08 5.98 13.73
2/13/2021 7:15:00 AM -0.06 31.892 0.364 8.08 5.18 13.73
2/13/2021 7:30:00 AM -0.06 31.892 0.364 8.08 4.91 13.73
2/13/2021 7:45:00 AM -0.06 31.892 0.364 8.08 5.17 13.72
2/13/2021 8:00:00 AM -0.06 31.892 0.364 8.08 5.01 13.74
2/13/2021 8:15:00 AM -0.06 31.892 0.364 8.08 5.19 13.75
2/13/2021 8:30:00 AM -0.06 31.892 0.363 8.08 5.01 13.77
2/13/2021 8:45:00 AM -0.06 31.892 0.363 8.09 5.06 13.78
2/13/2021 9:00:00 AM -0.06 31.892 0.363 8.09 4.96 13.8
2/13/2021 9:15:00 AM -0.06 31.892 0.363 8.09 4.93 13.8
2/13/2021 9:30:00 AM -0.05 31.91 0.363 8.09 5.12 13.82
2/13/2021 9:45:00 AM -0.05 31.91 0.363 8.09 5.13 13.83
2/13/2021 10:00:00 AM -0.05 31.91 0.363 8.1 5.13 13.83
2/13/2021 10:15:00 AM -0.05 31.91 0.362 8.1 5.15 13.82
2/13/2021 10:30:00 AM -0.05 31.91 0.362 8.1 5.2 13.83
2/13/2021 10:45:00 AM -0.05 31.91 0.362 8.1 5.5 13.83
2/13/2021 11:00:00 AM -0.05 31.91 0.362 8.1 5.74 13.82
2/13/2021 11:15:00 AM -0.05 31.91 0.362 8.1 5.83 13.83
2/13/2021 11:30:00 AM -0.05 31.91 0.362 8.1 5.61 13.81
2/13/2021 11:45:00 AM -0.05 31.91 0.362 8.1 5.63 13.8
2/13/2021 12:00:00 PM -0.05 31.91 0.361 8.1 5.86 13.79
2/13/2021 12:15:00 PM -0.05 31.91 0.361 8.1 6.14 13.78
2/13/2021 12:30:00 PM -0.05 31.91 0.36 8.1 5.88 13.77
2/13/2021 12:45:00 PM -0.05 31.91 0.36 8.1 6.18 13.77
2/13/2021 1:00:00 PM -0.05 31.91 0.359 8.1 6.47 13.77
2/13/2021 1:15:00 PM -0.05 31.91 0.359 8.11 7.04 13.76
2/13/2021 1:30:00 PM -0.05 31.91 0.358 8.11 6.21 13.77
2/13/2021 1:45:00 PM -0.05 31.91 0.358 8.12 6.57 13.78
2/13/2021 2:00:00 PM -0.05 31.91 0.357 8.12 6.15 13.78
2/13/2021 2:15:00 PM -0.05 31.91 0.357 8.12 6.4 13.78
2/13/2021 2:30:00 PM -0.05 31.91 0.357 8.13 5.91 13.78
2/13/2021 2:45:00 PM -0.05 31.91 0.356 8.13 6.24 13.77
2/13/2021 3:00:00 PM -0.05 31.91 0.356 8.13 5.98 13.77
2/13/2021 3:15:00 PM -0.05 31.91 0.356 8.13 5.93 13.77
2/13/2021 3:30:00 PM -0.05 31.91 0.356 8.14 5.73 13.76
2/13/2021 3:45:00 PM -0.05 31.91 0.355 8.14 5.83 13.76
2/13/2021 4:00:00 PM -0.06 31.892 0.355 8.14 5.69 13.75
2/13/2021 4:15:00 PM -0.06 31.892 0.355 8.14 5.41 13.76
2/13/2021 4:30:00 PM -0.06 31.892 0.355 8.14 5.32 13.74
2/13/2021 4:45:00 PM -0.06 31.892 0.355 8.14 5.24 13.73
2/13/2021 5:00:00 PM -0.06 31.892 0.355 8.14 5.4 13.71
2/13/2021 5:15:00 PM -0.06 31.892 0.355 8.14 5.36 13.71
2/13/2021 5:30:00 PM -0.06 31.892 0.355 8.14 5.16 13.68
2/13/2021 5:45:00 PM -0.06 31.892 0.356 8.14 8.92 13.67
2/13/2021 6:00:00 PM -0.06 31.892 0.356 8.13 5.49 13.66
2/13/2021 6:15:00 PM -0.06 31.892 0.356 8.13 5.18 13.64
2/13/2021 6:30:00 PM -0.06 31.892 0.356 8.13 5.44 13.64
2/13/2021 6:45:00 PM -0.06 31.892 0.356 8.13 5.28 13.64
2/13/2021 7:00:00 PM -0.06 31.892 0.357 8.13 5.24 13.64
2/13/2021 7:15:00 PM -0.06 31.892 0.357 8.13 5.87 13.64
2/13/2021 7:30:00 PM -0.06 31.892 0.357 8.13 5.39 13.63
2/13/2021 7:45:00 PM -0.06 31.892 0.357 8.13 5.36 13.63
2/13/2021 8:00:00 PM -0.06 31.892 0.357 8.13 5.33 13.63
2/13/2021 8:15:00 PM -0.06 31.892 0.357 8.12 6.04 13.62
2/13/2021 8:30:00 PM -0.06 31.892 0.357 8.12 5.58 13.63
2/13/2021 8:45:00 PM -0.06 31.892 0.357 8.13 5.08 13.63
2/13/2021 9:00:00 PM -0.06 31.892 0.357 8.13 6.04 13.63
2/13/2021 9:15:00 PM -0.06 31.892 0.358 8.13 5.25 13.63
2/13/2021 9:30:00 PM -0.06 31.892 0.357 8.13 5.13 13.63
2/13/2021 9:45:00 PM -0.06 31.892 0.357 8.12 5.07 13.63
2/13/2021 10:00:00 PM -0.06 31.892 0.357 8.12 5.01 13.63
2/13/2021 10:15:00 PM -0.06 31.892 0.357 8.12 5.22 13.63
2/13/2021 10:30:00 PM -0.06 31.892 0.357 8.12 5.01 13.62
2/13/2021 10:45:00 PM -0.06 31.892 0.357 8.12 5.02 13.62
2/13/2021 11:00:00 PM -0.06 31.892 0.357 8.12 5.09 13.63
2/13/2021 11:15:00 PM -0.06 31.892 0.357 8.12 5 13.63
2/13/2021 11:30:00 PM -0.06 31.892 0.358 8.12 5.53 13.62
2/13/2021 11:45:00 PM -0.06 31.892 0.357 8.12 5.29 13.63
2/14/2021 12:00:00 AM -0.06 31.892 0.358 8.12 5.16 13.62
2/14/2021 12:15:00 AM -0.06 31.892 0.358 8.12 5.71 13.63
2/14/2021 12:30:00 AM -0.06 31.892 0.358 8.12 5.42 13.62
2/14/2021 12:45:00 AM -0.06 31.892 0.358 8.12 5.6 13.62
2/14/2021 1:00:00 AM -0.06 31.892 0.358 8.12 5.05 13.62
2/14/2021 1:15:00 AM -0.06 31.892 0.358 8.12 4.88 13.63
2/14/2021 1:30:00 AM -0.06 31.892 0.357 8.12 5.04 13.63
2/14/2021 1:45:00 AM -0.06 31.892 0.358 8.12 5.17 13.63
2/14/2021 2:00:00 AM -0.06 31.892 0.358 8.12 4.94 13.62
2/14/2021 2:15:00 AM -0.06 31.892 0.357 8.12 5.01 13.63
2/14/2021 2:30:00 AM -0.06 31.892 0.357 8.13 4.96 13.62
2/14/2021 2:45:00 AM -0.06 31.892 0.357 8.13 4.96 13.63
2/14/2021 3:00:00 AM -0.06 31.892 0.357 8.13 5.09 13.63
2/14/2021 3:15:00 AM -0.06 31.892 0.357 8.13 5.08 13.64
2/14/2021 3:30:00 AM -0.06 31.892 0.357 8.13 4.75 13.63
2/14/2021 3:45:00 AM -0.06 31.892 0.357 8.13 4.83 13.63
2/14/2021 4:00:00 AM -0.06 31.892 0.356 8.13 5.12 13.63
2/14/2021 4:15:00 AM -0.06 31.892 0.356 8.12 5.38 13.63
2/14/2021 4:30:00 AM -0.06 31.892 0.356 8.12 4.89 13.63
2/14/2021 4:45:00 AM -0.06 31.892 0.356 8.13 4.97 13.64
2/14/2021 5:00:00 AM -0.06 31.892 0.356 8.13 5.09 13.64
2/14/2021 5:15:00 AM -0.06 31.892 0.355 8.13 4.91 13.64
2/14/2021 5:30:00 AM -0.06 31.892 0.355 8.13 5.08 13.65
2/14/2021 5:45:00 AM -0.06 31.892 0.355 8.13 5.16 13.64
2/14/2021 6:00:00 AM -0.06 31.892 0.355 8.13 5.85 13.64
2/14/2021 6:15:00 AM -0.06 31.892 0.355 8.13 5.31 13.65
2/14/2021 6:30:00 AM -0.06 31.892 0.355 8.13 5.07 13.65
2/14/2021 6:45:00 AM -0.06 31.892 0.355 8.13 5.06 13.65
2/14/2021 7:00:00 AM -0.06 31.892 0.355 8.13 6.35 13.65
2/14/2021 7:15:00 AM -0.06 31.892 0.355 8.13 4.96 13.65
2/14/2021 7:30:00 AM -0.06 31.892 0.355 8.13 5.07 13.65
2/14/2021 7:45:00 AM -0.06 31.892 0.355 8.13 5.05 13.67
2/14/2021 8:00:00 AM -0.06 31.892 0.355 8.13 5.07 13.67
2/14/2021 8:15:00 AM -0.06 31.892 0.355 8.13 5.07 13.68
2/14/2021 8:30:00 AM -0.06 31.892 0.355 8.14 5.04 13.69
2/14/2021 8:45:00 AM -0.06 31.892 0.355 8.14 5.08 13.71
2/14/2021 9:00:00 AM -0.06 31.892 0.355 8.14 4.86 13.73
2/14/2021 9:15:00 AM -0.06 31.892 0.355 8.14 4.98 13.73
2/14/2021 9:30:00 AM -0.06 31.892 0.355 8.14 5.2 13.74
2/14/2021 9:45:00 AM -0.06 31.892 0.355 8.14 4.88 13.76
2/14/2021 10:00:00 AM -0.06 31.892 0.355 8.15 4.95 13.77
2/14/2021 10:15:00 AM -0.05 31.91 0.355 8.15 5.06 13.79
2/14/2021 10:30:00 AM -0.05 31.91 0.355 8.15 5.13 13.81
2/14/2021 10:45:00 AM -0.05 31.91 0.354 8.16 5.12 13.82
2/14/2021 11:00:00 AM -0.05 31.91 0.354 8.16 5.13 13.85
2/14/2021 11:15:00 AM -0.05 31.91 0.354 8.16 5.21 13.87
2/14/2021 11:30:00 AM -0.05 31.91 0.354 8.17 5.24 13.88
2/14/2021 11:45:00 AM -0.05 31.91 0.354 8.17 5.46 13.89
2/14/2021 12:00:00 PM -0.05 31.91 0.354 8.17 5.19 13.91
2/14/2021 12:15:00 PM -0.05 31.91 0.354 8.18 5.21 13.91
2/14/2021 12:30:00 PM -0.05 31.91 0.354 8.18 5.47 13.92
2/14/2021 12:45:00 PM -0.05 31.91 0.354 8.18 5.29 13.92
2/14/2021 1:00:00 PM -0.05 31.91 0.354 8.19 5.1 13.93
2/14/2021 1:15:00 PM -0.04 31.928 0.354 8.18 5.49 13.94
2/14/2021 1:30:00 PM -0.04 31.928 0.354 8.19 5.26 13.94
2/14/2021 1:45:00 PM -0.04 31.928 0.354 8.19 5.11 13.95
2/14/2021 2:00:00 PM -0.04 31.928 0.354 8.19 5.07 13.95
2/14/2021 2:15:00 PM -0.04 31.928 0.353 8.19 5.34 13.97
2/14/2021 2:30:00 PM -0.04 31.928 0.353 8.2 4.97 13.97
2/14/2021 2:45:00 PM -0.03 31.946 0.353 8.2 5.26 13.98
2/14/2021 3:00:00 PM -0.03 31.946 0.353 8.2 5.41 13.97
2/14/2021 3:15:00 PM -0.04 31.928 0.353 8.2 5.08 13.97
2/14/2021 3:30:00 PM -0.04 31.928 0.353 8.2 5.13 13.96
2/14/2021 3:45:00 PM -0.04 31.928 0.353 8.2 4.94 13.96
2/14/2021 4:00:00 PM -0.04 31.928 0.353 8.2 5.05 13.96
2/14/2021 4:15:00 PM -0.04 31.928 0.353 8.2 5 13.95
2/14/2021 4:30:00 PM -0.05 31.91 0.354 8.2 5.24 13.94
2/14/2021 4:45:00 PM -0.05 31.91 0.354 8.2 5.11 13.92
2/14/2021 5:00:00 PM -0.05 31.91 0.354 8.19 5.07 13.91
2/14/2021 5:15:00 PM -0.05 31.91 0.354 8.19 5.04 13.89
2/14/2021 5:30:00 PM -0.05 31.91 0.354 8.19 5 13.87
2/14/2021 5:45:00 PM -0.05 31.91 0.354 8.19 5.14 13.87
2/14/2021 6:00:00 PM -0.05 31.91 0.354 8.18 5 13.85
2/14/2021 6:15:00 PM -0.05 31.91 0.355 8.18 5.06 13.84
2/14/2021 6:30:00 PM -0.05 31.91 0.355 8.18 5.52 13.84
2/14/2021 6:45:00 PM -0.05 31.91 0.355 8.18 7.45 13.82
2/14/2021 7:00:00 PM -0.05 31.91 0.355 8.18 5.21 13.82
2/14/2021 7:15:00 PM -0.05 31.91 0.355 8.18 5.13 13.82
2/14/2021 7:30:00 PM -0.06 31.892 0.356 8.17 5.01 13.82
2/14/2021 7:45:00 PM -0.06 31.892 0.356 8.17 5.71 13.81
2/14/2021 8:00:00 PM -0.06 31.892 0.356 8.17 5.9 13.81
2/14/2021 8:15:00 PM -0.06 31.892 0.356 8.17 6.13 13.81
2/14/2021 8:30:00 PM -0.06 31.892 0.357 8.17 5.12 13.81
2/14/2021 8:45:00 PM -0.06 31.892 0.357 8.17 4.99 13.81
2/14/2021 9:00:00 PM -0.06 31.892 0.357 8.17 5.04 13.81
2/14/2021 9:15:00 PM -0.06 31.892 0.357 8.17 4.96 13.8
2/14/2021 9:30:00 PM -0.06 31.892 0.358 8.17 4.98 13.81
2/14/2021 9:45:00 PM -0.06 31.892 0.358 8.17 4.99 13.82
2/14/2021 10:00:00 PM -0.06 31.892 0.358 8.16 5.4 13.81
2/14/2021 10:15:00 PM -0.06 31.892 0.358 8.16 5.05 13.8
2/14/2021 10:30:00 PM -0.06 31.892 0.358 8.16 5.05 13.8
2/14/2021 10:45:00 PM -0.06 31.892 0.359 8.16 5.07 13.81
2/14/2021 11:00:00 PM -0.06 31.892 0.359 8.16 5.11 13.8
2/14/2021 11:15:00 PM -0.06 31.892 0.359 8.16 4.98 13.81
2/14/2021 11:30:00 PM -0.06 31.892 0.359 8.16 4.91 13.8
2/14/2021 11:45:00 PM -0.06 31.892 0.359 8.16 5.06 13.81
2/15/2021 12:00:00 AM -0.06 31.892 0.359 8.16 4.82 13.8
2/15/2021 12:15:00 AM -0.06 31.892 0.36 8.16 5.16 13.8
2/15/2021 12:30:00 AM -0.06 31.892 0.36 8.16 5.04 13.8
2/15/2021 12:45:00 AM -0.06 31.892 0.36 8.15 4.93 13.8
2/15/2021 1:00:00 AM -0.06 31.892 0.36 8.16 4.98 13.8
2/15/2021 1:15:00 AM -0.06 31.892 0.36 8.16 4.94 13.79
2/15/2021 1:30:00 AM -0.06 31.892 0.36 8.15 5 13.79
2/15/2021 1:45:00 AM -0.06 31.892 0.36 8.15 4.94 13.79
2/15/2021 2:00:00 AM -0.06 31.892 0.36 8.15 5.06 13.79
2/15/2021 2:15:00 AM -0.06 31.892 0.36 8.16 5.1 13.79
2/15/2021 2:30:00 AM -0.06 31.892 0.361 8.16 5.01 13.8
2/15/2021 2:45:00 AM -0.06 31.892 0.361 8.15 4.94 13.79
2/15/2021 3:00:00 AM -0.06 31.892 0.361 8.15 5.04 13.79
2/15/2021 3:15:00 AM -0.06 31.892 0.361 8.15 5.1 13.79
2/15/2021 3:30:00 AM -0.06 31.892 0.361 8.15 5.03 13.79
2/15/2021 3:45:00 AM -0.06 31.892 0.361 8.15 5.05 13.79
2/15/2021 4:00:00 AM -0.06 31.892 0.361 8.15 5.01 13.79
2/15/2021 4:15:00 AM -0.06 31.892 0.361 8.15 4.93 13.79
2/15/2021 4:30:00 AM -0.06 31.892 0.361 8.15 5.02 13.79
2/15/2021 4:45:00 AM -0.06 31.892 0.361 8.15 5.1 13.78
2/15/2021 5:00:00 AM -0.06 31.892 0.361 8.15 4.96 13.78
2/15/2021 5:15:00 AM -0.06 31.892 0.361 8.15 4.91 13.78
2/15/2021 5:30:00 AM -0.06 31.892 0.361 8.15 5.01 13.78
2/15/2021 5:45:00 AM -0.06 31.892 0.362 8.15 4.9 13.78
2/15/2021 6:00:00 AM -0.06 31.892 0.362 8.15 4.92 13.78
2/15/2021 6:15:00 AM -0.06 31.892 0.362 8.15 4.95 13.78
2/15/2021 6:30:00 AM -0.06 31.892 0.362 8.15 4.93 13.78
2/15/2021 6:45:00 AM -0.06 31.892 0.362 8.15 5.31 13.77
2/15/2021 7:00:00 AM -0.06 31.892 0.362 8.15 5.02 13.78
2/15/2021 7:15:00 AM -0.06 31.892 0.362 8.15 5.08 13.78
2/15/2021 7:30:00 AM -0.06 31.892 0.362 8.15 4.81 13.78
2/15/2021 7:45:00 AM -0.05 31.91 0.362 8.15 4.9 13.78
2/15/2021 8:00:00 AM -0.05 31.91 0.362 8.15 5.02 13.8
2/15/2021 8:15:00 AM -0.05 31.91 0.362 8.16 4.9 13.81
2/15/2021 8:30:00 AM -0.05 31.91 0.362 8.16 5.24 13.82
2/15/2021 8:45:00 AM -0.04 31.928 0.362 8.16 5.08 13.84
2/15/2021 9:00:00 AM -0.04 31.928 0.362 8.17 5.01 13.86
2/15/2021 9:15:00 AM -0.04 31.928 0.362 8.17 5.02 13.87
2/15/2021 9:30:00 AM -0.03 31.946 0.362 8.17 4.94 13.9
2/15/2021 9:45:00 AM -0.03 31.946 0.362 8.17 4.83 13.91
2/15/2021 10:00:00 AM -0.02 31.964 0.361 8.18 5.05 13.93
2/15/2021 10:15:00 AM -0.01 31.982 0.361 8.18 5.05 13.93
2/15/2021 10:30:00 AM -0.01 31.982 0.361 8.18 5.18 13.96
2/15/2021 10:45:00 AM -0.01 31.982 0.361 8.18 4.97 13.97
2/15/2021 11:00:00 AM -0.01 31.982 0.361 8.19 5.05 13.98
2/15/2021 11:15:00 AM 0 32 0.361 8.19 4.84 14
2/15/2021 11:30:00 AM -0.01 31.982 0.361 8.2 4.71 14
2/15/2021 11:45:00 AM -0.01 31.982 0.361 8.2 4.99 14.01
2/15/2021 12:00:00 PM -0.02 31.964 0.36 8.2 4.77 14.02
2/15/2021 12:15:00 PM -0.03 31.946 0.36 8.2 4.84 14
2/15/2021 12:30:00 PM -0.03 31.946 0.36 8.2 5.12 14
2/15/2021 12:45:00 PM -0.03 31.946 0.36 8.2 4.81 14.01
2/15/2021 1:00:00 PM -0.03 31.946 0.36 8.2 4.74 13.99
2/15/2021 1:15:00 PM -0.04 31.928 0.359 8.2 4.76 13.99
2/15/2021 1:30:00 PM -0.04 31.928 0.359 8.21 4.67 14
2/15/2021 1:45:00 PM -0.02 31.964 0.359 8.21 4.72 13.98
2/15/2021 2:00:00 PM -0.01 31.982 0.359 8.21 4.68 13.98
2/15/2021 2:15:00 PM 0 32 0.359 8.21 4.86 13.98
2/15/2021 2:30:00 PM 0 32 0.359 8.21 4.9 13.98
2/15/2021 2:45:00 PM -0.01 31.982 0.359 8.21 4.75 13.97
2/15/2021 3:00:00 PM -0.01 31.982 0.358 8.21 4.8 13.97
2/15/2021 3:15:00 PM 0 32 0.358 8.21 4.61 13.97
2/15/2021 3:30:00 PM 0 32 0.358 8.21 4.87 13.97
2/15/2021 3:45:00 PM 0 32 0.358 8.21 5.22 13.97
2/15/2021 4:00:00 PM 0 32 0.358 8.21 5.1 13.96
2/15/2021 4:15:00 PM -0.01 31.982 0.358 8.21 4.8 13.94
2/15/2021 4:30:00 PM -0.02 31.964 0.357 8.21 4.84 13.94
2/15/2021 4:45:00 PM -0.02 31.964 0.358 8.21 5.28 13.92
2/15/2021 5:00:00 PM -0.03 31.946 0.358 8.21 4.99 13.91
2/15/2021 5:15:00 PM -0.03 31.946 0.358 8.21 5 13.88
2/15/2021 5:30:00 PM -0.04 31.928 0.358 8.2 4.97 13.87
2/15/2021 5:45:00 PM -0.04 31.928 0.357 8.2 4.9 13.85
2/15/2021 6:00:00 PM -0.04 31.928 0.357 8.2 5.07 13.83
2/15/2021 6:15:00 PM -0.04 31.928 0.358 8.2 5.07 13.82
2/15/2021 6:30:00 PM -0.04 31.928 0.358 8.2 4.96 13.82
2/15/2021 6:45:00 PM -0.04 31.928 0.358 8.19 4.94 13.81
2/15/2021 7:00:00 PM -0.04 31.928 0.358 8.19 4.95 13.8
2/15/2021 7:15:00 PM -0.04 31.928 0.358 8.19 6.18 13.8
2/15/2021 7:30:00 PM -0.04 31.928 0.358 8.19 5.25 13.79
2/15/2021 7:45:00 PM -0.04 31.928 0.358 8.19 5.43 13.79
2/15/2021 8:00:00 PM -0.04 31.928 0.358 8.19 5.12 13.78
2/15/2021 8:15:00 PM -0.04 31.928 0.358 8.19 5.17 13.78
2/15/2021 8:30:00 PM -0.05 31.91 0.358 8.19 5.24 13.78
2/15/2021 8:45:00 PM -0.04 31.928 0.358 8.19 5.12 13.77
2/15/2021 9:00:00 PM -0.04 31.928 0.359 8.19 5.04 13.76
2/15/2021 9:15:00 PM -0.04 31.928 0.359 8.19 4.97 13.77
2/15/2021 9:30:00 PM -0.04 31.928 0.359 8.18 5.36 13.75
2/15/2021 9:45:00 PM -0.04 31.928 0.359 8.18 5.05 13.76
2/15/2021 10:00:00 PM -0.05 31.91 0.359 8.18 4.89 13.75
2/15/2021 10:15:00 PM -0.05 31.91 0.359 8.18 5.1 13.75
2/15/2021 10:30:00 PM -0.05 31.91 0.359 8.18 5.8 13.74
2/15/2021 10:45:00 PM -0.06 31.892 0.359 8.18 5.32 13.73
2/15/2021 11:00:00 PM -0.06 31.892 0.359 8.18 5.23 13.73
2/15/2021 11:15:00 PM -0.06 31.892 0.359 8.18 5.33 13.72
2/15/2021 11:30:00 PM -0.06 31.892 0.359 8.17 5.35 13.72
2/15/2021 11:45:00 PM -0.06 31.892 0.359 8.17 5.37 13.72
2/16/2021 12:00:00 AM -0.06 31.892 0.359 8.17 5.11 13.72
2/16/2021 12:15:00 AM -0.06 31.892 0.359 8.17 5.2 13.72
2/16/2021 12:30:00 AM -0.06 31.892 0.359 8.17 5.48 13.71
2/16/2021 12:45:00 AM -0.06 31.892 0.359 8.17 5.45 13.71
2/16/2021 1:00:00 AM -0.06 31.892 0.359 8.17 5.15 13.7
2/16/2021 1:15:00 AM -0.06 31.892 0.359 8.17 5.24 13.69
2/16/2021 1:30:00 AM -0.06 31.892 0.359 8.16 5.63 13.68
2/16/2021 1:45:00 AM -0.06 31.892 0.358 8.16 5.27 13.68
2/16/2021 2:00:00 AM -0.06 31.892 0.358 8.16 5.21 13.66
2/16/2021 2:15:00 AM -0.06 31.892 0.358 8.16 5.52 13.66
2/16/2021 2:30:00 AM -0.06 31.892 0.358 8.16 5.45 13.65
2/16/2021 2:45:00 AM -0.06 31.892 0.358 8.16 5.57 13.63
2/16/2021 3:00:00 AM -0.06 31.892 0.357 8.16 5.98 13.62
2/16/2021 3:15:00 AM -0.06 31.892 0.358 8.16 5.23 13.61
2/16/2021 3:30:00 AM -0.06 31.892 0.358 8.16 5.44 13.59
2/16/2021 3:45:00 AM -0.06 31.892 0.357 8.16 6.5 13.59
2/16/2021 4:00:00 AM -0.06 31.892 0.357 8.16 5.25 13.57
2/16/2021 4:15:00 AM -0.06 31.892 0.357 8.15 5.29 13.55
2/16/2021 4:30:00 AM -0.06 31.892 0.357 8.15 5.16 13.54
2/16/2021 4:45:00 AM -0.06 31.892 0.356 8.15 5.17 13.54
2/16/2021 5:00:00 AM -0.05 31.91 0.356 8.15 5.11 13.53
2/16/2021 5:15:00 AM -0.05 31.91 0.356 8.15 5.28 13.52
2/16/2021 5:30:00 AM -0.05 31.91 0.356 8.15 5.43 13.52
2/16/2021 5:45:00 AM -0.05 31.91 0.356 8.15 5.36 13.51
2/16/2021 6:00:00 AM -0.05 31.91 0.356 8.15 5.24 13.5
2/16/2021 6:15:00 AM -0.05 31.91 0.355 8.15 5.38 13.5
2/16/2021 6:30:00 AM -0.04 31.928 0.355 8.15 5.48 13.49
2/16/2021 6:45:00 AM -0.04 31.928 0.355 8.15 5.16 13.49
2/16/2021 7:00:00 AM -0.04 31.928 0.355 8.15 7.07 13.48
2/16/2021 7:15:00 AM -0.04 31.928 0.355 8.15 5.97 13.47
2/16/2021 7:30:00 AM -0.04 31.928 0.355 8.15 5.23 13.48
2/16/2021 7:45:00 AM -0.04 31.928 0.354 8.15 5.08 13.47
2/16/2021 8:00:00 AM -0.03 31.946 0.354 8.15 5.18 13.49
2/16/2021 8:15:00 AM -0.03 31.946 0.354 8.16 5.37 13.49
2/16/2021 8:30:00 AM -0.02 31.964 0.354 8.16 5.14 13.51
2/16/2021 8:45:00 AM -0.02 31.964 0.354 8.16 5.14 13.51
2/16/2021 9:00:00 AM -0.02 31.964 0.354 8.16 4.87 13.52
2/16/2021 9:15:00 AM -0.01 31.982 0.353 8.16 5 13.54
2/16/2021 9:30:00 AM -0.01 31.982 0.353 8.17 4.92 13.54
2/16/2021 9:45:00 AM 0 32 0.353 8.17 5.01 13.56
2/16/2021 10:00:00 AM 0 32 0.353 8.17 4.93 13.56
2/16/2021 10:15:00 AM 0 32 0.353 8.17 5.03 13.57
2/16/2021 10:30:00 AM 0 32 0.353 8.18 4.99 13.57
2/16/2021 10:45:00 AM 0 32 0.353 8.18 5.2 13.59
2/16/2021 11:00:00 AM 0.01 32.018 0.352 8.18 4.82 13.59
2/16/2021 11:15:00 AM 0 32 0.352 8.18 4.91 13.59
2/16/2021 11:30:00 AM 0 32 0.352 8.18 4.91 13.6
2/16/2021 11:45:00 AM 0.01 32.018 0.351 8.19 4.89 13.6
2/16/2021 12:00:00 PM 0.02 32.036 0.351 8.19 4.89 13.61
2/16/2021 12:15:00 PM 0.03 32.054 0.35 8.19 5.22 13.61
2/16/2021 12:30:00 PM 0.03 32.054 0.35 8.19 5.13 13.62
2/16/2021 12:45:00 PM 0.03 32.054 0.35 8.2 5.21 13.61
2/16/2021 1:00:00 PM 0.02 32.036 0.349 8.2 5.08 13.61
2/16/2021 1:15:00 PM 0.02 32.036 0.349 8.2 5.35 13.62
2/16/2021 1:30:00 PM 0.01 32.018 0.349 8.2 5.51 13.61
2/16/2021 1:45:00 PM 0 32 0.348 8.2 5.51 13.61
2/16/2021 2:00:00 PM 0 32 0.348 8.2 5.3 13.6
2/16/2021 2:15:00 PM 0 32 0.348 8.2 5.36 13.6
2/16/2021 2:30:00 PM -0.01 31.982 0.347 8.2 5.31 13.6
2/16/2021 2:45:00 PM -0.01 31.982 0.347 8.2 5.21 13.59
2/16/2021 3:00:00 PM -0.01 31.982 0.347 8.2 5.27 13.6
2/16/2021 3:15:00 PM -0.02 31.964 0.347 8.2 4.93 13.59
2/16/2021 3:30:00 PM -0.02 31.964 0.347 8.2 5.27 13.59
2/16/2021 3:45:00 PM -0.02 31.964 0.347 8.2 5.15 13.59
2/16/2021 4:00:00 PM -0.02 31.964 0.346 8.2 5.33 13.6
2/16/2021 4:15:00 PM -0.02 31.964 0.346 8.2 5.4 13.61
2/16/2021 4:30:00 PM -0.02 31.964 0.346 8.2 5.53 13.6
2/16/2021 4:45:00 PM -0.03 31.946 0.346 8.2 5.21 13.61
2/16/2021 5:00:00 PM -0.03 31.946 0.346 8.2 5.56 13.61
2/16/2021 5:15:00 PM -0.04 31.928 0.346 8.2 5.39 13.61
2/16/2021 5:30:00 PM -0.04 31.928 0.346 8.19 5.42 13.6
2/16/2021 5:45:00 PM -0.05 31.91 0.346 8.19 5.52 13.59
2/16/2021 6:00:00 PM -0.05 31.91 0.346 8.19 5.6 13.6
2/16/2021 6:15:00 PM -0.06 31.892 0.346 8.19 5.27 13.6
2/16/2021 6:30:00 PM -0.06 31.892 0.346 8.18 5.53 13.6
2/16/2021 6:45:00 PM -0.06 31.892 0.346 8.18 5.36 13.59
2/16/2021 7:00:00 PM -0.06 31.892 0.346 8.18 5.66 13.6
2/16/2021 7:15:00 PM -0.06 31.892 0.346 8.18 5.87 13.6
2/16/2021 7:30:00 PM -0.06 31.892 0.346 8.17 5.65 13.61
2/16/2021 7:45:00 PM -0.06 31.892 0.346 8.17 7.67 13.6
2/16/2021 8:00:00 PM -0.06 31.892 0.346 8.17 5.81 13.61
2/16/2021 8:15:00 PM -0.06 31.892 0.346 8.17 5.91 13.61
2/16/2021 8:30:00 PM -0.06 31.892 0.346 8.17 5.89 13.62
2/16/2021 8:45:00 PM -0.06 31.892 0.346 8.17 5.78 13.63
2/16/2021 9:00:00 PM -0.06 31.892 0.346 8.17 5.48 13.64
2/16/2021 9:15:00 PM -0.06 31.892 0.346 8.17 5.62 13.64
2/16/2021 9:30:00 PM -0.06 31.892 0.346 8.16 5.68 13.65
2/16/2021 9:45:00 PM -0.06 31.892 0.346 8.16 5.5 13.66
2/16/2021 10:00:00 PM -0.06 31.892 0.346 8.16 5.43 13.65
2/16/2021 10:15:00 PM -0.06 31.892 0.345 8.16 5.68 13.65
2/16/2021 10:30:00 PM -0.06 31.892 0.345 8.16 5.43 13.67
2/16/2021 10:45:00 PM -0.06 31.892 0.345 8.16 5.43 13.66
2/16/2021 11:00:00 PM -0.06 31.892 0.345 8.16 5.54 13.66
2/16/2021 11:15:00 PM -0.06 31.892 0.345 8.16 5.6 13.67
2/16/2021 11:30:00 PM -0.06 31.892 0.345 8.16 5.77 13.67
2/16/2021 11:45:00 PM -0.06 31.892 0.345 8.16 5.74 13.67
2/17/2021 12:00:00 AM -0.06 31.892 0.345 8.15 6.07 13.67
2/17/2021 12:15:00 AM -0.06 31.892 0.345 8.15 5.57 13.67
2/17/2021 12:30:00 AM -0.06 31.892 0.344 8.15 5.62 13.68
2/17/2021 12:45:00 AM -0.06 31.892 0.344 8.15 5.74 13.68
2/17/2021 1:00:00 AM -0.06 31.892 0.344 8.15 5.97 13.69
2/17/2021 1:15:00 AM -0.06 31.892 0.344 8.15 5.76 13.69
2/17/2021 1:30:00 AM -0.06 31.892 0.344 8.15 5.48 13.69
2/17/2021 1:45:00 AM -0.06 31.892 0.344 8.15 5.6 13.7
2/17/2021 2:00:00 AM -0.06 31.892 0.344 8.15 5.92 13.7
2/17/2021 2:15:00 AM -0.06 31.892 0.344 8.14 6.04 13.71
2/17/2021 2:30:00 AM -0.06 31.892 0.344 8.14 5.74 13.71
2/17/2021 2:45:00 AM -0.06 31.892 0.344 8.14 5.55 13.71
2/17/2021 3:00:00 AM -0.06 31.892 0.344 8.14 5.64 13.71
2/17/2021 3:15:00 AM -0.06 31.892 0.344 8.14 5.5 13.72
2/17/2021 3:30:00 AM -0.06 31.892 0.344 8.14 5.8 13.72
2/17/2021 3:45:00 AM -0.06 31.892 0.344 8.14 5.84 13.73
2/17/2021 4:00:00 AM -0.06 31.892 0.345 8.14 5.82 13.72
2/17/2021 4:15:00 AM -0.06 31.892 0.345 8.14 5.84 13.73
2/17/2021 4:30:00 AM -0.06 31.892 0.345 8.14 5.72 13.72
2/17/2021 4:45:00 AM -0.06 31.892 0.345 8.14 6.04 13.74
2/17/2021 5:00:00 AM -0.06 31.892 0.345 8.14 5.56 13.73
2/17/2021 5:15:00 AM -0.06 31.892 0.345 8.13 5.65 13.73
2/17/2021 5:30:00 AM -0.06 31.892 0.345 8.13 5.37 13.75
2/17/2021 5:45:00 AM -0.06 31.892 0.345 8.13 5.32 13.74
2/17/2021 6:00:00 AM -0.06 31.892 0.345 8.13 5.42 13.75
2/17/2021 6:15:00 AM -0.06 31.892 0.345 8.13 5.5 13.75
2/17/2021 6:30:00 AM -0.06 31.892 0.345 8.13 5.53 13.75
2/17/2021 6:45:00 AM -0.06 31.892 0.345 8.13 5.55 13.75
2/17/2021 7:00:00 AM -0.06 31.892 0.345 8.13 7.33 13.76
2/17/2021 7:15:00 AM -0.06 31.892 0.345 8.13 5.39 13.76
2/17/2021 7:30:00 AM -0.06 31.892 0.345 8.13 5.36 13.78
2/17/2021 7:45:00 AM -0.06 31.892 0.345 8.13 5.34 13.78
2/17/2021 8:00:00 AM -0.06 31.892 0.346 8.13 5.86 13.8
2/17/2021 8:15:00 AM -0.06 31.892 0.346 8.13 5.32 13.81
2/17/2021 8:30:00 AM -0.06 31.892 0.346 8.13 5.38 13.82
2/17/2021 8:45:00 AM -0.06 31.892 0.346 8.13 5.99 13.84
2/17/2021 9:00:00 AM -0.06 31.892 0.346 8.13 5.33 13.85
2/17/2021 9:15:00 AM -0.06 31.892 0.346 8.13 5.58 13.85
2/17/2021 9:30:00 AM -0.06 31.892 0.346 8.13 5.37 13.86
2/17/2021 9:45:00 AM -0.05 31.91 0.346 8.13 5.34 13.87
2/17/2021 10:00:00 AM -0.05 31.91 0.346 8.13 5.56 13.88
2/17/2021 10:15:00 AM -0.05 31.91 0.346 8.13 5.49 13.87
2/17/2021 10:30:00 AM -0.05 31.91 0.346 8.13 5.75 13.87
2/17/2021 10:45:00 AM -0.05 31.91 0.346 8.13 5.8 13.88
2/17/2021 11:00:00 AM -0.05 31.91 0.346 8.13 5.91 13.87
2/17/2021 11:15:00 AM -0.04 31.928 0.346 8.13 6.1 13.87
2/17/2021 11:30:00 AM -0.04 31.928 0.345 8.13 6 13.87
2/17/2021 11:45:00 AM -0.04 31.928 0.345 8.14 5.86 13.86
2/17/2021 12:00:00 PM -0.03 31.946 0.344 8.14 5.94 13.87
2/17/2021 12:15:00 PM -0.03 31.946 0.344 8.14 6.13 13.85
2/17/2021 12:30:00 PM -0.02 31.964 0.344 8.14 5.92 13.86
2/17/2021 12:45:00 PM -0.01 31.982 0.343 8.14 5.86 13.85
2/17/2021 1:00:00 PM 0 32 0.343 8.14 5.76 13.85
2/17/2021 1:15:00 PM 0.02 32.036 0.343 8.15 5.88 13.87
2/17/2021 1:30:00 PM 0.02 32.036 0.342 8.15 6.05 13.86
2/17/2021 1:45:00 PM 0.03 32.054 0.342 8.15 5.76 13.87
2/17/2021 2:00:00 PM 0.03 32.054 0.342 8.15 5.87 13.87
2/17/2021 2:15:00 PM 0.02 32.036 0.342 8.15 5.6 13.87
2/17/2021 2:30:00 PM 0.02 32.036 0.341 8.15 5.75 13.86
2/17/2021 2:45:00 PM 0.01 32.018 0.341 8.15 5.89 13.86
2/17/2021 3:00:00 PM 0 32 0.341 8.15 5.67 13.87
2/17/2021 3:15:00 PM 0 32 0.34 8.16 5.83 13.86
2/17/2021 3:30:00 PM -0.01 31.982 0.34 8.15 5.96 13.86
2/17/2021 3:45:00 PM -0.02 31.964 0.34 8.15 5.93 13.86
2/17/2021 4:00:00 PM -0.03 31.946 0.34 8.16 5.77 13.85
2/17/2021 4:15:00 PM -0.04 31.928 0.34 8.16 5.92 13.86
2/17/2021 4:30:00 PM -0.04 31.928 0.34 8.16 6.34 13.86
2/17/2021 4:45:00 PM -0.05 31.91 0.34 8.16 5.94 13.86
2/17/2021 5:00:00 PM -0.06 31.892 0.34 8.15 5.96 13.86
2/17/2021 5:15:00 PM -0.07 31.874 0.34 8.15 5.91 13.85
2/17/2021 5:30:00 PM -0.07 31.874 0.341 8.15 5.56 13.84
2/17/2021 5:45:00 PM -0.07 31.874 0.341 8.15 5.93 13.83
2/17/2021 6:00:00 PM -0.07 31.874 0.341 8.15 6.03 13.82
2/17/2021 6:15:00 PM -0.07 31.874 0.341 8.15 5.78 13.82
2/17/2021 6:30:00 PM -0.07 31.874 0.342 8.15 5.97 13.83
2/17/2021 6:45:00 PM -0.07 31.874 0.342 8.14 5.87 13.84
2/17/2021 7:00:00 PM -0.07 31.874 0.342 8.14 5.69 13.84
2/17/2021 7:15:00 PM -0.07 31.874 0.343 8.14 5.82 13.85
2/17/2021 7:30:00 PM -0.07 31.874 0.343 8.14 5.81 13.85
2/17/2021 7:45:00 PM -0.06 31.892 0.344 8.14 5.69 13.86
2/17/2021 8:00:00 PM -0.06 31.892 0.344 8.14 5.76 13.87
2/17/2021 8:15:00 PM -0.06 31.892 0.344 8.14 5.88 13.87
2/17/2021 8:30:00 PM -0.06 31.892 0.345 8.14 6.33 13.88
2/17/2021 8:45:00 PM -0.06 31.892 0.345 8.14 5.83 13.9
2/17/2021 9:00:00 PM -0.06 31.892 0.345 8.14 5.77 13.89
2/17/2021 9:15:00 PM -0.06 31.892 0.345 8.14 5.52 13.9
2/17/2021 9:30:00 PM -0.06 31.892 0.346 8.14 5.64 13.91
2/17/2021 9:45:00 PM -0.06 31.892 0.346 8.13 5.78 13.91
2/17/2021 10:00:00 PM -0.06 31.892 0.346 8.13 5.68 13.91
2/17/2021 10:15:00 PM -0.06 31.892 0.346 8.13 5.89 13.91
2/17/2021 10:30:00 PM -0.06 31.892 0.347 8.12 5.76 13.9
2/17/2021 10:45:00 PM -0.06 31.892 0.347 8.13 5.53 13.89
2/17/2021 11:00:00 PM -0.06 31.892 0.347 8.12 5.46 13.88
2/17/2021 11:15:00 PM -0.06 31.892 0.347 8.12 6.19 13.88
2/17/2021 11:30:00 PM -0.06 31.892 0.346 8.12 6.1 13.87
2/17/2021 11:45:00 PM -0.06 31.892 0.346 8.12 5.91 13.86
2/18/2021 12:00:00 AM -0.06 31.892 0.346 8.12 5.55 13.86
2/18/2021 12:15:00 AM -0.06 31.892 0.346 8.12 6.12 13.87
2/18/2021 12:30:00 AM -0.06 31.892 0.346 8.11 5.82 13.86
2/18/2021 12:45:00 AM -0.06 31.892 0.345 8.11 5.38 13.85
2/18/2021 1:00:00 AM -0.06 31.892 0.345 8.11 5.76 13.85
2/18/2021 1:15:00 AM -0.06 31.892 0.345 8.11 5.44 13.85
2/18/2021 1:30:00 AM -0.06 31.892 0.345 8.11 5.52 13.84
2/18/2021 1:45:00 AM -0.06 31.892 0.345 8.11 5.35 13.85
2/18/2021 2:00:00 AM -0.06 31.892 0.345 8.11 5.27 13.85
2/18/2021 2:15:00 AM -0.06 31.892 0.344 8.11 5.48 13.85
2/18/2021 2:30:00 AM -0.06 31.892 0.344 8.11 5.33 13.84
2/18/2021 2:45:00 AM -0.06 31.892 0.344 8.11 5.35 13.83
2/18/2021 3:00:00 AM -0.06 31.892 0.344 8.11 5.57 13.83
2/18/2021 3:15:00 AM -0.06 31.892 0.343 8.11 5.44 13.83
2/18/2021 3:30:00 AM -0.06 31.892 0.343 8.11 6.02 13.84
2/18/2021 3:45:00 AM -0.06 31.892 0.343 8.11 5.41 13.83
2/18/2021 4:00:00 AM -0.06 31.892 0.343 8.11 5.53 13.83
2/18/2021 4:15:00 AM -0.06 31.892 0.342 8.11 5.91 13.83
2/18/2021 4:30:00 AM -0.06 31.892 0.343 8.11 5.5 13.83
2/18/2021 4:45:00 AM -0.06 31.892 0.343 8.11 5.81 13.82
2/18/2021 5:00:00 AM -0.06 31.892 0.342 8.11 5.54 13.82
2/18/2021 5:15:00 AM -0.06 31.892 0.343 8.11 5.44 13.82
2/18/2021 5:30:00 AM -0.06 31.892 0.342 8.11 5.93 13.82
2/18/2021 5:45:00 AM -0.06 31.892 0.343 8.11 5.77 13.81
2/18/2021 6:00:00 AM -0.06 31.892 0.343 8.11 5.89 13.81
2/18/2021 6:15:00 AM -0.06 31.892 0.343 8.1 5.65 13.81
2/18/2021 6:30:00 AM -0.06 31.892 0.343 8.1 5.91 13.8
2/18/2021 6:45:00 AM -0.06 31.892 0.343 8.1 5.68 13.8
2/18/2021 7:00:00 AM -0.06 31.892 0.343 8.1 6.34 13.8
2/18/2021 7:15:00 AM -0.06 31.892 0.343 8.1 5.51 13.81
2/18/2021 7:30:00 AM -0.06 31.892 0.343 8.1 5.46 13.82
2/18/2021 7:45:00 AM -0.06 31.892 0.343 8.11 6.05 13.83
2/18/2021 8:00:00 AM -0.06 31.892 0.344 8.11 5.74 13.84
2/18/2021 8:15:00 AM -0.06 31.892 0.344 8.11 5.35 13.86
2/18/2021 8:30:00 AM -0.06 31.892 0.343 8.11 5.45 13.87
2/18/2021 8:45:00 AM -0.06 31.892 0.343 8.11 5.66 13.89
2/18/2021 9:00:00 AM -0.06 31.892 0.343 8.12 5.49 13.9
2/18/2021 9:15:00 AM -0.06 31.892 0.343 8.12 5.47 13.91
2/18/2021 9:30:00 AM -0.06 31.892 0.343 8.12 5.34 13.92
2/18/2021 9:45:00 AM -0.06 31.892 0.343 8.12 5.46 13.92
2/18/2021 10:00:00 AM -0.06 31.892 0.343 8.12 5.31 13.93
2/18/2021 10:15:00 AM -0.05 31.91 0.342 8.12 5.58 13.93
2/18/2021 10:30:00 AM -0.05 31.91 0.342 8.13 5.5 13.93
2/18/2021 10:45:00 AM -0.05 31.91 0.342 8.13 5.63 13.94
2/18/2021 11:00:00 AM -0.05 31.91 0.342 8.13 5.74 13.95
2/18/2021 11:15:00 AM -0.05 31.91 0.342 8.13 5.51 13.95
2/18/2021 11:30:00 AM -0.05 31.91 0.342 8.13 5.41 13.95
2/18/2021 11:45:00 AM -0.05 31.91 0.341 8.13 6.24 13.96
2/18/2021 12:00:00 PM -0.05 31.91 0.341 8.14 5.7 13.98
2/18/2021 12:15:00 PM -0.05 31.91 0.341 8.14 5.53 13.98
2/18/2021 12:30:00 PM -0.04 31.928 0.341 8.15 5.64 14
2/18/2021 12:45:00 PM -0.04 31.928 0.341 8.15 5.52 14.01
2/18/2021 1:00:00 PM -0.03 31.946 0.341 8.15 5.37 14.01
2/18/2021 1:15:00 PM -0.02 31.964 0.34 8.15 5.31 14.02
2/18/2021 1:30:00 PM -0.02 31.964 0.34 8.16 5.29 14.03
2/18/2021 1:45:00 PM -0.01 31.982 0.34 8.17 5.61 14.04
2/18/2021 2:00:00 PM -0.01 31.982 0.34 8.17 5.45 14.03
2/18/2021 2:15:00 PM -0.01 31.982 0.34 8.17 5.4 14.03
2/18/2021 2:30:00 PM -0.01 31.982 0.34 8.17 5.23 14.04
2/18/2021 2:45:00 PM -0.01 31.982 0.339 8.18 5.34 14.03
2/18/2021 3:00:00 PM -0.01 31.982 0.339 8.18 5.31 14.03
2/18/2021 3:15:00 PM -0.02 31.964 0.339 8.18 5.26 14.03
2/18/2021 3:30:00 PM -0.02 31.964 0.338 8.18 5.29 14.03
2/18/2021 3:45:00 PM -0.03 31.946 0.338 8.18 5.37 14.02
2/18/2021 4:00:00 PM -0.03 31.946 0.338 8.18 5.38 14.02
2/18/2021 4:15:00 PM -0.03 31.946 0.338 8.18 5.39 14.01
2/18/2021 4:30:00 PM -0.03 31.946 0.338 8.18 5.3 14
2/18/2021 4:45:00 PM -0.04 31.928 0.338 8.18 5.63 13.99
2/18/2021 5:00:00 PM -0.04 31.928 0.338 8.18 5.2 13.97
2/18/2021 5:15:00 PM -0.04 31.928 0.338 8.18 7.6 13.96
2/18/2021 5:30:00 PM -0.05 31.91 0.338 8.17 6 13.94
2/18/2021 5:45:00 PM -0.05 31.91 0.338 8.17 5.16 13.92
2/18/2021 6:00:00 PM -0.05 31.91 0.338 8.17 5.27 13.91
2/18/2021 6:15:00 PM -0.05 31.91 0.338 8.17 5.37 13.9
2/18/2021 6:30:00 PM -0.05 31.91 0.338 8.16 5.89 13.89
2/18/2021 6:45:00 PM -0.05 31.91 0.338 8.16 5.5 13.88
2/18/2021 7:00:00 PM -0.05 31.91 0.338 8.16 5.38 13.88
2/18/2021 7:15:00 PM -0.06 31.892 0.338 8.16 5.4 13.88
2/18/2021 7:30:00 PM -0.06 31.892 0.338 8.16 5.39 13.88
2/18/2021 7:45:00 PM -0.06 31.892 0.338 8.16 5.76 13.88
2/18/2021 8:00:00 PM -0.06 31.892 0.338 8.16 5.66 13.88
2/18/2021 8:15:00 PM -0.06 31.892 0.339 8.16 5.34 13.87
2/18/2021 8:30:00 PM -0.06 31.892 0.339 8.15 5.25 13.86
2/18/2021 8:45:00 PM -0.06 31.892 0.339 8.15 5.6 13.87
2/18/2021 9:00:00 PM -0.06 31.892 0.339 8.15 5.37 13.86
2/18/2021 9:15:00 PM -0.06 31.892 0.339 8.15 5.32 13.86
2/18/2021 9:30:00 PM -0.06 31.892 0.339 8.15 5.38 13.86
2/18/2021 9:45:00 PM -0.06 31.892 0.339 8.15 5.57 13.87
2/18/2021 10:00:00 PM -0.06 31.892 0.339 8.15 5.58 13.86
2/18/2021 10:15:00 PM -0.06 31.892 0.339 8.15 5.64 13.86
2/18/2021 10:30:00 PM -0.06 31.892 0.339 8.15 5.72 13.86
2/18/2021 10:45:00 PM -0.06 31.892 0.339 8.15 5.43 13.86
2/18/2021 11:00:00 PM -0.06 31.892 0.339 8.15 5.53 13.86
2/18/2021 11:15:00 PM -0.06 31.892 0.339 8.15 5.44 13.86
2/18/2021 11:30:00 PM -0.06 31.892 0.339 8.15 5.52 13.86
2/18/2021 11:45:00 PM -0.06 31.892 0.339 8.15 5.4 13.86
2/19/2021 12:00:00 AM -0.06 31.892 0.338 8.15 5.61 13.86
2/19/2021 12:15:00 AM -0.06 31.892 0.339 8.15 5.46 13.85
2/19/2021 12:30:00 AM -0.06 31.892 0.339 8.15 5.6 13.86
2/19/2021 12:45:00 AM -0.06 31.892 0.338 8.15 5.71 13.86
2/19/2021 1:00:00 AM -0.06 31.892 0.338 8.15 6.47 13.85
2/19/2021 1:15:00 AM -0.06 31.892 0.338 8.14 5.98 13.85
2/19/2021 1:30:00 AM -0.06 31.892 0.338 8.15 5.49 13.85
2/19/2021 1:45:00 AM -0.06 31.892 0.338 8.15 5.6 13.85
2/19/2021 2:00:00 AM -0.06 31.892 0.338 8.15 5.56 13.84
2/19/2021 2:15:00 AM -0.06 31.892 0.338 8.14 5.49 13.84
2/19/2021 2:30:00 AM -0.06 31.892 0.338 8.14 5.42 13.84
2/19/2021 2:45:00 AM -0.06 31.892 0.338 8.15 5.55 13.84
2/19/2021 3:00:00 AM -0.06 31.892 0.338 8.14 5.51 13.84
2/19/2021 3:15:00 AM -0.06 31.892 0.338 8.14 5.56 13.83
2/19/2021 3:30:00 AM -0.06 31.892 0.338 8.15 5.39 13.83
2/19/2021 3:45:00 AM -0.06 31.892 0.338 8.15 5.36 13.83
2/19/2021 4:00:00 AM -0.06 31.892 0.338 8.14 5.55 13.83
2/19/2021 4:15:00 AM -0.06 31.892 0.338 8.14 5.53 13.83
2/19/2021 4:30:00 AM -0.06 31.892 0.338 8.14 5.42 13.82
2/19/2021 4:45:00 AM -0.06 31.892 0.338 8.14 5.23 13.81
2/19/2021 5:00:00 AM -0.06 31.892 0.338 8.14 5.34 13.81
2/19/2021 5:15:00 AM -0.06 31.892 0.338 8.14 5.52 13.81
2/19/2021 5:30:00 AM -0.06 31.892 0.338 8.14 5.65 13.81
2/19/2021 5:45:00 AM -0.06 31.892 0.338 8.14 5.6 13.8
2/19/2021 6:00:00 AM -0.06 31.892 0.338 8.14 5.51 13.8
2/19/2021 6:15:00 AM -0.06 31.892 0.338 8.14 5.7 13.8
2/19/2021 6:30:00 AM -0.06 31.892 0.339 8.14 5.37 13.8
2/19/2021 6:45:00 AM -0.06 31.892 0.339 8.14 5.54 13.79
2/19/2021 7:00:00 AM -0.06 31.892 0.339 8.14 5.83 13.79
2/19/2021 7:15:00 AM -0.06 31.892 0.339 8.14 5.4 13.78
2/19/2021 7:30:00 AM -0.06 31.892 0.339 8.14 5.23 13.79
2/19/2021 7:45:00 AM -0.06 31.892 0.339 8.14 5.46 13.81
2/19/2021 8:00:00 AM -0.06 31.892 0.339 8.15 5.5 13.81
2/19/2021 8:15:00 AM -0.06 31.892 0.339 8.15 5.44 13.83
2/19/2021 8:30:00 AM -0.06 31.892 0.339 8.15 5.24 13.83
2/19/2021 8:45:00 AM -0.05 31.91 0.339 8.15 5.25 13.85
2/19/2021 9:00:00 AM -0.05 31.91 0.34 8.15 5.17 13.85
2/19/2021 9:15:00 AM -0.04 31.928 0.34 8.16 5.18 13.86
2/19/2021 9:30:00 AM -0.03 31.946 0.339 8.16 5.23 13.87
2/19/2021 9:45:00 AM -0.03 31.946 0.34 8.16 5.11 13.87
2/19/2021 10:00:00 AM -0.03 31.946 0.34 8.16 5.31 13.89
2/19/2021 10:15:00 AM -0.02 31.964 0.339 8.17 5.11 13.9
2/19/2021 10:30:00 AM -0.01 31.982 0.339 8.17 5.08 13.89
2/19/2021 10:45:00 AM 0 32 0.339 8.17 4.97 13.91
2/19/2021 11:00:00 AM 0 32 0.339 8.17 5.21 13.91
2/19/2021 11:15:00 AM 0 32 0.339 8.18 5.27 13.92
2/19/2021 11:30:00 AM 0.01 32.018 0.339 8.18 4.92 13.92
2/19/2021 11:45:00 AM 0.01 32.018 0.339 8.18 5.38 13.94
2/19/2021 12:00:00 PM 0.02 32.036 0.339 8.19 4.87 13.94
2/19/2021 12:15:00 PM 0.02 32.036 0.339 8.19 5.01 13.94
2/19/2021 12:30:00 PM 0.01 32.018 0.339 8.19 5.05 13.93
2/19/2021 12:45:00 PM 0.01 32.018 0.339 8.19 4.97 13.93
2/19/2021 1:00:00 PM 0.01 32.018 0.338 8.19 4.94 13.94
2/19/2021 1:15:00 PM 0.01 32.018 0.338 8.2 4.9 13.92
2/19/2021 1:30:00 PM 0 32 0.338 8.19 4.94 13.93
2/19/2021 1:45:00 PM 0 32 0.338 8.2 5.02 13.91
2/19/2021 2:00:00 PM 0 32 0.338 8.2 5.35 13.92
2/19/2021 2:15:00 PM 0 32 0.338 8.2 5 13.9
2/19/2021 2:30:00 PM 0 32 0.338 8.2 4.94 13.89
2/19/2021 2:45:00 PM 0 32 0.338 8.2 5.06 13.89
2/19/2021 3:00:00 PM -0.01 31.982 0.338 8.2 5.13 13.88
2/19/2021 3:15:00 PM -0.01 31.982 0.338 8.2 5.21 13.88
2/19/2021 3:30:00 PM -0.01 31.982 0.338 8.2 5.16 13.88
2/19/2021 3:45:00 PM -0.02 31.964 0.338 8.2 5.8 13.87
2/19/2021 4:00:00 PM -0.02 31.964 0.338 8.2 5.22 13.86
2/19/2021 4:15:00 PM -0.02 31.964 0.338 8.2 5.13 13.86
2/19/2021 4:30:00 PM -0.02 31.964 0.338 8.2 5.07 13.85
2/19/2021 4:45:00 PM -0.02 31.964 0.338 8.2 5.34 13.84
2/19/2021 5:00:00 PM -0.02 31.964 0.339 8.19 8.66 13.84
2/19/2021 5:15:00 PM -0.02 31.964 0.34 8.19 5.19 13.83
2/19/2021 5:30:00 PM -0.03 31.946 0.341 8.19 5.28 13.82
2/19/2021 5:45:00 PM -0.03 31.946 0.34 8.19 5.62 13.82
2/19/2021 6:00:00 PM -0.03 31.946 0.34 8.18 5.41 13.81
2/19/2021 6:15:00 PM -0.03 31.946 0.34 8.18 5.35 13.8
2/19/2021 6:30:00 PM -0.03 31.946 0.34 8.18 5.63 13.81
2/19/2021 6:45:00 PM -0.03 31.946 0.34 8.18 5.59 13.8
2/19/2021 7:00:00 PM -0.03 31.946 0.341 8.18 5.74 13.8
2/19/2021 7:15:00 PM -0.03 31.946 0.341 8.18 5.49 13.79
2/19/2021 7:30:00 PM -0.03 31.946 0.342 8.18 5.38 13.79
2/19/2021 7:45:00 PM -0.04 31.928 0.342 8.17 5.29 13.8
2/19/2021 8:00:00 PM -0.03 31.946 0.342 8.17 5.78 13.79
2/19/2021 8:15:00 PM -0.04 31.928 0.343 8.17 5.89 13.79
2/19/2021 8:30:00 PM -0.04 31.928 0.345 8.17 5.35 13.79
2/19/2021 8:45:00 PM -0.04 31.928 0.347 8.17 5.55 13.8
2/19/2021 9:00:00 PM -0.04 31.928 0.347 8.17 5.56 13.79
2/19/2021 9:15:00 PM -0.04 31.928 0.346 8.17 5.62 13.79
2/19/2021 9:30:00 PM -0.04 31.928 0.345 8.17 5.44 13.79
2/19/2021 9:45:00 PM -0.04 31.928 0.344 8.17 5.29 13.8
2/19/2021 10:00:00 PM -0.04 31.928 0.343 8.17 5.16 13.8
2/19/2021 10:15:00 PM -0.04 31.928 0.343 8.17 5.46 13.8
2/19/2021 10:30:00 PM -0.04 31.928 0.343 8.17 5.2 13.8
2/19/2021 10:45:00 PM -0.04 31.928 0.342 8.17 5.3 13.8
2/19/2021 11:00:00 PM -0.04 31.928 0.342 8.17 5.48 13.8
2/19/2021 11:15:00 PM -0.04 31.928 0.342 8.17 5.38 13.8
2/19/2021 11:30:00 PM -0.04 31.928 0.342 8.17 5.25 13.8
2/19/2021 11:45:00 PM -0.04 31.928 0.342 8.17 5.84 13.81
2/20/2021 12:00:00 AM -0.04 31.928 0.342 8.17 5.41 13.8
2/20/2021 12:15:00 AM -0.04 31.928 0.342 8.17 5.41 13.81
2/20/2021 12:30:00 AM -0.05 31.91 0.342 8.17 5.14 13.8
2/20/2021 12:45:00 AM -0.05 31.91 0.342 8.17 5.51 13.81
2/20/2021 1:00:00 AM -0.05 31.91 0.342 8.17 5.34 13.81
2/20/2021 1:15:00 AM -0.05 31.91 0.342 8.17 5.24 13.81
2/20/2021 1:30:00 AM -0.05 31.91 0.342 8.17 5.42 13.81
2/20/2021 1:45:00 AM -0.05 31.91 0.342 8.17 5.41 13.82
2/20/2021 2:00:00 AM -0.05 31.91 0.342 8.17 5.18 13.82
2/20/2021 2:15:00 AM -0.05 31.91 0.342 8.17 5.46 13.81
2/20/2021 2:30:00 AM -0.05 31.91 0.342 8.17 5.73 13.83
2/20/2021 2:45:00 AM -0.05 31.91 0.343 8.17 5.38 13.83
2/20/2021 3:00:00 AM -0.06 31.892 0.343 8.17 5.3 13.82
2/20/2021 3:15:00 AM -0.06 31.892 0.343 8.17 5.3 13.83
2/20/2021 3:30:00 AM -0.05 31.91 0.343 8.17 5.61 13.82
2/20/2021 3:45:00 AM -0.05 31.91 0.344 8.17 5.35 13.83
2/20/2021 4:00:00 AM -0.05 31.91 0.344 8.17 5.28 13.83
2/20/2021 4:15:00 AM -0.05 31.91 0.344 8.17 5.48 13.84
2/20/2021 4:30:00 AM -0.06 31.892 0.344 8.17 5.58 13.84
2/20/2021 4:45:00 AM -0.06 31.892 0.344 8.17 5.48 13.83
2/20/2021 5:00:00 AM -0.06 31.892 0.345 8.17 5.72 13.83
2/20/2021 5:15:00 AM -0.06 31.892 0.345 8.17 5.75 13.84
2/20/2021 5:30:00 AM -0.06 31.892 0.345 8.17 5.46 13.83
2/20/2021 5:45:00 AM -0.07 31.874 0.346 8.17 5.63 13.84
2/20/2021 6:00:00 AM -0.06 31.892 0.346 8.17 5.57 13.84
2/20/2021 6:15:00 AM -0.06 31.892 0.346 8.17 5.63 13.83
2/20/2021 6:30:00 AM -0.06 31.892 0.346 8.17 6.13 13.84
2/20/2021 6:45:00 AM -0.06 31.892 0.347 8.17 5.65 13.83
2/20/2021 7:00:00 AM -0.06 31.892 0.347 8.17 6.02 13.84
2/20/2021 7:15:00 AM -0.06 31.892 0.347 8.17 5.84 13.84
2/20/2021 7:30:00 AM -0.06 31.892 0.348 8.17 5.25 13.87
2/20/2021 7:45:00 AM -0.06 31.892 0.348 8.17 5.34 13.87
2/20/2021 8:00:00 AM -0.06 31.892 0.348 8.17 5.63 13.89
2/20/2021 8:15:00 AM -0.06 31.892 0.349 8.18 5.11 13.9
2/20/2021 8:30:00 AM -0.06 31.892 0.349 8.18 5.44 13.91
2/20/2021 8:45:00 AM -0.06 31.892 0.349 8.18 5.47 13.93
2/20/2021 9:00:00 AM -0.05 31.91 0.349 8.18 5.33 13.94
2/20/2021 9:15:00 AM -0.03 31.946 0.349 8.19 5.44 13.96
2/20/2021 9:30:00 AM -0.02 31.964 0.35 8.19 5.27 13.96
2/20/2021 9:45:00 AM -0.02 31.964 0.35 8.19 5.08 13.97
2/20/2021 10:00:00 AM -0.02 31.964 0.35 8.19 5.44 13.96
2/20/2021 10:15:00 AM -0.01 31.982 0.35 8.19 5.23 13.98
2/20/2021 10:30:00 AM -0.01 31.982 0.351 8.2 5.29 13.97
2/20/2021 10:45:00 AM -0.01 31.982 0.351 8.2 5.06 13.99
2/20/2021 11:00:00 AM 0 32 0.351 8.2 4.96 13.98
2/20/2021 11:15:00 AM 0 32 0.351 8.21 5.12 14
2/20/2021 11:30:00 AM 0.01 32.018 0.351 8.21 5.12 14
2/20/2021 11:45:00 AM 0.01 32.018 0.351 8.21 5.12 14.01
2/20/2021 12:00:00 PM 0.02 32.036 0.351 8.22 5.11 14.02
2/20/2021 12:15:00 PM 0.04 32.072 0.351 8.22 5.13 14.01
2/20/2021 12:30:00 PM 0.03 32.054 0.351 8.22 5.25 14.01
2/20/2021 12:45:00 PM 0.03 32.054 0.351 8.23 5.09 14.02
2/20/2021 1:00:00 PM 0.05 32.09 0.351 8.23 4.94 14.02
2/20/2021 1:15:00 PM 0.07 32.126 0.351 8.23 4.93 14.02
2/20/2021 1:30:00 PM 0.05 32.09 0.351 8.23 5.3 14.01
2/20/2021 1:45:00 PM 0.04 32.072 0.351 8.23 5.25 14.01
2/20/2021 2:00:00 PM 0.04 32.072 0.351 8.23 5.13 14
2/20/2021 2:15:00 PM 0.04 32.072 0.351 8.24 5.2 13.99
2/20/2021 2:30:00 PM 0.04 32.072 0.35 8.24 5.14 14
2/20/2021 2:45:00 PM 0.05 32.09 0.35 8.24 5.22 13.99
2/20/2021 3:00:00 PM 0.06 32.108 0.35 8.24 5.47 13.99
2/20/2021 3:15:00 PM 0.04 32.072 0.35 8.24 5.22 13.99
2/20/2021 3:30:00 PM 0.02 32.036 0.35 8.24 5.17 13.99
2/20/2021 3:45:00 PM 0.02 32.036 0.35 8.24 5.13 13.98
2/20/2021 4:00:00 PM 0.01 32.018 0.35 8.24 5.31 13.99
2/20/2021 4:15:00 PM 0 32 0.35 8.24 5.3 13.97
2/20/2021 4:30:00 PM -0.02 31.964 0.351 8.23 5.21 13.96
2/20/2021 4:45:00 PM -0.04 31.928 0.351 8.24 5.37 13.97
2/20/2021 5:00:00 PM -0.04 31.928 0.351 8.24 5.16 13.96
2/20/2021 5:15:00 PM -0.05 31.91 0.351 8.23 5.18 13.96
2/20/2021 5:30:00 PM -0.06 31.892 0.351 8.23 5.33 13.95
2/20/2021 5:45:00 PM -0.06 31.892 0.352 8.23 5.23 13.93
2/20/2021 6:00:00 PM -0.06 31.892 0.352 8.23 5.35 13.92
2/20/2021 6:15:00 PM -0.06 31.892 0.352 8.22 5.38 13.93
2/20/2021 6:30:00 PM -0.06 31.892 0.352 8.22 5.48 13.92
2/20/2021 6:45:00 PM -0.06 31.892 0.352 8.22 5.4 13.92
2/20/2021 7:00:00 PM -0.06 31.892 0.352 8.22 5.56 13.93
2/20/2021 7:15:00 PM -0.06 31.892 0.353 8.22 5.62 13.93
2/20/2021 7:30:00 PM -0.06 31.892 0.353 8.22 5.44 13.93
2/20/2021 7:45:00 PM -0.06 31.892 0.353 8.21 6.06 13.94
2/20/2021 8:00:00 PM -0.06 31.892 0.353 8.21 5.49 13.94
2/20/2021 8:15:00 PM -0.06 31.892 0.353 8.21 5.74 13.95
2/20/2021 8:30:00 PM -0.06 31.892 0.353 8.21 5.92 13.95
2/20/2021 8:45:00 PM -0.06 31.892 0.354 8.21 5.62 13.96
2/20/2021 9:00:00 PM -0.06 31.892 0.354 8.21 5.42 13.97
2/20/2021 9:15:00 PM -0.06 31.892 0.354 8.21 5.5 13.96
2/20/2021 9:30:00 PM -0.06 31.892 0.354 8.21 5.7 13.97
2/20/2021 9:45:00 PM -0.06 31.892 0.354 8.2 7.59 13.97
2/20/2021 10:00:00 PM -0.06 31.892 0.354 8.2 6.12 13.97
2/20/2021 10:15:00 PM -0.06 31.892 0.354 8.2 6.06 13.97
2/20/2021 10:30:00 PM -0.06 31.892 0.354 8.2 6.13 13.97
2/20/2021 10:45:00 PM -0.06 31.892 0.354 8.2 6 13.98
2/20/2021 11:00:00 PM -0.06 31.892 0.354 8.2 5.56 13.98
2/20/2021 11:15:00 PM -0.06 31.892 0.354 8.2 5.47 13.98
2/20/2021 11:30:00 PM -0.06 31.892 0.354 8.2 5.65 13.99
2/20/2021 11:45:00 PM -0.06 31.892 0.353 8.2 5.51 13.98
2/21/2021 12:00:00 AM -0.06 31.892 0.353 8.2 5.58 13.98
2/21/2021 12:15:00 AM -0.06 31.892 0.353 8.2 5.82 13.98
2/21/2021 12:30:00 AM -0.06 31.892 0.353 8.19 5.42 13.98
2/21/2021 12:45:00 AM -0.06 31.892 0.353 8.19 5.44 13.99
2/21/2021 1:00:00 AM -0.06 31.892 0.353 8.19 5.3 13.98
2/21/2021 1:15:00 AM -0.06 31.892 0.353 8.19 5.46 13.99
2/21/2021 1:30:00 AM -0.06 31.892 0.353 8.19 5.37 13.98
2/21/2021 1:45:00 AM -0.06 31.892 0.353 8.19 5.45 13.99
2/21/2021 2:00:00 AM -0.06 31.892 0.353 8.19 5.52 14
2/21/2021 2:15:00 AM -0.06 31.892 0.353 8.19 5.5 13.99
2/21/2021 2:30:00 AM -0.06 31.892 0.353 8.19 5.97 13.99
2/21/2021 2:45:00 AM -0.06 31.892 0.352 8.19 5.56 14
2/21/2021 3:00:00 AM -0.06 31.892 0.352 8.19 5.4 14
2/21/2021 3:15:00 AM -0.06 31.892 0.352 8.19 5.33 13.99
2/21/2021 3:30:00 AM -0.06 31.892 0.352 8.19 5.28 14
2/21/2021 3:45:00 AM -0.06 31.892 0.352 8.19 5.55 14
2/21/2021 4:00:00 AM -0.06 31.892 0.352 8.19 5.79 14.01
2/21/2021 4:15:00 AM -0.06 31.892 0.352 8.19 5.44 14.01
2/21/2021 4:30:00 AM -0.06 31.892 0.352 8.18 5.48 14.02
2/21/2021 4:45:00 AM -0.06 31.892 0.353 8.18 5.55 14.03
2/21/2021 5:00:00 AM -0.06 31.892 0.353 8.18 5.99 14.03
2/21/2021 5:15:00 AM -0.06 31.892 0.353 8.18 5.53 14.03
2/21/2021 5:30:00 AM -0.06 31.892 0.353 8.18 5.51 14.04
2/21/2021 5:45:00 AM -0.06 31.892 0.353 8.18 5.55 14.05
2/21/2021 6:00:00 AM -0.06 31.892 0.353 8.18 5.84 14.06
2/21/2021 6:15:00 AM -0.06 31.892 0.354 8.18 5.58 14.07
2/21/2021 6:30:00 AM -0.06 31.892 0.354 8.18 5.59 14.07
2/21/2021 6:45:00 AM -0.06 31.892 0.354 8.17 5.73 14.08
2/21/2021 7:00:00 AM -0.06 31.892 0.354 8.17 6.29 14.08
2/21/2021 7:15:00 AM -0.06 31.892 0.355 8.18 6.06 14.09
2/21/2021 7:30:00 AM -0.06 31.892 0.355 8.18 5.53 14.1
2/21/2021 7:45:00 AM -0.06 31.892 0.355 8.18 5.47 14.13
2/21/2021 8:00:00 AM -0.06 31.892 0.355 8.18 5.66 14.15
2/21/2021 8:15:00 AM -0.06 31.892 0.356 8.18 5.5 14.16
2/21/2021 8:30:00 AM -0.06 31.892 0.356 8.18 5.61 14.17
2/21/2021 8:45:00 AM -0.06 31.892 0.356 8.19 5.74 14.18
2/21/2021 9:00:00 AM -0.06 31.892 0.356 8.19 6.31 14.18
2/21/2021 9:15:00 AM -0.06 31.892 0.356 8.19 8.77 14.19
2/21/2021 9:30:00 AM -0.06 31.892 0.356 8.19 5.35 14.19
2/21/2021 9:45:00 AM -0.06 31.892 0.356 8.19 5.33 14.19
2/21/2021 10:00:00 AM -0.06 31.892 0.355 8.19 5.42 14.19
2/21/2021 10:15:00 AM -0.05 31.91 0.355 8.19 5.59 14.18
2/21/2021 10:30:00 AM -0.05 31.91 0.355 8.19 5.44 14.17
2/21/2021 10:45:00 AM -0.05 31.91 0.355 8.19 5.65 14.15
2/21/2021 11:00:00 AM -0.05 31.91 0.355 8.19 5.98 14.14
2/21/2021 11:15:00 AM -0.04 31.928 0.354 8.19 5.85 14.11
2/21/2021 11:30:00 AM -0.04 31.928 0.354 8.18 6.21 14.09
2/21/2021 11:45:00 AM -0.03 31.946 0.353 8.18 6.33 14.06
2/21/2021 12:00:00 PM -0.01 31.982 0.352 8.19 6.27 14.06
2/21/2021 12:15:00 PM 0.02 32.036 0.352 8.19 6.23 14.06
2/21/2021 12:30:00 PM 0.04 32.072 0.351 8.19 5.9 14.05
2/21/2021 12:45:00 PM 0.06 32.108 0.35 8.2 5.87 14.05
2/21/2021 1:00:00 PM 0.07 32.126 0.35 8.2 5.59 14.04
2/21/2021 1:15:00 PM 0.08 32.144 0.349 8.2 5.6 14.04
2/21/2021 1:30:00 PM 0.08 32.144 0.349 8.2 5.74 14.04
2/21/2021 1:45:00 PM 0.08 32.144 0.348 8.2 5.49 14.05
2/21/2021 2:00:00 PM 0.06 32.108 0.348 8.21 5.7 14.04
2/21/2021 2:15:00 PM 0.05 32.09 0.347 8.21 5.55 14.05
2/21/2021 2:30:00 PM 0.06 32.108 0.346 8.21 5.3 14.04
2/21/2021 2:45:00 PM 0.06 32.108 0.346 8.21 5.58 14.04
2/21/2021 3:00:00 PM 0.06 32.108 0.345 8.22 5.44 14.04
2/21/2021 3:15:00 PM 0.05 32.09 0.344 8.22 5.59 14.05
2/21/2021 3:30:00 PM 0.04 32.072 0.344 8.22 5.68 14.04
2/21/2021 3:45:00 PM 0.02 32.036 0.343 8.22 5.59 14.04
2/21/2021 4:00:00 PM 0.01 32.018 0.343 8.22 5.64 14.03
2/21/2021 4:15:00 PM -0.01 31.982 0.342 8.23 5.7 14.04
2/21/2021 4:30:00 PM -0.02 31.964 0.342 8.23 5.46 14.03
2/21/2021 4:45:00 PM -0.03 31.946 0.342 8.23 5.49 14.03
2/21/2021 5:00:00 PM -0.04 31.928 0.342 8.23 5.57 14.03
2/21/2021 5:15:00 PM -0.05 31.91 0.342 8.23 5.59 14.03
2/21/2021 5:30:00 PM -0.06 31.892 0.342 8.22 5.41 14.01
2/21/2021 5:45:00 PM -0.07 31.874 0.342 8.22 5.46 14.01
2/21/2021 6:00:00 PM -0.07 31.874 0.342 8.22 5.46 14.01
2/21/2021 6:15:00 PM -0.08 31.856 0.343 8.22 5.63 14
2/21/2021 6:30:00 PM -0.07 31.874 0.343 8.22 5.54 14
2/21/2021 6:45:00 PM -0.07 31.874 0.344 8.21 5.48 14.01
2/21/2021 7:00:00 PM -0.07 31.874 0.344 8.21 5.67 14.01
2/21/2021 7:15:00 PM -0.07 31.874 0.344 8.21 5.83 14.02
2/21/2021 7:30:00 PM -0.07 31.874 0.345 8.21 5.76 14.01
2/21/2021 7:45:00 PM -0.07 31.874 0.345 8.21 5.95 14.02
2/21/2021 8:00:00 PM -0.07 31.874 0.346 8.2 5.58 14.04
2/21/2021 8:15:00 PM -0.06 31.892 0.346 8.2 5.74 14.05
2/21/2021 8:30:00 PM -0.07 31.874 0.347 8.2 5.87 14.07
2/21/2021 8:45:00 PM -0.07 31.874 0.347 8.21 5.99 14.09
2/21/2021 9:00:00 PM -0.06 31.892 0.347 8.21 7.01 14.11
2/21/2021 9:15:00 PM -0.06 31.892 0.348 8.21 6.09 14.11
2/21/2021 9:30:00 PM -0.06 31.892 0.348 8.21 5.7 14.13
2/21/2021 9:45:00 PM -0.06 31.892 0.349 8.21 5.85 14.13
2/21/2021 10:00:00 PM -0.06 31.892 0.349 8.2 7.02 14.15
2/21/2021 10:15:00 PM -0.06 31.892 0.35 8.2 6.03 14.15
2/21/2021 10:30:00 PM -0.06 31.892 0.35 8.2 5.84 14.16
2/21/2021 10:45:00 PM -0.06 31.892 0.351 8.2 5.46 14.15
2/21/2021 11:00:00 PM -0.06 31.892 0.351 8.2 5.67 14.15
2/21/2021 11:15:00 PM -0.06 31.892 0.352 8.2 5.66 14.15
2/21/2021 11:30:00 PM -0.06 31.892 0.352 8.19 6.07 14.13
2/21/2021 11:45:00 PM -0.06 31.892 0.353 8.19 5.52 14.12
2/22/2021 12:00:00 AM -0.06 31.892 0.353 8.19 5.48 14.12
2/22/2021 12:15:00 AM -0.06 31.892 0.353 8.19 5.4 14.1
2/22/2021 12:30:00 AM -0.06 31.892 0.353 8.19 5.32 14.09
2/22/2021 12:45:00 AM -0.06 31.892 0.353 8.19 5.73 14.09
2/22/2021 1:00:00 AM -0.06 31.892 0.353 8.19 5.6 14.08
2/22/2021 1:15:00 AM -0.06 31.892 0.353 8.19 5.49 14.07
2/22/2021 1:30:00 AM -0.06 31.892 0.353 8.19 5.37 14.06
2/22/2021 1:45:00 AM -0.06 31.892 0.353 8.19 5.15 14.05
2/22/2021 2:00:00 AM -0.06 31.892 0.353 8.18 5.13 14.04
2/22/2021 2:15:00 AM -0.06 31.892 0.353 8.19 5.16 14.03
2/22/2021 2:30:00 AM -0.06 31.892 0.353 8.18 5.03 14.02
2/22/2021 2:45:00 AM -0.06 31.892 0.353 8.18 5.37 14
2/22/2021 3:00:00 AM -0.06 31.892 0.353 8.18 5.28 14
2/22/2021 3:15:00 AM -0.06 31.892 0.353 8.18 5.11 13.98
2/22/2021 3:30:00 AM -0.06 31.892 0.353 8.17 5.4 13.97
2/22/2021 3:45:00 AM -0.06 31.892 0.352 8.17 5.17 13.95
2/22/2021 4:00:00 AM -0.06 31.892 0.352 8.17 5.55 13.95
2/22/2021 4:15:00 AM -0.06 31.892 0.352 8.17 5.61 13.93
2/22/2021 4:30:00 AM -0.06 31.892 0.351 8.17 5.3 13.91
2/22/2021 4:45:00 AM -0.06 31.892 0.351 8.17 5.32 13.9
2/22/2021 5:00:00 AM -0.06 31.892 0.351 8.17 5.3 13.89
2/22/2021 5:15:00 AM -0.06 31.892 0.35 8.17 5.63 13.88
2/22/2021 5:30:00 AM -0.06 31.892 0.35 8.16 5.65 13.87
2/22/2021 5:45:00 AM -0.06 31.892 0.35 8.17 5.41 13.87
2/22/2021 6:00:00 AM -0.06 31.892 0.349 8.16 5.31 13.85
2/22/2021 6:15:00 AM -0.06 31.892 0.349 8.16 5.53 13.84
2/22/2021 6:30:00 AM -0.06 31.892 0.349 8.16 5.38 13.83
2/22/2021 6:45:00 AM -0.06 31.892 0.348 8.16 5.66 13.83
2/22/2021 7:00:00 AM -0.06 31.892 0.348 8.16 5.44 13.82
2/22/2021 7:15:00 AM -0.06 31.892 0.348 8.16 5.46 13.81
2/22/2021 7:30:00 AM -0.06 31.892 0.347 8.16 5.39 13.81
2/22/2021 7:45:00 AM -0.06 31.892 0.347 8.16 5.38 13.81
2/22/2021 8:00:00 AM -0.06 31.892 0.347 8.16 5.4 13.83
2/22/2021 8:15:00 AM -0.06 31.892 0.348 8.16 5.46 13.83
2/22/2021 8:30:00 AM -0.06 31.892 0.348 8.16 5.51 13.83
2/22/2021 8:45:00 AM -0.06 31.892 0.349 8.16 5.6 13.83
2/22/2021 9:00:00 AM -0.06 31.892 0.35 8.16 5.24 13.83
2/22/2021 9:15:00 AM -0.06 31.892 0.35 8.17 5.37 13.84
2/22/2021 9:30:00 AM -0.06 31.892 0.35 8.17 5.36 13.84
2/22/2021 9:45:00 AM -0.06 31.892 0.35 8.17 5.4 13.85
2/22/2021 10:00:00 AM -0.06 31.892 0.35 8.17 5.17 13.84
2/22/2021 10:15:00 AM -0.06 31.892 0.349 8.17 5.25 13.85
2/22/2021 10:30:00 AM -0.06 31.892 0.349 8.17 5.35 13.86
2/22/2021 10:45:00 AM -0.06 31.892 0.349 8.16 5.38 13.86
2/22/2021 11:00:00 AM -0.06 31.892 0.349 8.18 5.21 13.87
2/22/2021 11:15:00 AM -0.06 31.892 0.349 8.17 5.31 13.86
2/22/2021 11:30:00 AM -0.06 31.892 0.349 8.18 5.33 13.86
2/22/2021 11:45:00 AM -0.06 31.892 0.349 8.18 5.13 13.87
2/22/2021 12:00:00 PM -0.06 31.892 0.35 8.18 5.02 13.87
2/22/2021 12:15:00 PM -0.06 31.892 0.35 8.18 5.5 13.87
2/22/2021 12:30:00 PM -0.06 31.892 0.349 8.17 5.46 13.87
2/22/2021 12:45:00 PM -0.06 31.892 0.35 8.18 5.22 13.86
2/22/2021 1:00:00 PM -0.06 31.892 0.35 8.18 5.23 13.85
2/22/2021 1:15:00 PM -0.06 31.892 0.349 8.18 5.29 13.85
2/22/2021 1:30:00 PM -0.06 31.892 0.348 8.18 5.4 13.85
2/22/2021 1:45:00 PM -0.06 31.892 0.348 8.18 5.4 13.84
2/22/2021 2:00:00 PM -0.06 31.892 0.347 8.18 5.33 13.84
2/22/2021 2:15:00 PM -0.06 31.892 0.347 8.18 5.24 13.84
2/22/2021 2:30:00 PM -0.06 31.892 0.347 8.17 5.46 13.82
2/22/2021 2:45:00 PM -0.06 31.892 0.347 8.17 5.52 13.82
2/22/2021 3:00:00 PM -0.06 31.892 0.346 8.17 5.49 13.81
2/22/2021 3:15:00 PM -0.06 31.892 0.346 8.17 5.29 13.8
2/22/2021 3:30:00 PM -0.06 31.892 0.346 8.17 5.44 13.79
2/22/2021 3:45:00 PM -0.06 31.892 0.346 8.17 5.79 13.76
2/22/2021 4:00:00 PM -0.06 31.892 0.346 8.17 5.62 13.75
2/22/2021 4:15:00 PM -0.06 31.892 0.346 8.17 5.66 13.73
2/22/2021 4:30:00 PM -0.06 31.892 0.346 8.16 5.78 13.72
2/22/2021 4:45:00 PM -0.06 31.892 0.346 8.16 5.56 13.71
2/22/2021 5:00:00 PM -0.06 31.892 0.346 8.16 5.62 13.7
2/22/2021 5:15:00 PM -0.06 31.892 0.346 8.16 5.54 13.68
2/22/2021 5:30:00 PM -0.06 31.892 0.346 8.16 5.58 13.65
2/22/2021 5:45:00 PM -0.06 31.892 0.346 8.16 5.81 13.63
2/22/2021 6:00:00 PM -0.06 31.892 0.346 8.15 5.88 13.61
2/22/2021 6:15:00 PM -0.06 31.892 0.346 8.15 5.97 13.6
2/22/2021 6:30:00 PM -0.06 31.892 0.346 8.15 5.98 13.6
2/22/2021 6:45:00 PM -0.06 31.892 0.345 8.15 5.95 13.58
2/22/2021 7:00:00 PM -0.06 31.892 0.345 8.15 5.93 13.57
2/22/2021 7:15:00 PM -0.06 31.892 0.345 8.15 5.86 13.57
2/22/2021 7:30:00 PM -0.06 31.892 0.345 8.15 5.76 13.56
2/22/2021 7:45:00 PM -0.06 31.892 0.345 8.15 5.75 13.55
2/22/2021 8:00:00 PM -0.06 31.892 0.345 8.15 5.92 13.54
2/22/2021 8:15:00 PM -0.06 31.892 0.345 8.15 5.97 13.53
2/22/2021 8:30:00 PM -0.06 31.892 0.344 8.14 5.86 13.53
2/22/2021 8:45:00 PM -0.06 31.892 0.344 8.14 5.68 13.52
2/22/2021 9:00:00 PM -0.06 31.892 0.344 8.14 5.8 13.52
2/22/2021 9:15:00 PM -0.06 31.892 0.344 8.14 6 13.51
2/22/2021 9:30:00 PM -0.06 31.892 0.344 8.13 6.11 13.5
2/22/2021 9:45:00 PM -0.06 31.892 0.345 8.14 5.77 13.5
2/22/2021 10:00:00 PM -0.06 31.892 0.347 8.14 6.14 13.5
2/22/2021 10:15:00 PM -0.06 31.892 0.347 8.14 6.31 13.5
2/22/2021 10:30:00 PM -0.06 31.892 0.347 8.14 6.08 13.49
2/22/2021 10:45:00 PM -0.06 31.892 0.346 8.14 5.87 13.5
2/22/2021 11:00:00 PM -0.06 31.892 0.345 8.14 5.97 13.49
2/22/2021 11:15:00 PM -0.06 31.892 0.344 8.14 5.89 13.49
2/22/2021 11:30:00 PM -0.06 31.892 0.343 8.14 6.16 13.49
2/22/2021 11:45:00 PM -0.06 31.892 0.343 8.14 5.9 13.49
2/23/2021 12:00:00 AM -0.06 31.892 0.343 8.14 5.82 13.49
2/23/2021 12:15:00 AM -0.06 31.892 0.342 8.14 5.79 13.5
2/23/2021 12:30:00 AM -0.06 31.892 0.342 8.14 5.91 13.49
2/23/2021 12:45:00 AM -0.06 31.892 0.342 8.15 5.86 13.5
2/23/2021 1:00:00 AM -0.06 31.892 0.342 8.15 5.83 13.51
2/23/2021 1:15:00 AM -0.06 31.892 0.341 8.15 6.11 13.51
2/23/2021 1:30:00 AM -0.06 31.892 0.341 8.15 5.74 13.51
2/23/2021 1:45:00 AM -0.06 31.892 0.341 8.15 5.84 13.52
2/23/2021 2:00:00 AM -0.06 31.892 0.341 8.15 5.69 13.51
2/23/2021 2:15:00 AM -0.06 31.892 0.341 8.15 5.63 13.52
2/23/2021 2:30:00 AM -0.05 31.91 0.341 8.15 5.94 13.52
2/23/2021 2:45:00 AM -0.05 31.91 0.341 8.15 5.87 13.52
2/23/2021 3:00:00 AM -0.05 31.91 0.34 8.15 5.77 13.53
2/23/2021 3:15:00 AM -0.05 31.91 0.34 8.15 5.55 13.53
2/23/2021 3:30:00 AM -0.05 31.91 0.34 8.15 5.61 13.54
2/23/2021 3:45:00 AM -0.05 31.91 0.34 8.15 5.74 13.53
2/23/2021 4:00:00 AM -0.05 31.91 0.34 8.15 5.79 13.54
2/23/2021 4:15:00 AM -0.05 31.91 0.34 8.15 6.22 13.53
2/23/2021 4:30:00 AM -0.05 31.91 0.34 8.15 5.65 13.53
2/23/2021 4:45:00 AM -0.05 31.91 0.34 8.15 5.68 13.55
2/23/2021 5:00:00 AM -0.05 31.91 0.339 8.15 5.8 13.54
2/23/2021 5:15:00 AM -0.05 31.91 0.339 8.15 5.52 13.55
2/23/2021 5:30:00 AM -0.05 31.91 0.339 8.16 5.58 13.55
2/23/2021 5:45:00 AM -0.05 31.91 0.339 8.16 5.45 13.55
2/23/2021 6:00:00 AM -0.06 31.892 0.339 8.16 5.69 13.55
2/23/2021 6:15:00 AM -0.06 31.892 0.339 8.16 5.74 13.56
2/23/2021 6:30:00 AM -0.06 31.892 0.34 8.16 5.8 13.56
2/23/2021 6:45:00 AM -0.06 31.892 0.34 8.16 5.58 13.56
2/23/2021 7:00:00 AM -0.06 31.892 0.34 8.16 5.75 13.57
2/23/2021 7:15:00 AM -0.06 31.892 0.34 8.16 5.5 13.58
2/23/2021 7:30:00 AM -0.06 31.892 0.34 8.16 5.42 13.6
2/23/2021 7:45:00 AM -0.05 31.91 0.34 8.17 5.64 13.62
2/23/2021 8:00:00 AM -0.05 31.91 0.34 8.17 5.29 13.63
2/23/2021 8:15:00 AM -0.04 31.928 0.34 8.17 5.29 13.65
2/23/2021 8:30:00 AM -0.03 31.946 0.34 8.18 5.47 13.67
2/23/2021 8:45:00 AM -0.03 31.946 0.339 8.18 5.61 13.68
2/23/2021 9:00:00 AM -0.02 31.964 0.339 8.18 5.53 13.7
2/23/2021 9:15:00 AM -0.01 31.982 0.339 8.19 5.65 13.7
2/23/2021 9:30:00 AM 0 32 0.339 8.19 5.32 13.71
2/23/2021 9:45:00 AM 0 32 0.339 8.19 5.36 13.72
2/23/2021 10:00:00 AM 0.01 32.018 0.339 8.19 5.5 13.72
2/23/2021 10:15:00 AM 0.01 32.018 0.339 8.19 5.44 13.72
2/23/2021 10:30:00 AM 0 32 0.339 8.2 5.68 13.72
2/23/2021 10:45:00 AM 0 32 0.338 8.2 5.49 13.73
2/23/2021 11:00:00 AM -0.01 31.982 0.338 8.2 5.49 13.75
2/23/2021 11:15:00 AM -0.01 31.982 0.339 8.21 5.56 13.75
2/23/2021 11:30:00 AM 0 32 0.34 8.21 5.64 13.74
2/23/2021 11:45:00 AM 0.02 32.036 0.34 8.21 6.04 13.75
2/23/2021 12:00:00 PM 0.03 32.054 0.339 8.22 5.92 13.74
2/23/2021 12:15:00 PM 0.03 32.054 0.338 8.22 5.7 13.76
2/23/2021 12:30:00 PM 0.03 32.054 0.338 8.22 5.6 13.75
2/23/2021 12:45:00 PM 0.02 32.036 0.337 8.22 5.49 13.74
2/23/2021 1:00:00 PM 0.01 32.018 0.337 8.23 5.43 13.75
2/23/2021 1:15:00 PM 0.02 32.036 0.336 8.23 5.63 13.75
2/23/2021 1:30:00 PM 0.03 32.054 0.336 8.23 5.75 13.74
2/23/2021 1:45:00 PM 0.03 32.054 0.336 8.23 5.57 13.74
2/23/2021 2:00:00 PM 0.04 32.072 0.335 8.23 5.68 13.74
2/23/2021 2:15:00 PM 0.03 32.054 0.335 8.23 5.82 13.74
2/23/2021 2:30:00 PM 0.02 32.036 0.335 8.24 5.91 13.74
2/23/2021 2:45:00 PM 0 32 0.335 8.24 5.38 13.73
2/23/2021 3:00:00 PM 0 32 0.335 8.24 5.46 13.72
2/23/2021 3:15:00 PM 0.01 32.018 0.335 8.24 5.39 13.72
2/23/2021 3:30:00 PM 0.01 32.018 0.334 8.24 5.66 13.71
2/23/2021 3:45:00 PM 0 32 0.334 8.24 5.82 13.71
2/23/2021 4:00:00 PM 0 32 0.334 8.24 5.65 13.71
2/23/2021 4:15:00 PM 0 32 0.335 8.24 5.6 13.7
2/23/2021 4:30:00 PM -0.01 31.982 0.335 8.23 5.53 13.69
2/23/2021 4:45:00 PM -0.01 31.982 0.335 8.23 5.49 13.67
2/23/2021 5:00:00 PM -0.01 31.982 0.335 8.23 5.71 13.65
2/23/2021 5:15:00 PM -0.01 31.982 0.335 8.23 5.61 13.64
2/23/2021 5:30:00 PM -0.01 31.982 0.335 8.23 5.64 13.65
2/23/2021 5:45:00 PM -0.01 31.982 0.335 8.22 5.66 13.65
2/23/2021 6:00:00 PM -0.01 31.982 0.335 8.22 5.82 13.64
2/23/2021 6:15:00 PM -0.01 31.982 0.335 8.22 5.84 13.63
2/23/2021 6:30:00 PM -0.01 31.982 0.336 8.22 5.87 13.63
2/23/2021 6:45:00 PM -0.01 31.982 0.336 8.22 5.79 13.62
2/23/2021 7:00:00 PM -0.01 31.982 0.336 8.21 6.25 13.63
2/23/2021 7:15:00 PM -0.01 31.982 0.336 8.21 6.25 13.63
2/23/2021 7:30:00 PM -0.01 31.982 0.336 8.21 6.28 13.64
2/23/2021 7:45:00 PM -0.01 31.982 0.337 8.21 6.36 13.63
2/23/2021 8:00:00 PM -0.01 31.982 0.337 8.21 6.06 13.63
2/23/2021 8:15:00 PM 0 32 0.337 8.21 6.11 13.63
2/23/2021 8:30:00 PM 0 32 0.337 8.21 5.92 13.63
2/23/2021 8:45:00 PM 0 32 0.337 8.21 5.93 13.65
2/23/2021 9:00:00 PM 0 32 0.337 8.21 5.68 13.64
2/23/2021 9:15:00 PM 0 32 0.338 8.21 5.56 13.65
2/23/2021 9:30:00 PM 0 32 0.338 8.21 6.11 13.66
2/23/2021 9:45:00 PM -0.01 31.982 0.338 8.21 5.96 13.67
2/23/2021 10:00:00 PM -0.01 31.982 0.338 8.2 5.95 13.67
2/23/2021 10:15:00 PM -0.01 31.982 0.338 8.21 5.76 13.67
2/23/2021 10:30:00 PM -0.01 31.982 0.338 8.21 5.78 13.66
2/23/2021 10:45:00 PM -0.01 31.982 0.338 8.2 5.97 13.68
2/23/2021 11:00:00 PM -0.01 31.982 0.338 8.2 5.93 13.68
2/23/2021 11:15:00 PM -0.01 31.982 0.338 8.2 5.89 13.68
2/23/2021 11:30:00 PM -0.01 31.982 0.338 8.2 5.9 13.68
2/23/2021 11:45:00 PM -0.01 31.982 0.338 8.2 5.96 13.69
2/24/2021 12:00:00 AM -0.01 31.982 0.338 8.2 5.94 13.69
2/24/2021 12:15:00 AM -0.01 31.982 0.338 8.21 5.97 13.68
2/24/2021 12:30:00 AM -0.01 31.982 0.338 8.21 5.67 13.7
2/24/2021 12:45:00 AM 0 32 0.338 8.21 5.8 13.69
2/24/2021 1:00:00 AM 0 32 0.338 8.21 5.8 13.71
2/24/2021 1:15:00 AM 0 32 0.338 8.2 5.74 13.71
2/24/2021 1:30:00 AM 0 32 0.338 8.2 5.67 13.71
2/24/2021 1:45:00 AM 0 32 0.338 8.2 5.89 13.71
2/24/2021 2:00:00 AM 0 32 0.338 8.21 5.98 13.71
2/24/2021 2:15:00 AM 0 32 0.338 8.21 5.8 13.72
2/24/2021 2:30:00 AM -0.01 31.982 0.338 8.21 5.65 13.73
2/24/2021 2:45:00 AM -0.02 31.964 0.338 8.21 5.69 13.74
2/24/2021 3:00:00 AM -0.02 31.964 0.338 8.21 5.97 13.73
2/24/2021 3:15:00 AM -0.03 31.946 0.338 8.21 5.84 13.74
2/24/2021 3:30:00 AM -0.03 31.946 0.338 8.21 5.92 13.75
2/24/2021 3:45:00 AM -0.03 31.946 0.338 8.2 6.18 13.74
2/24/2021 4:00:00 AM -0.04 31.928 0.339 8.2 5.94 13.74
2/24/2021 4:15:00 AM -0.04 31.928 0.339 8.2 5.93 13.75
2/24/2021 4:30:00 AM -0.04 31.928 0.339 8.2 5.87 13.76
2/24/2021 4:45:00 AM -0.04 31.928 0.339 8.2 5.76 13.76
2/24/2021 5:00:00 AM -0.04 31.928 0.34 8.2 5.95 13.77
2/24/2021 5:15:00 AM -0.05 31.91 0.34 8.2 5.6 13.78
2/24/2021 5:30:00 AM -0.05 31.91 0.34 8.2 5.55 13.78
2/24/2021 5:45:00 AM -0.05 31.91 0.34 8.2 5.59 13.79
2/24/2021 6:00:00 AM -0.05 31.91 0.34 8.2 5.67 13.81
2/24/2021 6:15:00 AM -0.06 31.892 0.341 8.2 5.8 13.8
2/24/2021 6:30:00 AM -0.06 31.892 0.341 8.2 5.82 13.81
2/24/2021 6:45:00 AM -0.06 31.892 0.341 8.2 5.88 13.82
2/24/2021 7:00:00 AM -0.06 31.892 0.342 8.2 5.78 13.84
2/24/2021 7:15:00 AM -0.06 31.892 0.342 8.2 5.77 13.85
2/24/2021 7:30:00 AM -0.06 31.892 0.342 8.2 5.84 13.88
2/24/2021 7:45:00 AM -0.06 31.892 0.342 8.21 6.1 13.9
2/24/2021 8:00:00 AM -0.05 31.91 0.343 8.21 5.64 13.93
2/24/2021 8:15:00 AM -0.03 31.946 0.343 8.21 5.73 13.94
2/24/2021 8:30:00 AM 0 32 0.343 8.22 5.71 13.97
2/24/2021 8:45:00 AM 0.02 32.036 0.343 8.22 5.78 13.98
2/24/2021 9:00:00 AM 0.03 32.054 0.343 8.22 5.6 13.99
2/24/2021 9:15:00 AM 0.03 32.054 0.343 8.22 5.8 13.99
2/24/2021 9:30:00 AM 0.04 32.072 0.342 8.22 5.82 14
2/24/2021 9:45:00 AM 0.05 32.09 0.342 8.22 5.78 14
2/24/2021 10:00:00 AM 0.06 32.108 0.342 8.23 5.76 14.02
2/24/2021 10:15:00 AM 0.09 32.162 0.341 8.23 5.83 14.01
2/24/2021 10:30:00 AM 0.12 32.216 0.341 8.24 5.73 14.03
2/24/2021 10:45:00 AM 0.14 32.252 0.34 8.24 5.63 14.01
2/24/2021 11:00:00 AM 0.14 32.252 0.34 8.24 5.55 14.01
2/24/2021 11:15:00 AM 0.15 32.27 0.34 8.25 5.68 14.01
2/24/2021 11:30:00 AM 0.17 32.306 0.339 8.25 6.58 14
2/24/2021 11:45:00 AM 0.19 32.342 0.339 8.25 5.74 14.01
2/24/2021 12:00:00 PM 0.22 32.396 0.338 8.26 5.77 13.99
2/24/2021 12:15:00 PM 0.24 32.432 0.338 8.26 5.87 13.97
2/24/2021 12:30:00 PM 0.24 32.432 0.337 8.26 5.57 13.96
2/24/2021 12:45:00 PM 0.23 32.414 0.337 8.27 5.9 13.94
2/24/2021 1:00:00 PM 0.21 32.378 0.336 8.27 5.85 13.9
2/24/2021 1:15:00 PM 0.19 32.342 0.336 8.27 6.28 13.89
2/24/2021 1:30:00 PM 0.2 32.36 0.336 8.27 5.79 13.87
2/24/2021 1:45:00 PM 0.2 32.36 0.335 8.27 5.99 13.84
2/24/2021 2:00:00 PM 0.22 32.396 0.335 8.27 6 13.82
2/24/2021 2:15:00 PM 0.22 32.396 0.334 8.27 6.28 13.79
2/24/2021 2:30:00 PM 0.22 32.396 0.334 8.28 6.18 13.78
2/24/2021 2:45:00 PM 0.2 32.36 0.333 8.28 6.16 13.76
2/24/2021 3:00:00 PM 0.17 32.306 0.333 8.28 6.07 13.72
2/24/2021 3:15:00 PM 0.14 32.252 0.332 8.28 6.16 13.7
2/24/2021 3:30:00 PM 0.12 32.216 0.332 8.28 6.14 13.68
2/24/2021 3:45:00 PM 0.13 32.234 0.332 8.28 6.17 13.68
2/24/2021 4:00:00 PM 0.13 32.234 0.332 8.28 6.4 13.66
2/24/2021 4:15:00 PM 0.13 32.234 0.332 8.28 6.61 13.65
2/24/2021 4:30:00 PM 0.12 32.216 0.332 8.28 6.16 13.62
2/24/2021 4:45:00 PM 0.1 32.18 0.332 8.27 6.63 13.61
2/24/2021 5:00:00 PM 0.1 32.18 0.332 8.27 6.38 13.59
2/24/2021 5:15:00 PM 0.1 32.18 0.332 8.27 6.68 13.57
2/24/2021 5:30:00 PM 0.08 32.144 0.333 8.27 7.58 13.54
2/24/2021 5:45:00 PM 0.07 32.126 0.333 8.26 6.85 13.52
2/24/2021 6:00:00 PM 0.05 32.09 0.333 8.26 6.8 13.52
2/24/2021 6:15:00 PM 0.05 32.09 0.333 8.25 6.8 13.5
2/24/2021 6:30:00 PM 0.05 32.09 0.334 8.25 6.92 13.49
2/24/2021 6:45:00 PM 0.05 32.09 0.334 8.25 7.25 13.5
2/24/2021 7:00:00 PM 0.05 32.09 0.334 8.25 7.09 13.49
2/24/2021 7:15:00 PM 0.06 32.108 0.334 8.25 7.18 13.5
2/24/2021 7:30:00 PM 0.06 32.108 0.334 8.24 7.09 13.49
2/24/2021 7:45:00 PM 0.06 32.108 0.334 8.24 7.13 13.51
2/24/2021 8:00:00 PM 0.05 32.09 0.334 8.24 7.46 13.51
2/24/2021 8:15:00 PM 0.05 32.09 0.334 8.24 9.2 13.51
2/24/2021 8:30:00 PM 0.05 32.09 0.334 8.24 7.33 13.52
2/24/2021 8:45:00 PM 0.04 32.072 0.334 8.23 7.22 13.51
2/24/2021 9:00:00 PM 0.04 32.072 0.334 8.23 9.55 13.52
2/24/2021 9:15:00 PM 0.05 32.09 0.334 8.23 7.73 13.53
2/24/2021 9:30:00 PM 0.05 32.09 0.334 8.23 7.61 13.54
2/24/2021 9:45:00 PM 0.05 32.09 0.334 8.23 7.54 13.55
2/24/2021 10:00:00 PM 0.05 32.09 0.334 8.22 7.95 13.55
2/24/2021 10:15:00 PM 0.05 32.09 0.333 8.22 7.54 13.57
2/24/2021 10:30:00 PM 0.04 32.072 0.333 8.22 7.66 13.57
2/24/2021 10:45:00 PM 0.03 32.054 0.333 8.22 7.55 13.58
2/24/2021 11:00:00 PM 0.03 32.054 0.332 8.22 7.65 13.58
2/24/2021 11:15:00 PM 0.03 32.054 0.332 8.22 8.11 13.59
2/24/2021 11:30:00 PM 0.04 32.072 0.332 8.22 7.45 13.6
2/24/2021 11:45:00 PM 0.04 32.072 0.331 8.22 7.39 13.61
2/25/2021 12:00:00 AM 0.03 32.054 0.331 8.22 7.65 13.62
2/25/2021 12:15:00 AM 0.03 32.054 0.331 8.22 7.86 13.61
2/25/2021 12:30:00 AM 0.03 32.054 0.33 8.22 7.45 13.62
2/25/2021 12:45:00 AM 0.03 32.054 0.33 8.22 7.76 13.64
2/25/2021 1:00:00 AM 0.02 32.036 0.33 8.22 8.03 13.64
2/25/2021 1:15:00 AM 0.02 32.036 0.329 8.21 7.73 13.64
2/25/2021 1:30:00 AM 0.01 32.018 0.329 8.22 7.52 13.65
2/25/2021 1:45:00 AM 0 32 0.329 8.21 7.94 13.66
2/25/2021 2:00:00 AM 0 32 0.329 8.22 8.36 13.66
2/25/2021 2:15:00 AM 0 32 0.328 8.21 8.07 13.68
2/25/2021 2:30:00 AM 0 32 0.328 8.21 7.94 13.69
2/25/2021 2:45:00 AM 0 32 0.328 8.21 7.77 13.69
2/25/2021 3:00:00 AM 0 32 0.328 8.21 7.81 13.7
2/25/2021 3:15:00 AM -0.01 31.982 0.328 8.21 7.91 13.71
2/25/2021 3:30:00 AM -0.01 31.982 0.328 8.21 8.14 13.72
2/25/2021 3:45:00 AM -0.01 31.982 0.327 8.21 8.41 13.72
2/25/2021 4:00:00 AM -0.01 31.982 0.327 8.21 8.3 13.74
2/25/2021 4:15:00 AM -0.01 31.982 0.327 8.21 8.01 13.75
2/25/2021 4:30:00 AM -0.01 31.982 0.327 8.21 7.6 13.75
2/25/2021 4:45:00 AM -0.01 31.982 0.327 8.21 7.64 13.76
2/25/2021 5:00:00 AM -0.01 31.982 0.327 8.21 7.92 13.78
2/25/2021 5:15:00 AM -0.02 31.964 0.327 8.21 8.07 13.78
2/25/2021 5:30:00 AM -0.02 31.964 0.326 8.2 8.5 13.79
2/25/2021 5:45:00 AM -0.02 31.964 0.326 8.2 8.13 13.78
2/25/2021 6:00:00 AM -0.02 31.964 0.326 8.2 8.55 13.8
2/25/2021 6:15:00 AM -0.03 31.946 0.326 8.2 8.71 13.8
2/25/2021 6:30:00 AM -0.03 31.946 0.326 8.2 7.7 13.8
2/25/2021 6:45:00 AM -0.03 31.946 0.325 8.2 8.43 13.82
2/25/2021 7:00:00 AM -0.04 31.928 0.325 8.2 8.03 13.83
2/25/2021 7:15:00 AM -0.03 31.946 0.325 8.2 8.16 13.85
2/25/2021 7:30:00 AM -0.03 31.946 0.325 8.2 8.12 13.86
2/25/2021 7:45:00 AM -0.02 31.964 0.324 8.2 9 13.88
2/25/2021 8:00:00 AM -0.02 31.964 0.324 8.2 8.21 13.89
2/25/2021 8:15:00 AM -0.01 31.982 0.324 8.21 8.22 13.92
2/25/2021 8:30:00 AM 0 32 0.324 8.21 7.92 13.94
2/25/2021 8:45:00 AM 0.02 32.036 0.323 8.21 12.94 13.96
2/25/2021 9:00:00 AM 0.03 32.054 0.323 8.21 11.27 13.98
2/25/2021 9:15:00 AM 0.04 32.072 0.323 8.22 8.15 14
2/25/2021 9:30:00 AM 0.05 32.09 0.323 8.22 8.25 14.02
2/25/2021 9:45:00 AM 0.08 32.144 0.322 8.22 9.23 14.01
2/25/2021 10:00:00 AM 0.09 32.162 0.322 8.22 8.6 14.03
2/25/2021 10:15:00 AM 0.06 32.108 0.322 8.22 8.2 14.03
2/25/2021 10:30:00 AM 0.07 32.126 0.321 8.23 8.48 14.02
2/25/2021 10:45:00 AM 0.08 32.144 0.321 8.23 8.28 14.03
2/25/2021 11:00:00 AM 0.07 32.126 0.321 8.23 11.73 14.03
2/25/2021 11:15:00 AM 0.1 32.18 0.32 8.24 8.88 14.02
2/25/2021 11:30:00 AM 0.15 32.27 0.32 8.24 9.96 14.02
2/25/2021 11:45:00 AM 0.17 32.306 0.319 8.24 8.33 14.01
2/25/2021 12:00:00 PM 0.17 32.306 0.319 8.24 8.55 14
2/25/2021 12:15:00 PM 0.18 32.324 0.318 8.24 8.57 13.99
2/25/2021 12:30:00 PM 0.21 32.378 0.318 8.24 8.86 13.98
2/25/2021 12:45:00 PM 0.27 32.486 0.317 8.24 9.44 13.96
2/25/2021 1:00:00 PM 0.28 32.504 0.317 8.25 9.4 13.95
2/25/2021 1:15:00 PM 0.21 32.378 0.317 8.25 9.3 13.94
2/25/2021 1:30:00 PM 0.2 32.36 0.316 8.24 9.57 13.93
2/25/2021 1:45:00 PM 0.21 32.378 0.316 8.25 9.85 13.92
2/25/2021 2:00:00 PM 0.25 32.45 0.316 8.24 9.68 13.9
2/25/2021 2:15:00 PM 0.21 32.378 0.315 8.25 10.16 13.89
2/25/2021 2:30:00 PM 0.2 32.36 0.315 8.24 9.44 13.87
2/25/2021 2:45:00 PM 0.21 32.378 0.315 8.25 9.88 13.88
2/25/2021 3:00:00 PM 0.21 32.378 0.314 8.25 10.15 13.85
2/25/2021 3:15:00 PM 0.21 32.378 0.314 8.25 10.1 13.83
2/25/2021 3:30:00 PM 0.21 32.378 0.313 8.25 9.35 13.82
2/25/2021 3:45:00 PM 0.19 32.342 0.313 8.25 10.02 13.81
2/25/2021 4:00:00 PM 0.14 32.252 0.314 8.25 10.62 13.8
2/25/2021 4:15:00 PM 0.11 32.198 0.314 8.25 9.85 13.79
2/25/2021 4:30:00 PM 0.09 32.162 0.314 8.24 10.8 13.77
2/25/2021 4:45:00 PM 0.07 32.126 0.314 8.24 10.59 13.78
2/25/2021 5:00:00 PM 0.06 32.108 0.315 8.24 10.52 13.77
2/25/2021 5:15:00 PM 0.04 32.072 0.315 8.24 10.18 13.78
2/25/2021 5:30:00 PM 0.04 32.072 0.315 8.24 10.39 13.79
2/25/2021 5:45:00 PM 0.03 32.054 0.316 8.24 9.62 13.79
2/25/2021 6:00:00 PM 0.02 32.036 0.316 8.23 9.57 13.81
2/25/2021 6:15:00 PM 0.01 32.018 0.316 8.23 8.52 13.82
2/25/2021 6:30:00 PM 0 32 0.317 8.23 11.06 13.84
2/25/2021 6:45:00 PM 0 32 0.317 8.22 9.99 13.84
2/25/2021 7:00:00 PM -0.01 31.982 0.317 8.22 10.32 13.86
2/25/2021 7:15:00 PM -0.02 31.964 0.317 8.22 10.37 13.88
2/25/2021 7:30:00 PM -0.03 31.946 0.318 8.22 10.17 13.92
2/25/2021 7:45:00 PM -0.04 31.928 0.318 8.22 9.18 13.93
2/25/2021 8:00:00 PM -0.05 31.91 0.319 8.22 9.28 13.97
2/25/2021 8:15:00 PM -0.06 31.892 0.319 8.21 9.54 13.98
2/25/2021 8:30:00 PM -0.06 31.892 0.319 8.21 9.15 14
2/25/2021 8:45:00 PM -0.07 31.874 0.32 8.21 8.76 14.04
2/25/2021 9:00:00 PM -0.08 31.856 0.32 8.21 9.25 14.05
2/25/2021 9:15:00 PM -0.08 31.856 0.32 8.21 8.04 14.07
2/25/2021 9:30:00 PM -0.09 31.838 0.321 8.21 8.85 14.09
2/25/2021 9:45:00 PM -0.09 31.838 0.321 8.21 9.12 14.11
2/25/2021 10:00:00 PM -0.09 31.838 0.321 8.21 8.33 14.12
2/25/2021 10:15:00 PM -0.08 31.856 0.322 8.22 8.23 14.14
2/25/2021 10:30:00 PM -0.08 31.856 0.322 8.22 7.87 14.15
2/25/2021 10:45:00 PM -0.07 31.874 0.322 8.22 7.38 14.16
2/25/2021 11:00:00 PM -0.07 31.874 0.323 8.21 7.36 14.17
2/25/2021 11:15:00 PM -0.07 31.874 0.323 8.21 7.21 14.18
2/25/2021 11:30:00 PM -0.07 31.874 0.323 8.21 7.05 14.19
2/25/2021 11:45:00 PM -0.07 31.874 0.324 8.21 7.03 14.19
2/26/2021 12:00:00 AM -0.07 31.874 0.324 8.21 7.02 14.2
2/26/2021 12:15:00 AM -0.07 31.874 0.324 8.21 7.41 14.2
2/26/2021 12:30:00 AM -0.07 31.874 0.325 8.21 7.21 14.21
2/26/2021 12:45:00 AM -0.07 31.874 0.325 8.21 6.78 14.21
2/26/2021 1:00:00 AM -0.07 31.874 0.325 8.21 7.01 14.21
2/26/2021 1:15:00 AM -0.07 31.874 0.325 8.21 6.95 14.22
2/26/2021 1:30:00 AM -0.07 31.874 0.326 8.21 6.93 14.22
2/26/2021 1:45:00 AM -0.07 31.874 0.326 8.21 6.86 14.22
2/26/2021 2:00:00 AM -0.06 31.892 0.326 8.21 6.96 14.21
2/26/2021 2:15:00 AM -0.06 31.892 0.326 8.21 6.79 14.21
2/26/2021 2:30:00 AM -0.06 31.892 0.327 8.21 6.79 14.21
2/26/2021 2:45:00 AM -0.06 31.892 0.327 8.21 6.73 14.22
2/26/2021 3:00:00 AM -0.06 31.892 0.327 8.21 6.76 14.22
2/26/2021 3:15:00 AM -0.06 31.892 0.327 8.21 6.72 14.21
2/26/2021 3:30:00 AM -0.06 31.892 0.327 8.21 6.71 14.22
2/26/2021 3:45:00 AM -0.06 31.892 0.328 8.21 6.9 14.21
2/26/2021 4:00:00 AM -0.06 31.892 0.328 8.21 6.64 14.2
2/26/2021 4:15:00 AM -0.06 31.892 0.328 8.21 6.82 14.21
2/26/2021 4:30:00 AM -0.06 31.892 0.329 8.21 6.75 14.2
2/26/2021 4:45:00 AM -0.06 31.892 0.329 8.2 7.3 14.19
2/26/2021 5:00:00 AM -0.06 31.892 0.329 8.2 6.94 14.19
2/26/2021 5:15:00 AM -0.06 31.892 0.329 8.2 7.04 14.18
2/26/2021 5:30:00 AM -0.06 31.892 0.33 8.2 6.92 14.19
2/26/2021 5:45:00 AM -0.06 31.892 0.33 8.2 6.73 14.19
2/26/2021 6:00:00 AM -0.06 31.892 0.33 8.21 6.72 14.19
2/26/2021 6:15:00 AM -0.06 31.892 0.33 8.2 6.91 14.19
2/26/2021 6:30:00 AM -0.06 31.892 0.331 8.2 6.99 14.19
2/26/2021 6:45:00 AM -0.06 31.892 0.331 8.2 6.83 14.19
2/26/2021 7:00:00 AM -0.06 31.892 0.331 8.2 6.6 14.19
2/26/2021 7:15:00 AM -0.06 31.892 0.331 8.2 6.98 14.2
2/26/2021 7:30:00 AM -0.06 31.892 0.332 8.21 6.93 14.22
2/26/2021 7:45:00 AM -0.06 31.892 0.332 8.21 6.62 14.24
2/26/2021 8:00:00 AM -0.06 31.892 0.332 8.21 6.72 14.26
2/26/2021 8:15:00 AM -0.06 31.892 0.332 8.21 6.5 14.26
2/26/2021 8:30:00 AM -0.06 31.892 0.332 8.21 6.78 14.28
2/26/2021 8:45:00 AM -0.06 31.892 0.332 8.21 6.66 14.29
2/26/2021 9:00:00 AM -0.06 31.892 0.332 8.21 6.78 14.29
2/26/2021 9:15:00 AM -0.06 31.892 0.332 8.21 6.85 14.28
2/26/2021 9:30:00 AM -0.06 31.892 0.332 8.21 7.13 14.28
2/26/2021 9:45:00 AM -0.06 31.892 0.332 8.21 7.1 14.29
2/26/2021 10:00:00 AM -0.06 31.892 0.332 8.21 7.68 14.27
2/26/2021 10:15:00 AM -0.06 31.892 0.331 8.21 7.36 14.26
2/26/2021 10:30:00 AM -0.06 31.892 0.33 8.2 7.1 14.25
2/26/2021 10:45:00 AM -0.06 31.892 0.33 8.2 7.79 14.21
2/26/2021 11:00:00 AM -0.05 31.91 0.329 8.2 8.22 14.19
2/26/2021 11:15:00 AM -0.06 31.892 0.328 8.19 8.66 14.16
2/26/2021 11:30:00 AM -0.05 31.91 0.327 8.19 9.63 14.15
2/26/2021 11:45:00 AM -0.05 31.91 0.326 8.19 12.18 14.12
2/26/2021 12:00:00 PM -0.03 31.946 0.325 8.18 15.15 14.08
2/26/2021 12:15:00 PM -0.01 31.982 0.324 8.17 15.06 14.05
2/26/2021 12:30:00 PM 0 32 0.323 8.17 19.84 14.01
2/26/2021 12:45:00 PM 0.04 32.072 0.322 8.16 15.04 13.99
2/26/2021 1:00:00 PM 0.07 32.126 0.322 8.16 15.46 13.98
2/26/2021 1:15:00 PM 0.1 32.18 0.321 8.16 16.6 13.96
2/26/2021 1:30:00 PM 0.11 32.198 0.321 8.16 21.65 13.95
2/26/2021 1:45:00 PM 0.14 32.252 0.32 8.17 15.38 13.94
2/26/2021 2:00:00 PM 0.15 32.27 0.32 8.17 15.67 13.94
2/26/2021 2:15:00 PM 0.15 32.27 0.32 8.17 18.08 13.93
2/26/2021 2:30:00 PM 0.14 32.252 0.32 8.17 15.25 13.89
2/26/2021 2:45:00 PM 0.13 32.234 0.32 8.18 16.31 13.89
2/26/2021 3:00:00 PM 0.13 32.234 0.32 8.18 14.29 13.86
2/26/2021 3:15:00 PM 0.14 32.252 0.319 8.18 12.56 13.84
2/26/2021 3:30:00 PM 0.14 32.252 0.319 8.18 15.74 13.85
2/26/2021 3:45:00 PM 0.13 32.234 0.318 8.18 21.66 13.85
2/26/2021 4:00:00 PM 0.13 32.234 0.318 8.19 13.07 13.86
2/26/2021 4:15:00 PM 0.14 32.252 0.317 8.19 11.79 13.87
2/26/2021 4:30:00 PM 0.14 32.252 0.316 8.2 10.77 13.89
2/26/2021 4:45:00 PM 0.14 32.252 0.316 8.2 14.21 13.9
2/26/2021 5:00:00 PM 0.13 32.234 0.315 8.2 13.97 13.91
2/26/2021 5:15:00 PM 0.13 32.234 0.315 8.2 13.49 13.91
2/26/2021 5:30:00 PM 0.12 32.216 0.315 8.2 12.22 13.89
2/26/2021 5:45:00 PM 0.11 32.198 0.315 8.2 13.7 13.89
2/26/2021 6:00:00 PM 0.1 32.18 0.315 8.19 13.46 13.9
2/26/2021 6:15:00 PM 0.09 32.162 0.316 8.19 13.19 13.88
2/26/2021 6:30:00 PM 0.08 32.144 0.316 8.19 13.17 13.9
2/26/2021 6:45:00 PM 0.06 32.108 0.317 8.19 12.7 13.89
2/26/2021 7:00:00 PM 0.05 32.09 0.317 8.19 13.6 13.91
2/26/2021 7:15:00 PM 0.05 32.09 0.317 8.19 12.55 13.93
2/26/2021 7:30:00 PM 0.04 32.072 0.317 8.19 12.85 13.94
2/26/2021 7:45:00 PM 0.03 32.054 0.317 8.19 12.1 13.94
2/26/2021 8:00:00 PM 0.01 32.018 0.317 8.18 10.83 13.96
2/26/2021 8:15:00 PM -0.01 31.982 0.317 8.18 16.27 13.98
2/26/2021 8:30:00 PM -0.02 31.964 0.318 8.18 11.96 14
2/26/2021 8:45:00 PM -0.03 31.946 0.318 8.18 10.93 14.01
2/26/2021 9:00:00 PM -0.04 31.928 0.318 8.18 10.03 14.03
2/26/2021 9:15:00 PM -0.06 31.892 0.318 8.18 9.7 14.05
2/26/2021 9:30:00 PM -0.07 31.874 0.319 8.18 9.76 14.07
2/26/2021 9:45:00 PM -0.08 31.856 0.319 8.18 9.62 14.09
2/26/2021 10:00:00 PM -0.09 31.838 0.319 8.18 8.76 14.11
2/26/2021 10:15:00 PM -0.09 31.838 0.319 8.18 9.01 14.12
2/26/2021 10:30:00 PM -0.09 31.838 0.319 8.19 8.91 14.14
2/26/2021 10:45:00 PM -0.09 31.838 0.319 8.19 8.58 14.14
2/26/2021 11:00:00 PM -0.08 31.856 0.319 8.19 9.23 14.16
2/26/2021 11:15:00 PM -0.08 31.856 0.32 8.19 8.59 14.17
2/26/2021 11:30:00 PM -0.08 31.856 0.32 8.19 8.74 14.18
2/26/2021 11:45:00 PM -0.07 31.874 0.32 8.2 9.15 14.19
2/27/2021 12:00:00 AM -0.07 31.874 0.32 8.19 8.46 14.19
2/27/2021 12:15:00 AM -0.07 31.874 0.321 8.19 8.47 14.18
2/27/2021 12:30:00 AM -0.07 31.874 0.321 8.19 8.73 14.19
2/27/2021 12:45:00 AM -0.07 31.874 0.322 8.19 9.49 14.18
2/27/2021 1:00:00 AM -0.07 31.874 0.322 8.19 8.6 14.18
2/27/2021 1:15:00 AM -0.06 31.892 0.323 8.19 9.02 14.17
2/27/2021 1:30:00 AM -0.06 31.892 0.323 8.19 8.27 14.17
2/27/2021 1:45:00 AM -0.06 31.892 0.324 8.2 8.49 14.16
2/27/2021 2:00:00 AM -0.06 31.892 0.325 8.19 8.09 14.15
2/27/2021 2:15:00 AM -0.06 31.892 0.326 8.2 8.15 14.15
2/27/2021 2:30:00 AM -0.06 31.892 0.326 8.19 7.91 14.14
2/27/2021 2:45:00 AM -0.06 31.892 0.327 8.19 8.58 14.14
2/27/2021 3:00:00 AM -0.05 31.91 0.328 8.19 8.39 14.12
2/27/2021 3:15:00 AM -0.05 31.91 0.329 8.2 8.14 14.12
2/27/2021 3:30:00 AM -0.06 31.892 0.331 8.19 7.4 14.11
2/27/2021 3:45:00 AM -0.06 31.892 0.332 8.19 9.22 14.11
2/27/2021 4:00:00 AM -0.06 31.892 0.333 8.19 8.83 14.1
2/27/2021 4:15:00 AM -0.06 31.892 0.334 8.19 8.19 14.1
2/27/2021 4:30:00 AM -0.06 31.892 0.335 8.19 7.89 14.09
2/27/2021 4:45:00 AM -0.06 31.892 0.337 8.19 7.73 14.09
2/27/2021 5:00:00 AM -0.06 31.892 0.338 8.19 7.73 14.09
2/27/2021 5:15:00 AM -0.06 31.892 0.339 8.19 7.55 14.07
2/27/2021 5:30:00 AM -0.06 31.892 0.34 8.18 8.65 14.07
2/27/2021 5:45:00 AM -0.06 31.892 0.342 8.18 8.41 14.06
2/27/2021 6:00:00 AM -0.06 31.892 0.343 8.18 9.19 14.06
2/27/2021 6:15:00 AM -0.05 31.91 0.344 8.18 9.33 14.05
2/27/2021 6:30:00 AM -0.05 31.91 0.345 8.18 8.2 14.05
2/27/2021 6:45:00 AM -0.05 31.91 0.346 8.18 8.12 14.04
2/27/2021 7:00:00 AM -0.05 31.91 0.347 8.18 7.74 14.02
2/27/2021 7:15:00 AM -0.04 31.928 0.348 8.18 8.11 14.03
2/27/2021 7:30:00 AM -0.03 31.946 0.348 8.18 8.03 14.02
2/27/2021 7:45:00 AM -0.02 31.964 0.349 8.18 8.71 14.02
2/27/2021 8:00:00 AM 0 32 0.349 8.18 8.59 14.02
2/27/2021 8:15:00 AM 0.02 32.036 0.349 8.18 8.36 14.04
2/27/2021 8:30:00 AM 0.03 32.054 0.349 8.19 8.26 14.04
2/27/2021 8:45:00 AM 0.03 32.054 0.349 8.19 8.18 14.05
2/27/2021 9:00:00 AM 0.02 32.036 0.35 8.19 7.95 14.04
2/27/2021 9:15:00 AM 0.02 32.036 0.35 8.19 8.31 14.03
2/27/2021 9:30:00 AM 0.03 32.054 0.35 8.19 8.59 14.04
2/27/2021 9:45:00 AM 0.05 32.09 0.35 8.2 8.77 14.04
2/27/2021 10:00:00 AM 0.06 32.108 0.35 8.2 10.89 14.03
2/27/2021 10:15:00 AM 0.07 32.126 0.35 8.2 9.47 14.04
2/27/2021 10:30:00 AM 0.08 32.144 0.351 8.21 9.84 14.03
2/27/2021 10:45:00 AM 0.11 32.198 0.351 8.21 10.75 14.01
2/27/2021 11:00:00 AM 0.14 32.252 0.351 8.22 9.28 14
2/27/2021 11:15:00 AM 0.18 32.324 0.351 8.22 8.24 13.99
2/27/2021 11:30:00 AM 0.2 32.36 0.351 8.22 8.3 13.97
2/27/2021 11:45:00 AM 0.22 32.396 0.352 8.22 8 13.96
2/27/2021 12:00:00 PM 0.24 32.432 0.352 8.23 7.6 13.95
2/27/2021 12:15:00 PM 0.24 32.432 0.352 8.23 8.37 13.92
2/27/2021 12:30:00 PM 0.24 32.432 0.353 8.23 7.94 13.91
2/27/2021 12:45:00 PM 0.26 32.468 0.353 8.23 8.04 13.89
2/27/2021 1:00:00 PM 0.27 32.486 0.353 8.23 7.8 13.88
2/27/2021 1:15:00 PM 0.3 32.54 0.354 8.24 8.18 13.89
2/27/2021 1:30:00 PM 0.34 32.612 0.354 8.24 8.11 13.88
2/27/2021 1:45:00 PM 0.38 32.684 0.354 8.24 7.98 13.86
2/27/2021 2:00:00 PM 0.42 32.756 0.354 8.24 8.29 13.85
2/27/2021 2:15:00 PM 0.46 32.828 0.354 8.25 8.29 13.85
2/27/2021 2:30:00 PM 0.46 32.828 0.354 8.25 8.29 13.83
2/27/2021 2:45:00 PM 0.46 32.828 0.354 8.25 8.58 13.81
2/27/2021 3:00:00 PM 0.47 32.846 0.354 8.25 8.48 13.8
2/27/2021 3:15:00 PM 0.49 32.882 0.355 8.25 8.32 13.78
2/27/2021 3:30:00 PM 0.5 32.9 0.355 8.25 7.62 13.78
2/27/2021 3:45:00 PM 0.52 32.936 0.355 8.25 7.78 13.77
2/27/2021 4:00:00 PM 0.55 32.99 0.356 8.25 8.18 13.77
2/27/2021 4:15:00 PM 0.55 32.99 0.356 8.25 7.56 13.76
2/27/2021 4:30:00 PM 0.55 32.99 0.356 8.25 9.12 13.75
2/27/2021 4:45:00 PM 0.55 32.99 0.356 8.25 8 13.75
2/27/2021 5:00:00 PM 0.57 33.026 0.356 8.26 8.03 13.74
2/27/2021 5:15:00 PM 0.55 32.99 0.356 8.25 8.42 13.73
2/27/2021 5:30:00 PM 0.53 32.954 0.356 8.25 8.44 13.71
2/27/2021 5:45:00 PM 0.51 32.918 0.357 8.25 51.91 13.7
2/27/2021 6:00:00 PM 0.49 32.882 0.357 8.24 11.54 13.7
2/27/2021 6:15:00 PM 0.47 32.846 0.357 8.24 9.44 13.7
2/27/2021 6:30:00 PM 0.48 32.864 0.358 8.24 7.96 13.7
2/27/2021 6:45:00 PM 0.47 32.846 0.358 8.23 8.57 13.7
2/27/2021 7:00:00 PM 0.46 32.828 0.358 8.23 7.77 13.7
2/27/2021 7:15:00 PM 0.46 32.828 0.358 8.23 9.29 13.71
2/27/2021 7:30:00 PM 0.44 32.792 0.357 8.23 8.61 13.72
2/27/2021 7:45:00 PM 0.42 32.756 0.357 8.22 9.37 13.72
2/27/2021 8:00:00 PM 0.4 32.72 0.357 8.22 8.67 13.73
2/27/2021 8:15:00 PM 0.38 32.684 0.357 8.22 9.37 13.75
2/27/2021 8:30:00 PM 0.36 32.648 0.357 8.22 8.61 13.77
2/27/2021 8:45:00 PM 0.33 32.594 0.357 8.22 8.69 13.78
2/27/2021 9:00:00 PM 0.31 32.558 0.357 8.22 9.4 13.8
2/27/2021 9:15:00 PM 0.29 32.522 0.357 8.22 8.35 13.81
2/27/2021 9:30:00 PM 0.29 32.522 0.357 8.22 9.31 13.83
2/27/2021 9:45:00 PM 0.28 32.504 0.357 8.21 9.01 13.85
2/27/2021 10:00:00 PM 0.27 32.486 0.356 8.21 8.82 13.86
2/27/2021 10:15:00 PM 0.25 32.45 0.356 8.21 8.01 13.88
2/27/2021 10:30:00 PM 0.23 32.414 0.356 8.21 8.07 13.9
2/27/2021 10:45:00 PM 0.23 32.414 0.356 8.21 8.71 13.89
2/27/2021 11:00:00 PM 0.21 32.378 0.356 8.2 8.49 13.91
2/27/2021 11:15:00 PM 0.2 32.36 0.355 8.21 8.07 13.92
2/27/2021 11:30:00 PM 0.17 32.306 0.355 8.21 8.21 13.94
2/27/2021 11:45:00 PM 0.16 32.288 0.355 8.2 8.2 13.94
2/28/2021 12:00:00 AM 0.14 32.252 0.355 8.2 7.61 13.96
2/28/2021 12:15:00 AM 0.14 32.252 0.355 8.2 7.8 13.97
2/28/2021 12:30:00 AM 0.13 32.234 0.355 8.2 8.1 13.98
2/28/2021 12:45:00 AM 0.11 32.198 0.354 8.2 7.87 13.98
2/28/2021 1:00:00 AM 0.1 32.18 0.354 8.2 8.17 14
2/28/2021 1:15:00 AM 0.09 32.162 0.354 8.2 8.41 14
2/28/2021 1:30:00 AM 0.08 32.144 0.354 8.2 7.81 14
2/28/2021 1:45:00 AM 0.08 32.144 0.354 8.2 7.72 14.01
2/28/2021 2:00:00 AM 0.09 32.162 0.354 8.2 7.86 14.03
2/28/2021 2:15:00 AM 0.08 32.144 0.353 8.2 7.69 14.01
2/28/2021 2:30:00 AM 0.08 32.144 0.353 8.2 7.96 14.03
2/28/2021 2:45:00 AM 0.08 32.144 0.353 8.2 8.17 14.02
2/28/2021 3:00:00 AM 0.08 32.144 0.352 8.19 7.86 14.04
2/28/2021 3:15:00 AM 0.09 32.162 0.352 8.2 8.24 14.02
2/28/2021 3:30:00 AM 0.09 32.162 0.352 8.2 7.96 14.03
2/28/2021 3:45:00 AM 0.09 32.162 0.351 8.19 7.77 14.02
2/28/2021 4:00:00 AM 0.1 32.18 0.351 8.19 8.19 14.04
2/28/2021 4:15:00 AM 0.1 32.18 0.35 8.19 7.76 14.03
2/28/2021 4:30:00 AM 0.1 32.18 0.35 8.19 7.28 14.03
2/28/2021 4:45:00 AM 0.1 32.18 0.35 8.19 7.66 14.03
2/28/2021 5:00:00 AM 0.11 32.198 0.349 8.19 7.56 14.03
2/28/2021 5:15:00 AM 0.11 32.198 0.349 8.19 8.31 14.03
2/28/2021 5:30:00 AM 0.11 32.198 0.349 8.19 7.96 14.02
2/28/2021 5:45:00 AM 0.12 32.216 0.349 8.19 7.9 14.03
2/28/2021 6:00:00 AM 0.12 32.216 0.348 8.19 7.43 14.02
2/28/2021 6:15:00 AM 0.12 32.216 0.348 8.19 7.43 14.01
2/28/2021 6:30:00 AM 0.12 32.216 0.348 8.19 9.01 14.01
2/28/2021 6:45:00 AM 0.13 32.234 0.348 8.19 7.66 14.02
2/28/2021 7:00:00 AM 0.13 32.234 0.347 8.19 8.51 14.01
2/28/2021 7:15:00 AM 0.14 32.252 0.347 8.19 8.5 14.03
2/28/2021 7:30:00 AM 0.15 32.27 0.347 8.19 7.78 14.03
2/28/2021 7:45:00 AM 0.16 32.288 0.347 8.19 7.37 14.06
2/28/2021 8:00:00 AM 0.17 32.306 0.347 8.19 7.84 14.07
2/28/2021 8:15:00 AM 0.19 32.342 0.347 8.2 7.47 14.09
2/28/2021 8:30:00 AM 0.22 32.396 0.347 8.2 7.99 14.1
2/28/2021 8:45:00 AM 0.24 32.432 0.347 8.2 7.97 14.12
2/28/2021 9:00:00 AM 0.27 32.486 0.347 8.21 7.52 14.11
2/28/2021 9:15:00 AM 0.3 32.54 0.346 8.21 8.09 14.13
2/28/2021 9:30:00 AM 0.34 32.612 0.346 8.21 8.22 14.14
2/28/2021 9:45:00 AM 0.38 32.684 0.346 8.21